<?xml version='1.0' encoding='UTF-8'?>
<gpx version="1.1" creator="https://www.komoot.de" xmlns="http://www.topografix.com/GPX/1/1" xmlns:xsi="http://www.w3.org/2001/XMLSchema-instance" xsi:schemaLocation="http://www.topografix.com/GPX/1/1 http://www.topografix.com/GPX/1/1/gpx.xsd">
  <metadata>
    <name>51_750 SulzchopfWindetal</name>
    <author>
      <link href="https://www.komoot.de">
        <text>komoot</text>
        <type>text/html</type>
      </link>
    </author>
  </metadata>
  <trk>
    <name>51_750 SulzchopfWindetal</name>
    <trkseg>
      <trkpt lat="47.541368" lon="7.870826">
        <ele>339.188783</ele>
        <time>2021-11-12T20:43:14.277Z</time>
      </trkpt>
      <trkpt lat="47.541410" lon="7.870791">
        <ele>339.188783</ele>
        <time>2021-11-12T20:43:14.999Z</time>
      </trkpt>
      <trkpt lat="47.541576" lon="7.870664">
        <ele>339.188783</ele>
        <time>2021-11-12T20:43:17.438Z</time>
      </trkpt>
      <trkpt lat="47.541550" lon="7.870601">
        <ele>339.188783</ele>
        <time>2021-11-12T20:43:18.248Z</time>
      </trkpt>
      <trkpt lat="47.541521" lon="7.870517">
        <ele>339.188783</ele>
        <time>2021-11-12T20:43:19.305Z</time>
      </trkpt>
      <trkpt lat="47.541606" lon="7.870424">
        <ele>339.188783</ele>
        <time>2021-11-12T20:43:20.933Z</time>
      </trkpt>
      <trkpt lat="47.541910" lon="7.870106">
        <ele>339.188783</ele>
        <time>2021-11-12T20:43:26.595Z</time>
      </trkpt>
      <trkpt lat="47.542014" lon="7.870126">
        <ele>339.157320</ele>
        <time>2021-11-12T20:43:28.067Z</time>
      </trkpt>
      <trkpt lat="47.542118" lon="7.870135">
        <ele>339.054674</ele>
        <time>2021-11-12T20:43:29.809Z</time>
      </trkpt>
      <trkpt lat="47.542181" lon="7.870131">
        <ele>338.992544</ele>
        <time>2021-11-12T20:43:30.681Z</time>
      </trkpt>
      <trkpt lat="47.542317" lon="7.870012">
        <ele>338.836914</ele>
        <time>2021-11-12T20:43:32.787Z</time>
      </trkpt>
      <trkpt lat="47.542348" lon="7.869983">
        <ele>338.800790</ele>
        <time>2021-11-12T20:43:33.226Z</time>
      </trkpt>
      <trkpt lat="47.542329" lon="7.869820">
        <ele>338.690771</ele>
        <time>2021-11-12T20:43:35.011Z</time>
      </trkpt>
      <trkpt lat="47.542372" lon="7.869746">
        <ele>338.625829</ele>
        <time>2021-11-12T20:43:35.820Z</time>
      </trkpt>
      <trkpt lat="47.542657" lon="7.869354">
        <ele>338.242643</ele>
        <time>2021-11-12T20:43:40.616Z</time>
      </trkpt>
      <trkpt lat="47.542696" lon="7.869257">
        <ele>338.167550</ele>
        <time>2021-11-12T20:43:41.551Z</time>
      </trkpt>
      <trkpt lat="47.542722" lon="7.869201">
        <ele>338.122344</ele>
        <time>2021-11-12T20:43:42.142Z</time>
      </trkpt>
      <trkpt lat="47.543049" lon="7.868759">
        <ele>337.686190</ele>
        <time>2021-11-12T20:43:47.055Z</time>
      </trkpt>
      <trkpt lat="47.543105" lon="7.868711">
        <ele>337.622443</ele>
        <time>2021-11-12T20:43:47.793Z</time>
      </trkpt>
      <trkpt lat="47.543201" lon="7.868657">
        <ele>337.521265</ele>
        <time>2021-11-12T20:43:48.872Z</time>
      </trkpt>
      <trkpt lat="47.543657" lon="7.868359">
        <ele>336.908330</ele>
        <time>2021-11-12T20:43:54.667Z</time>
      </trkpt>
      <trkpt lat="47.543801" lon="7.868269">
        <ele>336.705769</ele>
        <time>2021-11-12T20:43:57.147Z</time>
      </trkpt>
      <trkpt lat="47.544214" lon="7.867988">
        <ele>336.116745</ele>
        <time>2021-11-12T20:44:04.763Z</time>
      </trkpt>
      <trkpt lat="47.544246" lon="7.867967">
        <ele>336.071385</ele>
        <time>2021-11-12T20:44:05.360Z</time>
      </trkpt>
      <trkpt lat="47.544410" lon="7.867825">
        <ele>335.825190</ele>
        <time>2021-11-12T20:44:08.613Z</time>
      </trkpt>
      <trkpt lat="47.544469" lon="7.867776">
        <ele>335.737527</ele>
        <time>2021-11-12T20:44:09.635Z</time>
      </trkpt>
      <trkpt lat="47.544568" lon="7.867693">
        <ele>335.590096</ele>
        <time>2021-11-12T20:44:11.562Z</time>
      </trkpt>
      <trkpt lat="47.545003" lon="7.867278">
        <ele>335.165557</ele>
        <time>2021-11-12T20:44:20.410Z</time>
      </trkpt>
      <trkpt lat="47.545160" lon="7.866985">
        <ele>335.323541</ele>
        <time>2021-11-12T20:44:25.061Z</time>
      </trkpt>
      <trkpt lat="47.545240" lon="7.866887">
        <ele>335.388487</ele>
        <time>2021-11-12T20:44:27.334Z</time>
      </trkpt>
      <trkpt lat="47.546096" lon="7.866147">
        <ele>336.008542</ele>
        <time>2021-11-12T20:44:52.404Z</time>
      </trkpt>
      <trkpt lat="47.546327" lon="7.865959">
        <ele>336.173436</ele>
        <time>2021-11-12T20:44:58.825Z</time>
      </trkpt>
      <trkpt lat="47.546510" lon="7.865766">
        <ele>336.230535</ele>
        <time>2021-11-12T20:45:05.211Z</time>
      </trkpt>
      <trkpt lat="47.546819" lon="7.865489">
        <ele>336.273837</ele>
        <time>2021-11-12T20:45:13.364Z</time>
      </trkpt>
      <trkpt lat="47.546889" lon="7.865225">
        <ele>336.296791</ele>
        <time>2021-11-12T20:45:17.151Z</time>
      </trkpt>
      <trkpt lat="47.546894" lon="7.864837">
        <ele>336.328196</ele>
        <time>2021-11-12T20:45:22.327Z</time>
      </trkpt>
      <trkpt lat="47.546885" lon="7.864500">
        <ele>336.355490</ele>
        <time>2021-11-12T20:45:27.967Z</time>
      </trkpt>
      <trkpt lat="47.546974" lon="7.864423">
        <ele>336.367847</ele>
        <time>2021-11-12T20:45:29.555Z</time>
      </trkpt>
      <trkpt lat="47.547320" lon="7.863864">
        <ele>336.389261</ele>
        <time>2021-11-12T20:45:39.480Z</time>
      </trkpt>
      <trkpt lat="47.547568" lon="7.863151">
        <ele>335.535542</ele>
        <time>2021-11-12T20:45:48.493Z</time>
      </trkpt>
      <trkpt lat="47.547930" lon="7.861711">
        <ele>333.900033</ele>
        <time>2021-11-12T20:46:04.867Z</time>
      </trkpt>
      <trkpt lat="47.548049" lon="7.860929">
        <ele>333.168719</ele>
        <time>2021-11-12T20:46:13.566Z</time>
      </trkpt>
      <trkpt lat="47.548334" lon="7.859801">
        <ele>332.174368</ele>
        <time>2021-11-12T20:46:27.048Z</time>
      </trkpt>
      <trkpt lat="47.548611" lon="7.858381">
        <ele>331.330471</ele>
        <time>2021-11-12T20:46:45.004Z</time>
      </trkpt>
      <trkpt lat="47.548686" lon="7.857973">
        <ele>331.282651</ele>
        <time>2021-11-12T20:46:50.393Z</time>
      </trkpt>
      <trkpt lat="47.548701" lon="7.857893">
        <ele>331.273261</ele>
        <time>2021-11-12T20:46:51.514Z</time>
      </trkpt>
      <trkpt lat="47.548743" lon="7.857692">
        <ele>331.249467</ele>
        <time>2021-11-12T20:46:54.288Z</time>
      </trkpt>
      <trkpt lat="47.548887" lon="7.857308">
        <ele>331.199789</ele>
        <time>2021-11-12T20:47:00.322Z</time>
      </trkpt>
      <trkpt lat="47.549362" lon="7.855774">
        <ele>331.327640</ele>
        <time>2021-11-12T20:47:24.366Z</time>
      </trkpt>
      <trkpt lat="47.549566" lon="7.855225">
        <ele>331.539365</ele>
        <time>2021-11-12T20:47:33.659Z</time>
      </trkpt>
      <trkpt lat="47.549883" lon="7.854434">
        <ele>331.850153</ele>
        <time>2021-11-12T20:47:48.000Z</time>
      </trkpt>
      <trkpt lat="47.550221" lon="7.853833">
        <ele>332.083891</ele>
        <time>2021-11-12T20:47:57.481Z</time>
      </trkpt>
      <trkpt lat="47.549708" lon="7.853279">
        <ele>332.324162</ele>
        <time>2021-11-12T20:48:11.388Z</time>
      </trkpt>
      <trkpt lat="47.549285" lon="7.852784">
        <ele>332.528180</ele>
        <time>2021-11-12T20:48:22.812Z</time>
      </trkpt>
      <trkpt lat="47.549535" lon="7.852225">
        <ele>332.621657</ele>
        <time>2021-11-12T20:48:32.516Z</time>
      </trkpt>
      <trkpt lat="47.549652" lon="7.851969">
        <ele>332.492722</ele>
        <time>2021-11-12T20:48:36.916Z</time>
      </trkpt>
      <trkpt lat="47.550009" lon="7.851173">
        <ele>332.094158</ele>
        <time>2021-11-12T20:48:49.261Z</time>
      </trkpt>
      <trkpt lat="47.550333" lon="7.850434">
        <ele>331.726659</ele>
        <time>2021-11-12T20:48:59.510Z</time>
      </trkpt>
      <trkpt lat="47.550488" lon="7.850081">
        <ele>331.540954</ele>
        <time>2021-11-12T20:49:04.222Z</time>
      </trkpt>
      <trkpt lat="47.550708" lon="7.849579">
        <ele>330.957906</ele>
        <time>2021-11-12T20:49:10.874Z</time>
      </trkpt>
      <trkpt lat="47.550810" lon="7.849346">
        <ele>330.687377</ele>
        <time>2021-11-12T20:49:13.954Z</time>
      </trkpt>
      <trkpt lat="47.550975" lon="7.849066">
        <ele>330.325295</ele>
        <time>2021-11-12T20:49:18.196Z</time>
      </trkpt>
      <trkpt lat="47.551242" lon="7.848702">
        <ele>329.801636</ele>
        <time>2021-11-12T20:49:22.440Z</time>
      </trkpt>
      <trkpt lat="47.551669" lon="7.848083">
        <ele>328.938138</ele>
        <time>2021-11-12T20:49:29.281Z</time>
      </trkpt>
      <trkpt lat="47.551196" lon="7.847517">
        <ele>328.011014</ele>
        <time>2021-11-12T20:49:36.148Z</time>
      </trkpt>
      <trkpt lat="47.551184" lon="7.847206">
        <ele>327.690413</ele>
        <time>2021-11-12T20:49:38.518Z</time>
      </trkpt>
      <trkpt lat="47.551205" lon="7.846694">
        <ele>327.162495</ele>
        <time>2021-11-12T20:49:42.445Z</time>
      </trkpt>
      <trkpt lat="47.551344" lon="7.844621">
        <ele>325.406578</ele>
        <time>2021-11-12T20:49:59.060Z</time>
      </trkpt>
      <trkpt lat="47.551454" lon="7.842815">
        <ele>324.184140</ele>
        <time>2021-11-12T20:50:14.247Z</time>
      </trkpt>
      <trkpt lat="47.551635" lon="7.842777">
        <ele>324.030578</ele>
        <time>2021-11-12T20:50:17.691Z</time>
      </trkpt>
      <trkpt lat="47.551668" lon="7.842770">
        <ele>324.002575</ele>
        <time>2021-11-12T20:50:18.323Z</time>
      </trkpt>
      <trkpt lat="47.551922" lon="7.842704">
        <ele>323.785954</ele>
        <time>2021-11-12T20:50:22.962Z</time>
      </trkpt>
      <trkpt lat="47.552380" lon="7.842592">
        <ele>323.396021</ele>
        <time>2021-11-12T20:50:31.400Z</time>
      </trkpt>
      <trkpt lat="47.552833" lon="7.842495">
        <ele>323.011540</ele>
        <time>2021-11-12T20:50:39.377Z</time>
      </trkpt>
      <trkpt lat="47.553133" lon="7.842431">
        <ele>322.678316</ele>
        <time>2021-11-12T20:50:44.627Z</time>
      </trkpt>
      <trkpt lat="47.553123" lon="7.842222">
        <ele>322.461585</ele>
        <time>2021-11-12T20:50:46.208Z</time>
      </trkpt>
      <trkpt lat="47.553216" lon="7.841849">
        <ele>322.050270</ele>
        <time>2021-11-12T20:50:49.419Z</time>
      </trkpt>
      <trkpt lat="47.553231" lon="7.841529">
        <ele>321.718468</ele>
        <time>2021-11-12T20:50:51.911Z</time>
      </trkpt>
      <trkpt lat="47.552939" lon="7.839526">
        <ele>319.603127</ele>
        <time>2021-11-12T20:51:07.449Z</time>
      </trkpt>
      <trkpt lat="47.552802" lon="7.839009">
        <ele>319.033609</ele>
        <time>2021-11-12T20:51:11.772Z</time>
      </trkpt>
      <trkpt lat="47.552736" lon="7.838578">
        <ele>318.580437</ele>
        <time>2021-11-12T20:51:15.208Z</time>
      </trkpt>
      <trkpt lat="47.552701" lon="7.838117">
        <ele>318.104754</ele>
        <time>2021-11-12T20:51:18.856Z</time>
      </trkpt>
      <trkpt lat="47.552697" lon="7.838068">
        <ele>318.054145</ele>
        <time>2021-11-12T20:51:19.226Z</time>
      </trkpt>
      <trkpt lat="47.552719" lon="7.836790">
        <ele>316.652053</ele>
        <time>2021-11-12T20:51:29.262Z</time>
      </trkpt>
      <trkpt lat="47.552714" lon="7.835010">
        <ele>314.558158</ele>
        <time>2021-11-12T20:51:43.004Z</time>
      </trkpt>
      <trkpt lat="47.552700" lon="7.833938">
        <ele>312.724937</ele>
        <time>2021-11-12T20:51:50.571Z</time>
      </trkpt>
      <trkpt lat="47.552696" lon="7.833789">
        <ele>312.441776</ele>
        <time>2021-11-12T20:51:51.568Z</time>
      </trkpt>
      <trkpt lat="47.552452" lon="7.833284">
        <ele>311.262416</ele>
        <time>2021-11-12T20:51:55.893Z</time>
      </trkpt>
      <trkpt lat="47.552467" lon="7.833198">
        <ele>311.093744</ele>
        <time>2021-11-12T20:51:56.506Z</time>
      </trkpt>
      <trkpt lat="47.552511" lon="7.833072">
        <ele>310.824350</ele>
        <time>2021-11-12T20:51:57.511Z</time>
      </trkpt>
      <trkpt lat="47.552556" lon="7.832977">
        <ele>310.603956</ele>
        <time>2021-11-12T20:51:58.328Z</time>
      </trkpt>
      <trkpt lat="47.552616" lon="7.832891">
        <ele>310.369079</ele>
        <time>2021-11-12T20:51:59.134Z</time>
      </trkpt>
      <trkpt lat="47.552653" lon="7.832745">
        <ele>310.072937</ele>
        <time>2021-11-12T20:52:00.229Z</time>
      </trkpt>
      <trkpt lat="47.552690" lon="7.832598">
        <ele>309.775016</ele>
        <time>2021-11-12T20:52:01.335Z</time>
      </trkpt>
      <trkpt lat="47.552645" lon="7.830686">
        <ele>306.171754</ele>
        <time>2021-11-12T20:52:14.457Z</time>
      </trkpt>
      <trkpt lat="47.552554" lon="7.829266">
        <ele>303.795029</ele>
        <time>2021-11-12T20:52:24.744Z</time>
      </trkpt>
      <trkpt lat="47.552416" lon="7.828822">
        <ele>303.296803</ele>
        <time>2021-11-12T20:52:28.408Z</time>
      </trkpt>
      <trkpt lat="47.552404" lon="7.828582">
        <ele>303.051514</ele>
        <time>2021-11-12T20:52:30.323Z</time>
      </trkpt>
      <trkpt lat="47.552421" lon="7.828481">
        <ele>302.945418</ele>
        <time>2021-11-12T20:52:31.078Z</time>
      </trkpt>
      <trkpt lat="47.552477" lon="7.828294">
        <ele>302.736899</ele>
        <time>2021-11-12T20:52:32.653Z</time>
      </trkpt>
      <trkpt lat="47.552515" lon="7.828094">
        <ele>302.525127</ele>
        <time>2021-11-12T20:52:34.372Z</time>
      </trkpt>
      <trkpt lat="47.552491" lon="7.827227">
        <ele>301.640701</ele>
        <time>2021-11-12T20:52:41.279Z</time>
      </trkpt>
      <trkpt lat="47.552567" lon="7.824508">
        <ele>300.261330</ele>
        <time>2021-11-12T20:53:05.128Z</time>
      </trkpt>
      <trkpt lat="47.552896" lon="7.820699">
        <ele>298.386321</ele>
        <time>2021-11-12T20:53:37.866Z</time>
      </trkpt>
      <trkpt lat="47.552948" lon="7.819358">
        <ele>297.798835</ele>
        <time>2021-11-12T20:53:49.405Z</time>
      </trkpt>
      <trkpt lat="47.552844" lon="7.816432">
        <ele>297.537966</ele>
        <time>2021-11-12T20:54:17.758Z</time>
      </trkpt>
      <trkpt lat="47.552820" lon="7.815794">
        <ele>297.734852</ele>
        <time>2021-11-12T20:54:24.913Z</time>
      </trkpt>
      <trkpt lat="47.552711" lon="7.812955">
        <ele>298.703594</ele>
        <time>2021-11-12T20:54:58.120Z</time>
      </trkpt>
      <trkpt lat="47.552566" lon="7.810386">
        <ele>299.746831</ele>
        <time>2021-11-12T20:55:27.574Z</time>
      </trkpt>
      <trkpt lat="47.552398" lon="7.808880">
        <ele>300.418430</ele>
        <time>2021-11-12T20:55:46.055Z</time>
      </trkpt>
      <trkpt lat="47.552068" lon="7.806445">
        <ele>300.844484</ele>
        <time>2021-11-12T20:56:14.395Z</time>
      </trkpt>
      <trkpt lat="47.552015" lon="7.806307">
        <ele>300.862794</ele>
        <time>2021-11-12T20:56:16.118Z</time>
      </trkpt>
      <trkpt lat="47.551895" lon="7.806278">
        <ele>300.883567</ele>
        <time>2021-11-12T20:56:17.427Z</time>
      </trkpt>
      <trkpt lat="47.551651" lon="7.806246">
        <ele>300.866560</ele>
        <time>2021-11-12T20:56:21.190Z</time>
      </trkpt>
      <trkpt lat="47.551671" lon="7.806117">
        <ele>300.795574</ele>
        <time>2021-11-12T20:56:22.504Z</time>
      </trkpt>
      <trkpt lat="47.551681" lon="7.805477">
        <ele>300.452240</ele>
        <time>2021-11-12T20:56:30.202Z</time>
      </trkpt>
      <trkpt lat="47.551709" lon="7.805000">
        <ele>300.195451</ele>
        <time>2021-11-12T20:56:35.841Z</time>
      </trkpt>
      <trkpt lat="47.551731" lon="7.804667">
        <ele>300.016005</ele>
        <time>2021-11-12T20:56:40.427Z</time>
      </trkpt>
      <trkpt lat="47.551744" lon="7.804473">
        <ele>299.911448</ele>
        <time>2021-11-12T20:56:42.422Z</time>
      </trkpt>
      <trkpt lat="47.551741" lon="7.804294">
        <ele>299.815418</ele>
        <time>2021-11-12T20:56:44.757Z</time>
      </trkpt>
      <trkpt lat="47.551692" lon="7.803510">
        <ele>299.389974</ele>
        <time>2021-11-12T20:56:53.887Z</time>
      </trkpt>
      <trkpt lat="47.551751" lon="7.803369">
        <ele>299.297950</ele>
        <time>2021-11-12T20:56:55.822Z</time>
      </trkpt>
      <trkpt lat="47.551744" lon="7.803277">
        <ele>299.246595</ele>
        <time>2021-11-12T20:56:56.617Z</time>
      </trkpt>
      <trkpt lat="47.551732" lon="7.803125">
        <ele>299.161706</ele>
        <time>2021-11-12T20:56:58.015Z</time>
      </trkpt>
      <trkpt lat="47.551700" lon="7.802648">
        <ele>298.895813</ele>
        <time>2021-11-12T20:57:02.361Z</time>
      </trkpt>
      <trkpt lat="47.551688" lon="7.802394">
        <ele>298.754575</ele>
        <time>2021-11-12T20:57:04.755Z</time>
      </trkpt>
      <trkpt lat="47.551679" lon="7.802228">
        <ele>298.662199</ele>
        <time>2021-11-12T20:57:06.248Z</time>
      </trkpt>
      <trkpt lat="47.551671" lon="7.802077">
        <ele>298.578182</ele>
        <time>2021-11-12T20:57:07.809Z</time>
      </trkpt>
      <trkpt lat="47.551669" lon="7.801853">
        <ele>298.453919</ele>
        <time>2021-11-12T20:57:09.791Z</time>
      </trkpt>
      <trkpt lat="47.551666" lon="7.801632">
        <ele>298.331307</ele>
        <time>2021-11-12T20:57:11.765Z</time>
      </trkpt>
      <trkpt lat="47.551669" lon="7.801438">
        <ele>298.223667</ele>
        <time>2021-11-12T20:57:13.267Z</time>
      </trkpt>
      <trkpt lat="47.551672" lon="7.801147">
        <ele>298.062232</ele>
        <time>2021-11-12T20:57:15.731Z</time>
      </trkpt>
      <trkpt lat="47.551704" lon="7.800451">
        <ele>296.857170</ele>
        <time>2021-11-12T20:57:21.156Z</time>
      </trkpt>
      <trkpt lat="47.551712" lon="7.800249">
        <ele>296.468549</ele>
        <time>2021-11-12T20:57:22.597Z</time>
      </trkpt>
      <trkpt lat="47.551754" lon="7.799766">
        <ele>295.533248</ele>
        <time>2021-11-12T20:57:25.967Z</time>
      </trkpt>
      <trkpt lat="47.551793" lon="7.799434">
        <ele>294.886035</ele>
        <time>2021-11-12T20:57:28.310Z</time>
      </trkpt>
      <trkpt lat="47.551805" lon="7.799326">
        <ele>294.675822</ele>
        <time>2021-11-12T20:57:29.027Z</time>
      </trkpt>
      <trkpt lat="47.551948" lon="7.798607">
        <ele>293.236230</ele>
        <time>2021-11-12T20:57:34.099Z</time>
      </trkpt>
      <trkpt lat="47.552084" lon="7.798083">
        <ele>291.908694</ele>
        <time>2021-11-12T20:57:37.776Z</time>
      </trkpt>
      <trkpt lat="47.552069" lon="7.797917">
        <ele>291.477372</ele>
        <time>2021-11-12T20:57:39.320Z</time>
      </trkpt>
      <trkpt lat="47.552254" lon="7.797372">
        <ele>289.906288</ele>
        <time>2021-11-12T20:57:44.933Z</time>
      </trkpt>
      <trkpt lat="47.552528" lon="7.796772">
        <ele>288.040610</ele>
        <time>2021-11-12T20:57:51.681Z</time>
      </trkpt>
      <trkpt lat="47.552716" lon="7.796299">
        <ele>286.626947</ele>
        <time>2021-11-12T20:57:57.014Z</time>
      </trkpt>
      <trkpt lat="47.552781" lon="7.796025">
        <ele>285.960692</ele>
        <time>2021-11-12T20:58:00.052Z</time>
      </trkpt>
      <trkpt lat="47.552802" lon="7.795917">
        <ele>285.832041</ele>
        <time>2021-11-12T20:58:01.170Z</time>
      </trkpt>
      <trkpt lat="47.552823" lon="7.795805">
        <ele>285.698985</ele>
        <time>2021-11-12T20:58:02.354Z</time>
      </trkpt>
      <trkpt lat="47.552835" lon="7.795607">
        <ele>285.471433</ele>
        <time>2021-11-12T20:58:04.775Z</time>
      </trkpt>
      <trkpt lat="47.552839" lon="7.795386">
        <ele>285.218375</ele>
        <time>2021-11-12T20:58:07.055Z</time>
      </trkpt>
      <trkpt lat="47.552909" lon="7.795229">
        <ele>285.002992</ele>
        <time>2021-11-12T20:58:09.133Z</time>
      </trkpt>
      <trkpt lat="47.552892" lon="7.795106">
        <ele>284.859279</ele>
        <time>2021-11-12T20:58:10.128Z</time>
      </trkpt>
      <trkpt lat="47.552861" lon="7.794992">
        <ele>284.718596</ele>
        <time>2021-11-12T20:58:11.001Z</time>
      </trkpt>
      <trkpt lat="47.552837" lon="7.794925">
        <ele>284.631772</ele>
        <time>2021-11-12T20:58:11.517Z</time>
      </trkpt>
      <trkpt lat="47.552826" lon="7.794894">
        <ele>284.591682</ele>
        <time>2021-11-12T20:58:11.764Z</time>
      </trkpt>
      <trkpt lat="47.552823" lon="7.794887">
        <ele>284.582191</ele>
        <time>2021-11-12T20:58:11.829Z</time>
      </trkpt>
      <trkpt lat="47.552786" lon="7.794796">
        <ele>284.460586</ele>
        <time>2021-11-12T20:58:12.606Z</time>
      </trkpt>
      <trkpt lat="47.552763" lon="7.794750">
        <ele>284.395057</ele>
        <time>2021-11-12T20:58:13.307Z</time>
      </trkpt>
      <trkpt lat="47.552644" lon="7.794507">
        <ele>284.051400</ele>
        <time>2021-11-12T20:58:15.582Z</time>
      </trkpt>
      <trkpt lat="47.552532" lon="7.794285">
        <ele>283.734138</ele>
        <time>2021-11-12T20:58:17.783Z</time>
      </trkpt>
      <trkpt lat="47.552494" lon="7.794200">
        <ele>283.617433</ele>
        <time>2021-11-12T20:58:18.657Z</time>
      </trkpt>
      <trkpt lat="47.552384" lon="7.793915">
        <ele>283.241629</ele>
        <time>2021-11-12T20:58:21.103Z</time>
      </trkpt>
      <trkpt lat="47.552369" lon="7.793872">
        <ele>283.186223</ele>
        <time>2021-11-12T20:58:21.744Z</time>
      </trkpt>
      <trkpt lat="47.552292" lon="7.793607">
        <ele>282.933970</ele>
        <time>2021-11-12T20:58:24.213Z</time>
      </trkpt>
      <trkpt lat="47.552233" lon="7.793294">
        <ele>282.804596</ele>
        <time>2021-11-12T20:58:27.276Z</time>
      </trkpt>
      <trkpt lat="47.552216" lon="7.793160">
        <ele>282.750316</ele>
        <time>2021-11-12T20:58:28.436Z</time>
      </trkpt>
      <trkpt lat="47.552198" lon="7.792976">
        <ele>282.676301</ele>
        <time>2021-11-12T20:58:30.190Z</time>
      </trkpt>
      <trkpt lat="47.552184" lon="7.792540">
        <ele>282.502533</ele>
        <time>2021-11-12T20:58:34.571Z</time>
      </trkpt>
      <trkpt lat="47.552180" lon="7.792294">
        <ele>282.404572</ele>
        <time>2021-11-12T20:58:37.090Z</time>
      </trkpt>
      <trkpt lat="47.552182" lon="7.792040">
        <ele>282.303448</ele>
        <time>2021-11-12T20:58:39.256Z</time>
      </trkpt>
      <trkpt lat="47.552201" lon="7.791031">
        <ele>281.896121</ele>
        <time>2021-11-12T20:58:47.754Z</time>
      </trkpt>
      <trkpt lat="47.552135" lon="7.790302">
        <ele>281.479928</ele>
        <time>2021-11-12T20:58:54.182Z</time>
      </trkpt>
      <trkpt lat="47.552036" lon="7.789826">
        <ele>281.198088</ele>
        <time>2021-11-12T20:58:58.512Z</time>
      </trkpt>
      <trkpt lat="47.551858" lon="7.788906">
        <ele>280.656544</ele>
        <time>2021-11-12T20:59:06.543Z</time>
      </trkpt>
      <trkpt lat="47.551712" lon="7.788013">
        <ele>280.032931</ele>
        <time>2021-11-12T20:59:14.044Z</time>
      </trkpt>
      <trkpt lat="47.551694" lon="7.787879">
        <ele>279.925934</ele>
        <time>2021-11-12T20:59:15.158Z</time>
      </trkpt>
      <trkpt lat="47.551690" lon="7.787827">
        <ele>279.884947</ele>
        <time>2021-11-12T20:59:15.584Z</time>
      </trkpt>
      <trkpt lat="47.551672" lon="7.787603">
        <ele>279.708287</ele>
        <time>2021-11-12T20:59:17.338Z</time>
      </trkpt>
      <trkpt lat="47.551498" lon="7.785081">
        <ele>277.956009</ele>
        <time>2021-11-12T20:59:37.794Z</time>
      </trkpt>
      <trkpt lat="47.551479" lon="7.784929">
        <ele>277.882231</ele>
        <time>2021-11-12T20:59:39.049Z</time>
      </trkpt>
      <trkpt lat="47.551510" lon="7.784910">
        <ele>277.858509</ele>
        <time>2021-11-12T20:59:39.520Z</time>
      </trkpt>
      <trkpt lat="47.551531" lon="7.784884">
        <ele>277.839157</ele>
        <time>2021-11-12T20:59:39.872Z</time>
      </trkpt>
      <trkpt lat="47.551548" lon="7.784841">
        <ele>277.815373</ele>
        <time>2021-11-12T20:59:40.335Z</time>
      </trkpt>
      <trkpt lat="47.551554" lon="7.784788">
        <ele>277.789725</ele>
        <time>2021-11-12T20:59:40.805Z</time>
      </trkpt>
      <trkpt lat="47.551547" lon="7.784737">
        <ele>277.764886</ele>
        <time>2021-11-12T20:59:41.253Z</time>
      </trkpt>
      <trkpt lat="47.551525" lon="7.784691">
        <ele>277.737979</ele>
        <time>2021-11-12T20:59:41.761Z</time>
      </trkpt>
      <trkpt lat="47.551500" lon="7.784666">
        <ele>277.716651</ele>
        <time>2021-11-12T20:59:42.141Z</time>
      </trkpt>
      <trkpt lat="47.551472" lon="7.784654">
        <ele>277.696040</ele>
        <time>2021-11-12T20:59:42.507Z</time>
      </trkpt>
      <trkpt lat="47.551437" lon="7.784657">
        <ele>277.671249</ele>
        <time>2021-11-12T20:59:42.935Z</time>
      </trkpt>
      <trkpt lat="47.551439" lon="7.784323">
        <ele>277.511838</ele>
        <time>2021-11-12T20:59:45.859Z</time>
      </trkpt>
      <trkpt lat="47.551344" lon="7.783179">
        <ele>277.022807</ele>
        <time>2021-11-12T20:59:56.353Z</time>
      </trkpt>
      <trkpt lat="47.551302" lon="7.782671">
        <ele>276.951872</ele>
        <time>2021-11-12T21:00:01.457Z</time>
      </trkpt>
      <trkpt lat="47.551230" lon="7.781831">
        <ele>276.834512</ele>
        <time>2021-11-12T21:00:09.639Z</time>
      </trkpt>
      <trkpt lat="47.551198" lon="7.781475">
        <ele>276.784735</ele>
        <time>2021-11-12T21:00:13.139Z</time>
      </trkpt>
      <trkpt lat="47.551270" lon="7.781390">
        <ele>276.765829</ele>
        <time>2021-11-12T21:00:14.907Z</time>
      </trkpt>
      <trkpt lat="47.551208" lon="7.780694">
        <ele>276.657699</ele>
        <time>2021-11-12T21:00:21.603Z</time>
      </trkpt>
      <trkpt lat="47.551085" lon="7.779125">
        <ele>276.199680</ele>
        <time>2021-11-12T21:00:36.077Z</time>
      </trkpt>
      <trkpt lat="47.550982" lon="7.777915">
        <ele>275.901511</ele>
        <time>2021-11-12T21:00:46.644Z</time>
      </trkpt>
      <trkpt lat="47.550963" lon="7.777797">
        <ele>275.899043</ele>
        <time>2021-11-12T21:00:47.656Z</time>
      </trkpt>
      <trkpt lat="47.550782" lon="7.776690">
        <ele>275.875870</ele>
        <time>2021-11-12T21:00:58.429Z</time>
      </trkpt>
      <trkpt lat="47.550771" lon="7.776636">
        <ele>275.874723</ele>
        <time>2021-11-12T21:00:59.038Z</time>
      </trkpt>
      <trkpt lat="47.550607" lon="7.775871">
        <ele>275.858393</ele>
        <time>2021-11-12T21:01:07.765Z</time>
      </trkpt>
      <trkpt lat="47.550598" lon="7.775828">
        <ele>275.857477</ele>
        <time>2021-11-12T21:01:08.250Z</time>
      </trkpt>
      <trkpt lat="47.550505" lon="7.775364">
        <ele>275.916995</ele>
        <time>2021-11-12T21:01:13.764Z</time>
      </trkpt>
      <trkpt lat="47.550320" lon="7.774602">
        <ele>276.197287</ele>
        <time>2021-11-12T21:01:23.261Z</time>
      </trkpt>
      <trkpt lat="47.550090" lon="7.773646">
        <ele>276.548576</ele>
        <time>2021-11-12T21:01:35.121Z</time>
      </trkpt>
      <trkpt lat="47.550061" lon="7.773283">
        <ele>276.675097</ele>
        <time>2021-11-12T21:01:39.258Z</time>
      </trkpt>
      <trkpt lat="47.550203" lon="7.772543">
        <ele>276.901263</ele>
        <time>2021-11-12T21:01:47.468Z</time>
      </trkpt>
      <trkpt lat="47.550199" lon="7.772076">
        <ele>277.024203</ele>
        <time>2021-11-12T21:01:52.453Z</time>
      </trkpt>
      <trkpt lat="47.550069" lon="7.771373">
        <ele>277.216077</ele>
        <time>2021-11-12T21:02:00.194Z</time>
      </trkpt>
      <trkpt lat="47.549845" lon="7.770734">
        <ele>277.405617</ele>
        <time>2021-11-12T21:02:08.354Z</time>
      </trkpt>
      <trkpt lat="47.549714" lon="7.770276">
        <ele>277.645282</ele>
        <time>2021-11-12T21:02:14.125Z</time>
      </trkpt>
      <trkpt lat="47.549678" lon="7.770148">
        <ele>277.746624</ele>
        <time>2021-11-12T21:02:15.919Z</time>
      </trkpt>
      <trkpt lat="47.549502" lon="7.769420">
        <ele>278.311764</ele>
        <time>2021-11-12T21:02:25.231Z</time>
      </trkpt>
      <trkpt lat="47.549363" lon="7.768846">
        <ele>278.757441</ele>
        <time>2021-11-12T21:02:33.097Z</time>
      </trkpt>
      <trkpt lat="47.549184" lon="7.768021">
        <ele>279.390761</ele>
        <time>2021-11-12T21:02:45.537Z</time>
      </trkpt>
      <trkpt lat="47.548990" lon="7.767248">
        <ele>279.659597</ele>
        <time>2021-11-12T21:02:57.245Z</time>
      </trkpt>
      <trkpt lat="47.548565" lon="7.765680">
        <ele>280.171894</ele>
        <time>2021-11-12T21:03:16.097Z</time>
      </trkpt>
      <trkpt lat="47.547909" lon="7.763208">
        <ele>278.050845</ele>
        <time>2021-11-12T21:03:36.971Z</time>
      </trkpt>
      <trkpt lat="47.547848" lon="7.762928">
        <ele>277.782389</ele>
        <time>2021-11-12T21:03:39.117Z</time>
      </trkpt>
      <trkpt lat="47.547778" lon="7.762713">
        <ele>277.550308</ele>
        <time>2021-11-12T21:03:40.932Z</time>
      </trkpt>
      <trkpt lat="47.547577" lon="7.762307">
        <ele>277.060778</ele>
        <time>2021-11-12T21:03:44.703Z</time>
      </trkpt>
      <trkpt lat="47.547194" lon="7.761352">
        <ele>275.980744</ele>
        <time>2021-11-12T21:03:53.210Z</time>
      </trkpt>
      <trkpt lat="47.547070" lon="7.760904">
        <ele>275.509972</ele>
        <time>2021-11-12T21:03:57.030Z</time>
      </trkpt>
      <trkpt lat="47.546989" lon="7.760612">
        <ele>275.325200</ele>
        <time>2021-11-12T21:03:59.700Z</time>
      </trkpt>
      <trkpt lat="47.546948" lon="7.760482">
        <ele>275.406154</ele>
        <time>2021-11-12T21:04:00.950Z</time>
      </trkpt>
      <trkpt lat="47.546870" lon="7.760301">
        <ele>275.527308</ele>
        <time>2021-11-12T21:04:02.850Z</time>
      </trkpt>
      <trkpt lat="47.546804" lon="7.760164">
        <ele>275.622267</ele>
        <time>2021-11-12T21:04:04.301Z</time>
      </trkpt>
      <trkpt lat="47.546552" lon="7.759727">
        <ele>275.946537</ele>
        <time>2021-11-12T21:04:10.286Z</time>
      </trkpt>
      <trkpt lat="47.546312" lon="7.759326">
        <ele>276.248901</ele>
        <time>2021-11-12T21:04:16.650Z</time>
      </trkpt>
      <trkpt lat="47.546264" lon="7.759224">
        <ele>276.319053</ele>
        <time>2021-11-12T21:04:18.288Z</time>
      </trkpt>
      <trkpt lat="47.545911" lon="7.758393">
        <ele>277.136658</ele>
        <time>2021-11-12T21:04:34.675Z</time>
      </trkpt>
      <trkpt lat="47.545677" lon="7.757815">
        <ele>278.639656</ele>
        <time>2021-11-12T21:04:47.127Z</time>
      </trkpt>
      <trkpt lat="47.545429" lon="7.757231">
        <ele>280.178272</ele>
        <time>2021-11-12T21:05:00.434Z</time>
      </trkpt>
      <trkpt lat="47.545360" lon="7.757065">
        <ele>280.613012</ele>
        <time>2021-11-12T21:05:05.093Z</time>
      </trkpt>
      <trkpt lat="47.545326" lon="7.756949">
        <ele>280.895029</ele>
        <time>2021-11-12T21:05:07.844Z</time>
      </trkpt>
      <trkpt lat="47.545304" lon="7.756852">
        <ele>281.123226</ele>
        <time>2021-11-12T21:05:10.045Z</time>
      </trkpt>
      <trkpt lat="47.545260" lon="7.756637">
        <ele>281.624232</ele>
        <time>2021-11-12T21:05:15.103Z</time>
      </trkpt>
      <trkpt lat="47.545021" lon="7.756243">
        <ele>282.786866</ele>
        <time>2021-11-12T21:05:26.192Z</time>
      </trkpt>
      <trkpt lat="47.544022" lon="7.753705">
        <ele>287.533730</ele>
        <time>2021-11-12T21:06:14.663Z</time>
      </trkpt>
      <trkpt lat="47.543798" lon="7.753068">
        <ele>288.132522</ele>
        <time>2021-11-12T21:06:24.403Z</time>
      </trkpt>
      <trkpt lat="47.543319" lon="7.751355">
        <ele>289.552381</ele>
        <time>2021-11-12T21:06:47.533Z</time>
      </trkpt>
      <trkpt lat="47.543222" lon="7.751091">
        <ele>289.628511</ele>
        <time>2021-11-12T21:06:50.806Z</time>
      </trkpt>
      <trkpt lat="47.543115" lon="7.750826">
        <ele>289.706721</ele>
        <time>2021-11-12T21:06:55.557Z</time>
      </trkpt>
      <trkpt lat="47.543033" lon="7.750614">
        <ele>289.768606</ele>
        <time>2021-11-12T21:06:58.140Z</time>
      </trkpt>
      <trkpt lat="47.542614" lon="7.749755">
        <ele>290.037032</ele>
        <time>2021-11-12T21:07:09.680Z</time>
      </trkpt>
      <trkpt lat="47.542390" lon="7.749307">
        <ele>290.172574</ele>
        <time>2021-11-12T21:07:15.496Z</time>
      </trkpt>
      <trkpt lat="47.542347" lon="7.749227">
        <ele>290.173763</ele>
        <time>2021-11-12T21:07:17.038Z</time>
      </trkpt>
      <trkpt lat="47.542132" lon="7.748742">
        <ele>290.180509</ele>
        <time>2021-11-12T21:07:24.603Z</time>
      </trkpt>
      <trkpt lat="47.541758" lon="7.747784">
        <ele>290.193377</ele>
        <time>2021-11-12T21:07:39.336Z</time>
      </trkpt>
      <trkpt lat="47.541626" lon="7.747331">
        <ele>290.199114</ele>
        <time>2021-11-12T21:07:46.129Z</time>
      </trkpt>
      <trkpt lat="47.541583" lon="7.747186">
        <ele>290.200956</ele>
        <time>2021-11-12T21:07:48.512Z</time>
      </trkpt>
      <trkpt lat="47.541511" lon="7.746885">
        <ele>290.206937</ele>
        <time>2021-11-12T21:07:52.986Z</time>
      </trkpt>
      <trkpt lat="47.541432" lon="7.746552">
        <ele>290.217753</ele>
        <time>2021-11-12T21:07:58.095Z</time>
      </trkpt>
      <trkpt lat="47.541167" lon="7.745463">
        <ele>290.253225</ele>
        <time>2021-11-12T21:08:13.908Z</time>
      </trkpt>
      <trkpt lat="47.541160" lon="7.745250">
        <ele>290.259760</ele>
        <time>2021-11-12T21:08:16.760Z</time>
      </trkpt>
      <trkpt lat="47.541148" lon="7.745144">
        <ele>290.263054</ele>
        <time>2021-11-12T21:08:18.286Z</time>
      </trkpt>
      <trkpt lat="47.541130" lon="7.745083">
        <ele>290.265094</ele>
        <time>2021-11-12T21:08:19.208Z</time>
      </trkpt>
      <trkpt lat="47.541038" lon="7.744940">
        <ele>290.271147</ele>
        <time>2021-11-12T21:08:21.591Z</time>
      </trkpt>
      <trkpt lat="47.541019" lon="7.744859">
        <ele>290.273775</ele>
        <time>2021-11-12T21:08:22.827Z</time>
      </trkpt>
      <trkpt lat="47.540913" lon="7.744421">
        <ele>290.280707</ele>
        <time>2021-11-12T21:08:29.378Z</time>
      </trkpt>
      <trkpt lat="47.540738" lon="7.743641">
        <ele>290.246443</ele>
        <time>2021-11-12T21:08:41.178Z</time>
      </trkpt>
      <trkpt lat="47.540617" lon="7.742875">
        <ele>290.213649</ele>
        <time>2021-11-12T21:08:52.131Z</time>
      </trkpt>
      <trkpt lat="47.540589" lon="7.742558">
        <ele>290.200322</ele>
        <time>2021-11-12T21:08:56.500Z</time>
      </trkpt>
      <trkpt lat="47.540552" lon="7.742240">
        <ele>290.186871</ele>
        <time>2021-11-12T21:09:00.808Z</time>
      </trkpt>
      <trkpt lat="47.540438" lon="7.740453">
        <ele>289.258950</ele>
        <time>2021-11-12T21:09:22.659Z</time>
      </trkpt>
      <trkpt lat="47.540379" lon="7.739685">
        <ele>288.782052</ele>
        <time>2021-11-12T21:09:31.356Z</time>
      </trkpt>
      <trkpt lat="47.540374" lon="7.739620">
        <ele>288.741688</ele>
        <time>2021-11-12T21:09:32.104Z</time>
      </trkpt>
      <trkpt lat="47.540372" lon="7.739490">
        <ele>288.661460</ele>
        <time>2021-11-12T21:09:33.665Z</time>
      </trkpt>
      <trkpt lat="47.540387" lon="7.739372">
        <ele>288.587377</ele>
        <time>2021-11-12T21:09:35.166Z</time>
      </trkpt>
      <trkpt lat="47.540394" lon="7.739259">
        <ele>288.518128</ele>
        <time>2021-11-12T21:09:36.513Z</time>
      </trkpt>
      <trkpt lat="47.540388" lon="7.739213">
        <ele>288.490966</ele>
        <time>2021-11-12T21:09:36.906Z</time>
      </trkpt>
      <trkpt lat="47.540032" lon="7.737141">
        <ele>287.251436</ele>
        <time>2021-11-12T21:10:01.630Z</time>
      </trkpt>
      <trkpt lat="47.539885" lon="7.736538">
        <ele>287.029173</ele>
        <time>2021-11-12T21:10:10.432Z</time>
      </trkpt>
      <trkpt lat="47.539305" lon="7.734151">
        <ele>287.655564</ele>
        <time>2021-11-12T21:10:48.304Z</time>
      </trkpt>
      <trkpt lat="47.539263" lon="7.733885">
        <ele>287.799878</ele>
        <time>2021-11-12T21:10:52.618Z</time>
      </trkpt>
      <trkpt lat="47.539178" lon="7.733656">
        <ele>287.937933</ele>
        <time>2021-11-12T21:10:56.686Z</time>
      </trkpt>
      <trkpt lat="47.538887" lon="7.732454">
        <ele>288.612521</ele>
        <time>2021-11-12T21:11:17.146Z</time>
      </trkpt>
      <trkpt lat="47.538512" lon="7.730958">
        <ele>289.176072</ele>
        <time>2021-11-12T21:11:42.624Z</time>
      </trkpt>
      <trkpt lat="47.538339" lon="7.730082">
        <ele>289.338445</ele>
        <time>2021-11-12T21:11:55.995Z</time>
      </trkpt>
      <trkpt lat="47.538275" lon="7.729744">
        <ele>289.400897</ele>
        <time>2021-11-12T21:12:00.856Z</time>
      </trkpt>
      <trkpt lat="47.538248" lon="7.729713">
        <ele>289.409899</ele>
        <time>2021-11-12T21:12:01.470Z</time>
      </trkpt>
      <trkpt lat="47.538168" lon="7.729263">
        <ele>289.492684</ele>
        <time>2021-11-12T21:12:07.555Z</time>
      </trkpt>
      <trkpt lat="47.538148" lon="7.729131">
        <ele>289.454402</ele>
        <time>2021-11-12T21:12:09.224Z</time>
      </trkpt>
      <trkpt lat="47.538123" lon="7.729100">
        <ele>289.400717</ele>
        <time>2021-11-12T21:12:09.820Z</time>
      </trkpt>
      <trkpt lat="47.538083" lon="7.728919">
        <ele>289.189004</ele>
        <time>2021-11-12T21:12:12.153Z</time>
      </trkpt>
      <trkpt lat="47.538045" lon="7.728668">
        <ele>288.903053</ele>
        <time>2021-11-12T21:12:15.293Z</time>
      </trkpt>
      <trkpt lat="47.537932" lon="7.727936">
        <ele>288.068329</ele>
        <time>2021-11-12T21:12:23.963Z</time>
      </trkpt>
      <trkpt lat="47.537861" lon="7.727909">
        <ele>287.947627</ele>
        <time>2021-11-12T21:12:25.150Z</time>
      </trkpt>
      <trkpt lat="47.537824" lon="7.727674">
        <ele>287.679381</ele>
        <time>2021-11-12T21:12:27.002Z</time>
      </trkpt>
      <trkpt lat="47.537675" lon="7.726458">
        <ele>286.006363</ele>
        <time>2021-11-12T21:12:35.945Z</time>
      </trkpt>
      <trkpt lat="47.537323" lon="7.724748">
        <ele>281.551194</ele>
        <time>2021-11-12T21:12:47.688Z</time>
      </trkpt>
      <trkpt lat="47.537127" lon="7.723974">
        <ele>279.598364</ele>
        <time>2021-11-12T21:12:53.124Z</time>
      </trkpt>
      <trkpt lat="47.537106" lon="7.723875">
        <ele>279.406470</ele>
        <time>2021-11-12T21:12:53.808Z</time>
      </trkpt>
      <trkpt lat="47.537075" lon="7.723694">
        <ele>279.061163</ele>
        <time>2021-11-12T21:12:55.037Z</time>
      </trkpt>
      <trkpt lat="47.536854" lon="7.722329">
        <ele>276.465436</ele>
        <time>2021-11-12T21:13:04.950Z</time>
      </trkpt>
      <trkpt lat="47.536667" lon="7.721718">
        <ele>275.224891</ele>
        <time>2021-11-12T21:13:10.073Z</time>
      </trkpt>
      <trkpt lat="47.536590" lon="7.721558">
        <ele>274.867404</ele>
        <time>2021-11-12T21:13:11.590Z</time>
      </trkpt>
      <trkpt lat="47.536471" lon="7.721389">
        <ele>274.438138</ele>
        <time>2021-11-12T21:13:13.519Z</time>
      </trkpt>
      <trkpt lat="47.536092" lon="7.720862">
        <ele>273.084578</ele>
        <time>2021-11-12T21:13:18.906Z</time>
      </trkpt>
      <trkpt lat="47.535988" lon="7.720671">
        <ele>272.653223</ele>
        <time>2021-11-12T21:13:20.565Z</time>
      </trkpt>
      <trkpt lat="47.535897" lon="7.720461">
        <ele>272.214560</ele>
        <time>2021-11-12T21:13:22.269Z</time>
      </trkpt>
      <trkpt lat="47.535876" lon="7.720409">
        <ele>272.108042</ele>
        <time>2021-11-12T21:13:22.686Z</time>
      </trkpt>
      <trkpt lat="47.535806" lon="7.720212">
        <ele>271.716695</ele>
        <time>2021-11-12T21:13:24.214Z</time>
      </trkpt>
      <trkpt lat="47.535746" lon="7.719899">
        <ele>271.144716</ele>
        <time>2021-11-12T21:13:26.516Z</time>
      </trkpt>
      <trkpt lat="47.535713" lon="7.719682">
        <ele>270.753688</ele>
        <time>2021-11-12T21:13:28.059Z</time>
      </trkpt>
      <trkpt lat="47.535661" lon="7.719317">
        <ele>270.189286</ele>
        <time>2021-11-12T21:13:30.778Z</time>
      </trkpt>
      <trkpt lat="47.535608" lon="7.718948">
        <ele>269.830552</ele>
        <time>2021-11-12T21:13:33.546Z</time>
      </trkpt>
      <trkpt lat="47.535572" lon="7.718705">
        <ele>269.593987</ele>
        <time>2021-11-12T21:13:35.251Z</time>
      </trkpt>
      <trkpt lat="47.535558" lon="7.718578">
        <ele>269.471623</ele>
        <time>2021-11-12T21:13:36.338Z</time>
      </trkpt>
      <trkpt lat="47.535516" lon="7.718273">
        <ele>269.175628</ele>
        <time>2021-11-12T21:13:38.571Z</time>
      </trkpt>
      <trkpt lat="47.535494" lon="7.718111">
        <ele>269.018497</ele>
        <time>2021-11-12T21:13:39.729Z</time>
      </trkpt>
      <trkpt lat="47.535490" lon="7.718086">
        <ele>268.994066</ele>
        <time>2021-11-12T21:13:40.256Z</time>
      </trkpt>
      <trkpt lat="47.535419" lon="7.717562">
        <ele>268.485859</ele>
        <time>2021-11-12T21:13:44.277Z</time>
      </trkpt>
      <trkpt lat="47.535384" lon="7.717243">
        <ele>268.178542</ele>
        <time>2021-11-12T21:13:46.902Z</time>
      </trkpt>
      <trkpt lat="47.535370" lon="7.716931">
        <ele>267.881207</ele>
        <time>2021-11-12T21:13:50.178Z</time>
      </trkpt>
      <trkpt lat="47.535347" lon="7.716584">
        <ele>267.968637</ele>
        <time>2021-11-12T21:13:53.797Z</time>
      </trkpt>
      <trkpt lat="47.535313" lon="7.716133">
        <ele>268.382094</ele>
        <time>2021-11-12T21:14:00.947Z</time>
      </trkpt>
      <trkpt lat="47.535254" lon="7.715336">
        <ele>269.112588</ele>
        <time>2021-11-12T21:14:13.497Z</time>
      </trkpt>
      <trkpt lat="47.535269" lon="7.714924">
        <ele>269.488505</ele>
        <time>2021-11-12T21:14:19.629Z</time>
      </trkpt>
      <trkpt lat="47.535269" lon="7.714705">
        <ele>269.688035</ele>
        <time>2021-11-12T21:14:22.824Z</time>
      </trkpt>
      <trkpt lat="47.535269" lon="7.714432">
        <ele>269.936763</ele>
        <time>2021-11-12T21:14:26.400Z</time>
      </trkpt>
      <trkpt lat="47.535222" lon="7.713738">
        <ele>270.387415</ele>
        <time>2021-11-12T21:14:35.389Z</time>
      </trkpt>
      <trkpt lat="47.535202" lon="7.713540">
        <ele>270.481417</ele>
        <time>2021-11-12T21:14:37.888Z</time>
      </trkpt>
      <trkpt lat="47.535174" lon="7.713262">
        <ele>270.613390</ele>
        <time>2021-11-12T21:14:41.197Z</time>
      </trkpt>
      <trkpt lat="47.535128" lon="7.712889">
        <ele>270.791422</ele>
        <time>2021-11-12T21:14:45.888Z</time>
      </trkpt>
      <trkpt lat="47.535110" lon="7.712748">
        <ele>270.858799</ele>
        <time>2021-11-12T21:14:47.517Z</time>
      </trkpt>
      <trkpt lat="47.534950" lon="7.712810">
        <ele>270.973817</ele>
        <time>2021-11-12T21:14:50.512Z</time>
      </trkpt>
      <trkpt lat="47.534845" lon="7.712858">
        <ele>271.050239</ele>
        <time>2021-11-12T21:14:52.236Z</time>
      </trkpt>
      <trkpt lat="47.534760" lon="7.712896">
        <ele>271.111987</ele>
        <time>2021-11-12T21:14:53.681Z</time>
      </trkpt>
      <trkpt lat="47.534597" lon="7.712970">
        <ele>271.230552</ele>
        <time>2021-11-12T21:14:56.708Z</time>
      </trkpt>
      <trkpt lat="47.534528" lon="7.713002">
        <ele>271.280835</ele>
        <time>2021-11-12T21:14:57.839Z</time>
      </trkpt>
      <trkpt lat="47.534344" lon="7.713085">
        <ele>271.414602</ele>
        <time>2021-11-12T21:15:00.886Z</time>
      </trkpt>
      <trkpt lat="47.534242" lon="7.713132">
        <ele>271.466886</ele>
        <time>2021-11-12T21:15:02.715Z</time>
      </trkpt>
      <trkpt lat="47.534150" lon="7.712752">
        <ele>271.567919</ele>
        <time>2021-11-12T21:15:06.818Z</time>
      </trkpt>
      <trkpt lat="47.534103" lon="7.712557">
        <ele>271.619738</ele>
        <time>2021-11-12T21:15:09.287Z</time>
      </trkpt>
      <trkpt lat="47.533850" lon="7.712715">
        <ele>271.721517</ele>
        <time>2021-11-12T21:15:13.538Z</time>
      </trkpt>
      <trkpt lat="47.533712" lon="7.712802">
        <ele>271.777113</ele>
        <time>2021-11-12T21:15:15.903Z</time>
      </trkpt>
      <trkpt lat="47.533585" lon="7.712861">
        <ele>271.826452</ele>
        <time>2021-11-12T21:15:17.915Z</time>
      </trkpt>
      <trkpt lat="47.533204" lon="7.712930">
        <ele>271.968736</ele>
        <time>2021-11-12T21:15:23.998Z</time>
      </trkpt>
      <trkpt lat="47.532918" lon="7.712834">
        <ele>272.077441</ele>
        <time>2021-11-12T21:15:28.929Z</time>
      </trkpt>
      <trkpt lat="47.532835" lon="7.712791">
        <ele>272.112057</ele>
        <time>2021-11-12T21:15:30.441Z</time>
      </trkpt>
      <trkpt lat="47.532756" lon="7.712690">
        <ele>272.201761</ele>
        <time>2021-11-12T21:15:32.507Z</time>
      </trkpt>
      <trkpt lat="47.532382" lon="7.712125">
        <ele>272.660959</ele>
        <time>2021-11-12T21:15:41.977Z</time>
      </trkpt>
      <trkpt lat="47.531932" lon="7.711461">
        <ele>273.206956</ele>
        <time>2021-11-12T21:15:54.169Z</time>
      </trkpt>
      <trkpt lat="47.531434" lon="7.710621">
        <ele>273.742017</ele>
        <time>2021-11-12T21:16:07.865Z</time>
      </trkpt>
      <trkpt lat="47.531400" lon="7.710563">
        <ele>273.761399</ele>
        <time>2021-11-12T21:16:09.065Z</time>
      </trkpt>
      <trkpt lat="47.531289" lon="7.710373">
        <ele>273.824803</ele>
        <time>2021-11-12T21:16:11.938Z</time>
      </trkpt>
      <trkpt lat="47.531278" lon="7.710355">
        <ele>273.830929</ele>
        <time>2021-11-12T21:16:12.339Z</time>
      </trkpt>
      <trkpt lat="47.531138" lon="7.710116">
        <ele>273.910775</ele>
        <time>2021-11-12T21:16:16.058Z</time>
      </trkpt>
      <trkpt lat="47.531092" lon="7.710037">
        <ele>273.937100</ele>
        <time>2021-11-12T21:16:17.164Z</time>
      </trkpt>
      <trkpt lat="47.531010" lon="7.709856">
        <ele>273.992105</ele>
        <time>2021-11-12T21:16:19.595Z</time>
      </trkpt>
      <trkpt lat="47.530924" lon="7.709643">
        <ele>274.054733</ele>
        <time>2021-11-12T21:16:22.372Z</time>
      </trkpt>
      <trkpt lat="47.530863" lon="7.709389">
        <ele>274.122764</ele>
        <time>2021-11-12T21:16:25.164Z</time>
      </trkpt>
      <trkpt lat="47.530680" lon="7.709102">
        <ele>274.222380</ele>
        <time>2021-11-12T21:16:29.240Z</time>
      </trkpt>
      <trkpt lat="47.530477" lon="7.708668">
        <ele>274.314579</ele>
        <time>2021-11-12T21:16:34.421Z</time>
      </trkpt>
      <trkpt lat="47.530376" lon="7.708542">
        <ele>274.293691</ele>
        <time>2021-11-12T21:16:36.248Z</time>
      </trkpt>
      <trkpt lat="47.530090" lon="7.708115">
        <ele>274.229456</ele>
        <time>2021-11-12T21:16:41.636Z</time>
      </trkpt>
      <trkpt lat="47.530040" lon="7.708071">
        <ele>274.220257</ele>
        <time>2021-11-12T21:16:42.400Z</time>
      </trkpt>
      <trkpt lat="47.529814" lon="7.708010">
        <ele>274.183921</ele>
        <time>2021-11-12T21:16:45.643Z</time>
      </trkpt>
      <trkpt lat="47.528916" lon="7.707267">
        <ele>274.055607</ele>
        <time>2021-11-12T21:17:00.458Z</time>
      </trkpt>
      <trkpt lat="47.528783" lon="7.707096">
        <ele>274.073228</ele>
        <time>2021-11-12T21:17:03.241Z</time>
      </trkpt>
      <trkpt lat="47.528280" lon="7.706338">
        <ele>274.145024</ele>
        <time>2021-11-12T21:17:14.028Z</time>
      </trkpt>
      <trkpt lat="47.527953" lon="7.705596">
        <ele>274.204882</ele>
        <time>2021-11-12T21:17:22.904Z</time>
      </trkpt>
      <trkpt lat="47.527843" lon="7.705480">
        <ele>274.218392</ele>
        <time>2021-11-12T21:17:25.416Z</time>
      </trkpt>
      <trkpt lat="47.527726" lon="7.705561">
        <ele>274.284228</ele>
        <time>2021-11-12T21:17:27.339Z</time>
      </trkpt>
      <trkpt lat="47.527591" lon="7.705744">
        <ele>274.409247</ele>
        <time>2021-11-12T21:17:30.395Z</time>
      </trkpt>
      <trkpt lat="47.527501" lon="7.705847">
        <ele>274.486945</ele>
        <time>2021-11-12T21:17:32.197Z</time>
      </trkpt>
      <trkpt lat="47.527348" lon="7.705987">
        <ele>274.609802</ele>
        <time>2021-11-12T21:17:34.830Z</time>
      </trkpt>
      <trkpt lat="47.527314" lon="7.705980">
        <ele>274.633251</ele>
        <time>2021-11-12T21:17:35.686Z</time>
      </trkpt>
      <trkpt lat="47.526914" lon="7.705009">
        <ele>275.157910</ele>
        <time>2021-11-12T21:17:48.248Z</time>
      </trkpt>
      <trkpt lat="47.526775" lon="7.704691">
        <ele>275.332643</ele>
        <time>2021-11-12T21:17:52.737Z</time>
      </trkpt>
      <trkpt lat="47.526360" lon="7.704025">
        <ele>276.965355</ele>
        <time>2021-11-12T21:18:06.224Z</time>
      </trkpt>
      <trkpt lat="47.526313" lon="7.703953">
        <ele>277.198734</ele>
        <time>2021-11-12T21:18:07.837Z</time>
      </trkpt>
      <trkpt lat="47.526010" lon="7.703497">
        <ele>278.689657</ele>
        <time>2021-11-12T21:18:20.007Z</time>
      </trkpt>
      <trkpt lat="47.525589" lon="7.702861">
        <ele>280.765228</ele>
        <time>2021-11-12T21:18:40.371Z</time>
      </trkpt>
      <trkpt lat="47.525119" lon="7.702443">
        <ele>282.857750</ele>
        <time>2021-11-12T21:18:58.624Z</time>
      </trkpt>
      <trkpt lat="47.524997" lon="7.702331">
        <ele>283.452531</ele>
        <time>2021-11-12T21:19:04.215Z</time>
      </trkpt>
      <trkpt lat="47.524706" lon="7.702264">
        <ele>284.672818</ele>
        <time>2021-11-12T21:19:14.239Z</time>
      </trkpt>
      <trkpt lat="47.524615" lon="7.702250">
        <ele>285.051919</ele>
        <time>2021-11-12T21:19:17.384Z</time>
      </trkpt>
      <trkpt lat="47.524401" lon="7.702218">
        <ele>285.943168</ele>
        <time>2021-11-12T21:19:24.241Z</time>
      </trkpt>
      <trkpt lat="47.524013" lon="7.702161">
        <ele>287.558794</ele>
        <time>2021-11-12T21:19:36.346Z</time>
      </trkpt>
      <trkpt lat="47.523926" lon="7.702155">
        <ele>287.919682</ele>
        <time>2021-11-12T21:19:39.080Z</time>
      </trkpt>
      <trkpt lat="47.523800" lon="7.702197">
        <ele>288.454844</ele>
        <time>2021-11-12T21:19:42.478Z</time>
      </trkpt>
      <trkpt lat="47.523758" lon="7.702269">
        <ele>288.721070</ele>
        <time>2021-11-12T21:19:44.120Z</time>
      </trkpt>
      <trkpt lat="47.523683" lon="7.702416">
        <ele>289.146649</ele>
        <time>2021-11-12T21:19:48.035Z</time>
      </trkpt>
      <trkpt lat="47.523539" lon="7.702744">
        <ele>289.454895</ele>
        <time>2021-11-12T21:19:54.765Z</time>
      </trkpt>
      <trkpt lat="47.523476" lon="7.702988">
        <ele>289.660718</ele>
        <time>2021-11-12T21:19:58.121Z</time>
      </trkpt>
      <trkpt lat="47.523207" lon="7.702948">
        <ele>289.976157</ele>
        <time>2021-11-12T21:20:03.542Z</time>
      </trkpt>
      <trkpt lat="47.523064" lon="7.702927">
        <ele>290.143823</ele>
        <time>2021-11-12T21:20:06.000Z</time>
      </trkpt>
      <trkpt lat="47.522974" lon="7.702913">
        <ele>290.249410</ele>
        <time>2021-11-12T21:20:07.515Z</time>
      </trkpt>
      <trkpt lat="47.522297" lon="7.702808">
        <ele>291.043633</ele>
        <time>2021-11-12T21:20:18.508Z</time>
      </trkpt>
      <trkpt lat="47.521475" lon="7.702832">
        <ele>291.551029</ele>
        <time>2021-11-12T21:20:31.750Z</time>
      </trkpt>
      <trkpt lat="47.521318" lon="7.702862">
        <ele>291.630470</ele>
        <time>2021-11-12T21:20:34.405Z</time>
      </trkpt>
      <trkpt lat="47.521249" lon="7.702881">
        <ele>291.665690</ele>
        <time>2021-11-12T21:20:35.852Z</time>
      </trkpt>
      <trkpt lat="47.520558" lon="7.703039">
        <ele>292.016568</ele>
        <time>2021-11-12T21:20:47.745Z</time>
      </trkpt>
      <trkpt lat="47.520529" lon="7.703049">
        <ele>292.031510</ele>
        <time>2021-11-12T21:20:48.507Z</time>
      </trkpt>
      <trkpt lat="47.520070" lon="7.703148">
        <ele>292.179655</ele>
        <time>2021-11-12T21:20:56.347Z</time>
      </trkpt>
      <trkpt lat="47.519889" lon="7.703086">
        <ele>292.220865</ele>
        <time>2021-11-12T21:20:59.355Z</time>
      </trkpt>
      <trkpt lat="47.519841" lon="7.703049">
        <ele>292.232869</ele>
        <time>2021-11-12T21:21:00.500Z</time>
      </trkpt>
      <trkpt lat="47.519785" lon="7.702990">
        <ele>292.248114</ele>
        <time>2021-11-12T21:21:01.606Z</time>
      </trkpt>
      <trkpt lat="47.519733" lon="7.702919">
        <ele>292.263804</ele>
        <time>2021-11-12T21:21:02.599Z</time>
      </trkpt>
      <trkpt lat="47.519674" lon="7.702803">
        <ele>292.285559</ele>
        <time>2021-11-12T21:21:03.951Z</time>
      </trkpt>
      <trkpt lat="47.519636" lon="7.702692">
        <ele>292.304201</ele>
        <time>2021-11-12T21:21:05.091Z</time>
      </trkpt>
      <trkpt lat="47.519594" lon="7.702549">
        <ele>292.327562</ele>
        <time>2021-11-12T21:21:06.975Z</time>
      </trkpt>
      <trkpt lat="47.519430" lon="7.701959">
        <ele>292.423140</ele>
        <time>2021-11-12T21:21:13.581Z</time>
      </trkpt>
      <trkpt lat="47.519352" lon="7.701645">
        <ele>292.473260</ele>
        <time>2021-11-12T21:21:17.127Z</time>
      </trkpt>
      <trkpt lat="47.519286" lon="7.701329">
        <ele>292.505972</ele>
        <time>2021-11-12T21:21:20.402Z</time>
      </trkpt>
      <trkpt lat="47.519286" lon="7.701329">
        <ele>292.505972</ele>
        <time>2021-11-12T21:21:20.412Z</time>
      </trkpt>
      <trkpt lat="47.519258" lon="7.701170">
        <ele>292.493641</ele>
        <time>2021-11-12T21:21:22.084Z</time>
      </trkpt>
      <trkpt lat="47.519233" lon="7.701014">
        <ele>292.481608</ele>
        <time>2021-11-12T21:21:23.699Z</time>
      </trkpt>
      <trkpt lat="47.519195" lon="7.700709">
        <ele>292.458333</ele>
        <time>2021-11-12T21:21:26.589Z</time>
      </trkpt>
      <trkpt lat="47.519193" lon="7.700688">
        <ele>292.456741</ele>
        <time>2021-11-12T21:21:26.745Z</time>
      </trkpt>
      <trkpt lat="47.519157" lon="7.700380">
        <ele>292.433283</ele>
        <time>2021-11-12T21:21:29.593Z</time>
      </trkpt>
      <trkpt lat="47.519132" lon="7.700172">
        <ele>292.417429</ele>
        <time>2021-11-12T21:21:31.476Z</time>
      </trkpt>
      <trkpt lat="47.519087" lon="7.699786">
        <ele>292.388032</ele>
        <time>2021-11-12T21:21:35.014Z</time>
      </trkpt>
      <trkpt lat="47.519042" lon="7.699496">
        <ele>292.365701</ele>
        <time>2021-11-12T21:21:37.765Z</time>
      </trkpt>
      <trkpt lat="47.518952" lon="7.699040">
        <ele>292.330049</ele>
        <time>2021-11-12T21:21:42.433Z</time>
      </trkpt>
      <trkpt lat="47.518806" lon="7.698235">
        <ele>292.644774</ele>
        <time>2021-11-12T21:21:51.673Z</time>
      </trkpt>
      <trkpt lat="47.518776" lon="7.698074">
        <ele>292.739166</ele>
        <time>2021-11-12T21:21:53.697Z</time>
      </trkpt>
      <trkpt lat="47.518729" lon="7.697828">
        <ele>292.883653</ele>
        <time>2021-11-12T21:21:56.825Z</time>
      </trkpt>
      <trkpt lat="47.518589" lon="7.696973">
        <ele>293.380870</ele>
        <time>2021-11-12T21:22:07.675Z</time>
      </trkpt>
      <trkpt lat="47.518568" lon="7.696830">
        <ele>293.463578</ele>
        <time>2021-11-12T21:22:09.545Z</time>
      </trkpt>
      <trkpt lat="47.518460" lon="7.696098">
        <ele>293.968835</ele>
        <time>2021-11-12T21:22:19.406Z</time>
      </trkpt>
      <trkpt lat="47.518415" lon="7.695818">
        <ele>294.321247</ele>
        <time>2021-11-12T21:22:23.665Z</time>
      </trkpt>
      <trkpt lat="47.518400" lon="7.695716">
        <ele>294.449065</ele>
        <time>2021-11-12T21:22:25.119Z</time>
      </trkpt>
      <trkpt lat="47.518365" lon="7.695509">
        <ele>294.710343</ele>
        <time>2021-11-12T21:22:28.459Z</time>
      </trkpt>
      <trkpt lat="47.518320" lon="7.695198">
        <ele>295.099781</ele>
        <time>2021-11-12T21:22:33.171Z</time>
      </trkpt>
      <trkpt lat="47.518310" lon="7.695086">
        <ele>295.238110</ele>
        <time>2021-11-12T21:22:34.817Z</time>
      </trkpt>
      <trkpt lat="47.518299" lon="7.694930">
        <ele>295.430159</ele>
        <time>2021-11-12T21:22:37.288Z</time>
      </trkpt>
      <trkpt lat="47.518294" lon="7.694610">
        <ele>295.822080</ele>
        <time>2021-11-12T21:22:41.701Z</time>
      </trkpt>
      <trkpt lat="47.518253" lon="7.694150">
        <ele>296.390200</ele>
        <time>2021-11-12T21:22:48.494Z</time>
      </trkpt>
      <trkpt lat="47.518232" lon="7.693988">
        <ele>296.592178</ele>
        <time>2021-11-12T21:22:50.709Z</time>
      </trkpt>
      <trkpt lat="47.518232" lon="7.693988">
        <ele>296.592178</ele>
        <time>2021-11-12T21:22:50.751Z</time>
      </trkpt>
      <trkpt lat="47.518146" lon="7.693998">
        <ele>296.748577</ele>
        <time>2021-11-12T21:22:52.634Z</time>
      </trkpt>
      <trkpt lat="47.517957" lon="7.694109">
        <ele>297.166612</ele>
        <time>2021-11-12T21:22:57.724Z</time>
      </trkpt>
      <trkpt lat="47.517646" lon="7.694392">
        <ele>298.659768</ele>
        <time>2021-11-12T21:23:07.252Z</time>
      </trkpt>
      <trkpt lat="47.517503" lon="7.694516">
        <ele>299.337626</ele>
        <time>2021-11-12T21:23:10.733Z</time>
      </trkpt>
      <trkpt lat="47.517239" lon="7.694746">
        <ele>300.590564</ele>
        <time>2021-11-12T21:23:20.636Z</time>
      </trkpt>
      <trkpt lat="47.517157" lon="7.694812">
        <ele>300.972333</ele>
        <time>2021-11-12T21:23:22.871Z</time>
      </trkpt>
      <trkpt lat="47.517084" lon="7.694861">
        <ele>301.300186</ele>
        <time>2021-11-12T21:23:26.645Z</time>
      </trkpt>
      <trkpt lat="47.516829" lon="7.694882">
        <ele>302.344862</ele>
        <time>2021-11-12T21:23:35.667Z</time>
      </trkpt>
      <trkpt lat="47.516717" lon="7.694874">
        <ele>302.803525</ele>
        <time>2021-11-12T21:23:41.459Z</time>
      </trkpt>
      <trkpt lat="47.516677" lon="7.694863">
        <ele>302.969941</ele>
        <time>2021-11-12T21:23:43.334Z</time>
      </trkpt>
      <trkpt lat="47.516556" lon="7.694611">
        <ele>303.824122</ele>
        <time>2021-11-12T21:23:50.705Z</time>
      </trkpt>
      <trkpt lat="47.516523" lon="7.694583">
        <ele>303.979700</ele>
        <time>2021-11-12T21:23:52.557Z</time>
      </trkpt>
      <trkpt lat="47.516457" lon="7.694583">
        <ele>304.249669</ele>
        <time>2021-11-12T21:23:56.234Z</time>
      </trkpt>
      <trkpt lat="47.516171" lon="7.694629">
        <ele>305.784197</ele>
        <time>2021-11-12T21:24:08.214Z</time>
      </trkpt>
      <trkpt lat="47.516061" lon="7.694636">
        <ele>306.397108</ele>
        <time>2021-11-12T21:24:14.190Z</time>
      </trkpt>
      <trkpt lat="47.515914" lon="7.694689">
        <ele>307.239337</ele>
        <time>2021-11-12T21:24:20.539Z</time>
      </trkpt>
      <trkpt lat="47.515594" lon="7.694838">
        <ele>309.106716</ele>
        <time>2021-11-12T21:24:35.872Z</time>
      </trkpt>
      <trkpt lat="47.515415" lon="7.694867">
        <ele>310.109117</ele>
        <time>2021-11-12T21:24:43.733Z</time>
      </trkpt>
      <trkpt lat="47.515285" lon="7.694889">
        <ele>310.837510</ele>
        <time>2021-11-12T21:24:50.043Z</time>
      </trkpt>
      <trkpt lat="47.515054" lon="7.694872">
        <ele>312.125024</ele>
        <time>2021-11-12T21:24:59.415Z</time>
      </trkpt>
      <trkpt lat="47.514816" lon="7.694816">
        <ele>313.466543</ele>
        <time>2021-11-12T21:25:09.259Z</time>
      </trkpt>
      <trkpt lat="47.514725" lon="7.694795">
        <ele>313.979236</ele>
        <time>2021-11-12T21:25:12.648Z</time>
      </trkpt>
      <trkpt lat="47.514592" lon="7.694781">
        <ele>314.639973</ele>
        <time>2021-11-12T21:25:18.170Z</time>
      </trkpt>
      <trkpt lat="47.514592" lon="7.694781">
        <ele>314.639973</ele>
        <time>2021-11-12T21:25:18.215Z</time>
      </trkpt>
      <trkpt lat="47.513936" lon="7.693997">
        <ele>317.935358</ele>
        <time>2021-11-12T21:25:47.792Z</time>
      </trkpt>
      <trkpt lat="47.513623" lon="7.693653">
        <ele>319.459088</ele>
        <time>2021-11-12T21:26:01.390Z</time>
      </trkpt>
      <trkpt lat="47.512753" lon="7.693164">
        <ele>323.724607</ele>
        <time>2021-11-12T21:26:33.293Z</time>
      </trkpt>
      <trkpt lat="47.512654" lon="7.693072">
        <ele>324.358811</ele>
        <time>2021-11-12T21:26:38.010Z</time>
      </trkpt>
      <trkpt lat="47.512475" lon="7.692907">
        <ele>325.502894</ele>
        <time>2021-11-12T21:26:46.737Z</time>
      </trkpt>
      <trkpt lat="47.511838" lon="7.691791">
        <ele>330.857626</ele>
        <time>2021-11-12T21:27:29.594Z</time>
      </trkpt>
      <trkpt lat="47.511667" lon="7.691581">
        <ele>332.608669</ele>
        <time>2021-11-12T21:27:42.014Z</time>
      </trkpt>
      <trkpt lat="47.511548" lon="7.691477">
        <ele>333.854017</ele>
        <time>2021-11-12T21:27:48.732Z</time>
      </trkpt>
      <trkpt lat="47.511185" lon="7.691269">
        <ele>337.361874</ele>
        <time>2021-11-12T21:28:08.327Z</time>
      </trkpt>
      <trkpt lat="47.510865" lon="7.691084">
        <ele>340.457818</ele>
        <time>2021-11-12T21:28:26.203Z</time>
      </trkpt>
      <trkpt lat="47.510633" lon="7.690805">
        <ele>343.151480</ele>
        <time>2021-11-12T21:28:42.385Z</time>
      </trkpt>
      <trkpt lat="47.510637" lon="7.690723">
        <ele>343.651934</ele>
        <time>2021-11-12T21:28:45.168Z</time>
      </trkpt>
      <trkpt lat="47.510606" lon="7.690494">
        <ele>345.073634</ele>
        <time>2021-11-12T21:28:54.794Z</time>
      </trkpt>
      <trkpt lat="47.510602" lon="7.690223">
        <ele>346.723672</ele>
        <time>2021-11-12T21:29:05.056Z</time>
      </trkpt>
      <trkpt lat="47.510403" lon="7.689323">
        <ele>354.819172</ele>
        <time>2021-11-12T21:29:46.494Z</time>
      </trkpt>
      <trkpt lat="47.510313" lon="7.689084">
        <ele>357.255026</ele>
        <time>2021-11-12T21:29:59.545Z</time>
      </trkpt>
      <trkpt lat="47.510209" lon="7.688788">
        <ele>360.225160</ele>
        <time>2021-11-12T21:30:15.444Z</time>
      </trkpt>
      <trkpt lat="47.510147" lon="7.688532">
        <ele>362.646118</ele>
        <time>2021-11-12T21:30:28.180Z</time>
      </trkpt>
      <trkpt lat="47.510127" lon="7.688247">
        <ele>365.196830</ele>
        <time>2021-11-12T21:30:42.319Z</time>
      </trkpt>
      <trkpt lat="47.510130" lon="7.688042">
        <ele>367.022159</ele>
        <time>2021-11-12T21:30:50.922Z</time>
      </trkpt>
      <trkpt lat="47.510117" lon="7.687677">
        <ele>370.275887</ele>
        <time>2021-11-12T21:31:09.255Z</time>
      </trkpt>
      <trkpt lat="47.509884" lon="7.686341">
        <ele>383.435382</ele>
        <time>2021-11-12T21:32:14.477Z</time>
      </trkpt>
      <trkpt lat="47.509939" lon="7.685485">
        <ele>391.677983</ele>
        <time>2021-11-12T21:32:58.636Z</time>
      </trkpt>
      <trkpt lat="47.509798" lon="7.684144">
        <ele>404.921116</ele>
        <time>2021-11-12T21:34:02.029Z</time>
      </trkpt>
      <trkpt lat="47.509798" lon="7.683903">
        <ele>407.298696</ele>
        <time>2021-11-12T21:34:14.533Z</time>
      </trkpt>
      <trkpt lat="47.509852" lon="7.683665">
        <ele>409.775602</ele>
        <time>2021-11-12T21:34:27.739Z</time>
      </trkpt>
      <trkpt lat="47.509894" lon="7.683204">
        <ele>414.364764</ele>
        <time>2021-11-12T21:34:51.448Z</time>
      </trkpt>
      <trkpt lat="47.509891" lon="7.682887">
        <ele>417.492422</ele>
        <time>2021-11-12T21:35:06.867Z</time>
      </trkpt>
      <trkpt lat="47.509848" lon="7.682678">
        <ele>419.647831</ele>
        <time>2021-11-12T21:35:18.430Z</time>
      </trkpt>
      <trkpt lat="47.509706" lon="7.682330">
        <ele>423.526279</ele>
        <time>2021-11-12T21:35:38.206Z</time>
      </trkpt>
      <trkpt lat="47.509678" lon="7.682278">
        <ele>424.060087</ele>
        <time>2021-11-12T21:35:42.505Z</time>
      </trkpt>
      <trkpt lat="47.509450" lon="7.681851">
        <ele>428.429275</ele>
        <time>2021-11-12T21:36:09.921Z</time>
      </trkpt>
      <trkpt lat="47.509233" lon="7.681400">
        <ele>432.874091</ele>
        <time>2021-11-12T21:36:34.323Z</time>
      </trkpt>
      <trkpt lat="47.509095" lon="7.680864">
        <ele>437.478616</ele>
        <time>2021-11-12T21:36:59.630Z</time>
      </trkpt>
      <trkpt lat="47.509059" lon="7.680504">
        <ele>440.399907</ele>
        <time>2021-11-12T21:37:13.603Z</time>
      </trkpt>
      <trkpt lat="47.509244" lon="7.678419">
        <ele>451.529013</ele>
        <time>2021-11-12T21:38:16.944Z</time>
      </trkpt>
      <trkpt lat="47.509271" lon="7.678316">
        <ele>452.022256</ele>
        <time>2021-11-12T21:38:20.858Z</time>
      </trkpt>
      <trkpt lat="47.509362" lon="7.677972">
        <ele>453.671572</ele>
        <time>2021-11-12T21:38:28.001Z</time>
      </trkpt>
      <trkpt lat="47.509545" lon="7.677432">
        <ele>456.386950</ele>
        <time>2021-11-12T21:38:41.234Z</time>
      </trkpt>
      <trkpt lat="47.509746" lon="7.677084">
        <ele>458.665785</ele>
        <time>2021-11-12T21:38:51.336Z</time>
      </trkpt>
      <trkpt lat="47.509821" lon="7.676771">
        <ele>460.318676</ele>
        <time>2021-11-12T21:38:59.333Z</time>
      </trkpt>
      <trkpt lat="47.509879" lon="7.676596">
        <ele>461.288832</ele>
        <time>2021-11-12T21:39:07.008Z</time>
      </trkpt>
      <trkpt lat="47.510007" lon="7.676193">
        <ele>463.505201</ele>
        <time>2021-11-12T21:39:26.930Z</time>
      </trkpt>
      <trkpt lat="47.510078" lon="7.675938">
        <ele>464.877903</ele>
        <time>2021-11-12T21:39:39.065Z</time>
      </trkpt>
      <trkpt lat="47.510093" lon="7.675711">
        <ele>466.013052</ele>
        <time>2021-11-12T21:39:49.399Z</time>
      </trkpt>
      <trkpt lat="47.510097" lon="7.675649">
        <ele>466.323024</ele>
        <time>2021-11-12T21:39:54.316Z</time>
      </trkpt>
      <trkpt lat="47.510063" lon="7.675198">
        <ele>468.581540</ele>
        <time>2021-11-12T21:40:14.007Z</time>
      </trkpt>
      <trkpt lat="47.510013" lon="7.675071">
        <ele>469.313136</ele>
        <time>2021-11-12T21:40:23.977Z</time>
      </trkpt>
      <trkpt lat="47.509927" lon="7.674954">
        <ele>470.429553</ele>
        <time>2021-11-12T21:40:31.161Z</time>
      </trkpt>
      <trkpt lat="47.509860" lon="7.674889">
        <ele>471.232130</ele>
        <time>2021-11-12T21:40:37.246Z</time>
      </trkpt>
      <trkpt lat="47.509805" lon="7.674838">
        <ele>471.882352</ele>
        <time>2021-11-12T21:40:41.377Z</time>
      </trkpt>
      <trkpt lat="47.509752" lon="7.674789">
        <ele>472.508407</ele>
        <time>2021-11-12T21:40:49.143Z</time>
      </trkpt>
      <trkpt lat="47.509666" lon="7.674735">
        <ele>473.444353</ele>
        <time>2021-11-12T21:40:55.442Z</time>
      </trkpt>
      <trkpt lat="47.509582" lon="7.674682">
        <ele>474.359210</ele>
        <time>2021-11-12T21:41:01.484Z</time>
      </trkpt>
      <trkpt lat="47.509526" lon="7.674683">
        <ele>474.920325</ele>
        <time>2021-11-12T21:41:07.011Z</time>
      </trkpt>
      <trkpt lat="47.508679" lon="7.674698">
        <ele>483.407179</ele>
        <time>2021-11-12T21:42:19.068Z</time>
      </trkpt>
      <trkpt lat="47.508583" lon="7.674629">
        <ele>484.476386</ele>
        <time>2021-11-12T21:42:25.982Z</time>
      </trkpt>
      <trkpt lat="47.508535" lon="7.674520">
        <ele>485.356991</ele>
        <time>2021-11-12T21:42:31.891Z</time>
      </trkpt>
      <trkpt lat="47.508505" lon="7.674451">
        <ele>485.912339</ele>
        <time>2021-11-12T21:42:36.589Z</time>
      </trkpt>
      <trkpt lat="47.508425" lon="7.674070">
        <ele>487.911179</ele>
        <time>2021-11-12T21:42:55.702Z</time>
      </trkpt>
      <trkpt lat="47.508401" lon="7.673736">
        <ele>488.772138</ele>
        <time>2021-11-12T21:43:10.723Z</time>
      </trkpt>
      <trkpt lat="47.508436" lon="7.673406">
        <ele>489.628377</ele>
        <time>2021-11-12T21:43:22.811Z</time>
      </trkpt>
      <trkpt lat="47.508446" lon="7.672692">
        <ele>491.458936</ele>
        <time>2021-11-12T21:43:47.991Z</time>
      </trkpt>
      <trkpt lat="47.508497" lon="7.672266">
        <ele>492.567901</ele>
        <time>2021-11-12T21:44:01.835Z</time>
      </trkpt>
      <trkpt lat="47.508476" lon="7.671476">
        <ele>494.314460</ele>
        <time>2021-11-12T21:44:24.575Z</time>
      </trkpt>
      <trkpt lat="47.508439" lon="7.670868">
        <ele>494.344851</ele>
        <time>2021-11-12T21:44:37.774Z</time>
      </trkpt>
      <trkpt lat="47.508400" lon="7.670630">
        <ele>494.357043</ele>
        <time>2021-11-12T21:44:39.759Z</time>
      </trkpt>
      <trkpt lat="47.508334" lon="7.668961">
        <ele>494.440273</ele>
        <time>2021-11-12T21:44:56.242Z</time>
      </trkpt>
      <trkpt lat="47.508311" lon="7.668787">
        <ele>494.801523</ele>
        <time>2021-11-12T21:44:57.939Z</time>
      </trkpt>
      <trkpt lat="47.508285" lon="7.668641">
        <ele>495.156466</ele>
        <time>2021-11-12T21:44:59.181Z</time>
      </trkpt>
      <trkpt lat="47.508251" lon="7.668646">
        <ele>495.275374</ele>
        <time>2021-11-12T21:45:00.098Z</time>
      </trkpt>
      <trkpt lat="47.508215" lon="7.668664">
        <ele>495.407612</ele>
        <time>2021-11-12T21:45:01.103Z</time>
      </trkpt>
      <trkpt lat="47.508195" lon="7.668698">
        <ele>495.513598</ele>
        <time>2021-11-12T21:45:02.259Z</time>
      </trkpt>
      <trkpt lat="47.508096" lon="7.668696">
        <ele>495.858166</ele>
        <time>2021-11-12T21:45:04.378Z</time>
      </trkpt>
      <trkpt lat="47.507055" lon="7.668067">
        <ele>499.771156</ele>
        <time>2021-11-12T21:45:36.319Z</time>
      </trkpt>
      <trkpt lat="47.506716" lon="7.667934">
        <ele>501.378716</ele>
        <time>2021-11-12T21:45:49.722Z</time>
      </trkpt>
      <trkpt lat="47.506336" lon="7.667946">
        <ele>504.463211</ele>
        <time>2021-11-12T21:46:08.412Z</time>
      </trkpt>
      <trkpt lat="47.505893" lon="7.667768">
        <ele>508.188339</ele>
        <time>2021-11-12T21:46:32.943Z</time>
      </trkpt>
      <trkpt lat="47.505709" lon="7.667844">
        <ele>509.738579</ele>
        <time>2021-11-12T21:46:39.853Z</time>
      </trkpt>
      <trkpt lat="47.505364" lon="7.668163">
        <ele>513.039612</ele>
        <time>2021-11-12T21:46:58.599Z</time>
      </trkpt>
      <trkpt lat="47.505295" lon="7.668259">
        <ele>513.808059</ele>
        <time>2021-11-12T21:47:04.241Z</time>
      </trkpt>
      <trkpt lat="47.505273" lon="7.668282">
        <ele>514.026629</ele>
        <time>2021-11-12T21:47:07.071Z</time>
      </trkpt>
      <trkpt lat="47.505003" lon="7.668423">
        <ele>516.584576</ele>
        <time>2021-11-12T21:47:20.192Z</time>
      </trkpt>
      <trkpt lat="47.504784" lon="7.668451">
        <ele>518.765813</ele>
        <time>2021-11-12T21:47:32.649Z</time>
      </trkpt>
      <trkpt lat="47.503852" lon="7.668457">
        <ele>528.014178</ele>
        <time>2021-11-12T21:48:25.756Z</time>
      </trkpt>
      <trkpt lat="47.503644" lon="7.668446">
        <ele>530.079488</ele>
        <time>2021-11-12T21:48:35.457Z</time>
      </trkpt>
      <trkpt lat="47.503078" lon="7.668512">
        <ele>535.605193</ele>
        <time>2021-11-12T21:49:07.636Z</time>
      </trkpt>
      <trkpt lat="47.502894" lon="7.668475">
        <ele>537.370205</ele>
        <time>2021-11-12T21:49:16.494Z</time>
      </trkpt>
      <trkpt lat="47.502567" lon="7.667896">
        <ele>542.216201</ele>
        <time>2021-11-12T21:49:46.662Z</time>
      </trkpt>
      <trkpt lat="47.502382" lon="7.667723">
        <ele>544.296158</ele>
        <time>2021-11-12T21:49:56.902Z</time>
      </trkpt>
      <trkpt lat="47.502331" lon="7.667705">
        <ele>544.794510</ele>
        <time>2021-11-12T21:50:01.005Z</time>
      </trkpt>
      <trkpt lat="47.502292" lon="7.667688">
        <ele>545.180950</ele>
        <time>2021-11-12T21:50:04.085Z</time>
      </trkpt>
      <trkpt lat="47.502151" lon="7.667642">
        <ele>546.553342</ele>
        <time>2021-11-12T21:50:09.838Z</time>
      </trkpt>
      <trkpt lat="47.502006" lon="7.667624">
        <ele>547.936428</ele>
        <time>2021-11-12T21:50:16.870Z</time>
      </trkpt>
      <trkpt lat="47.501882" lon="7.667549">
        <ele>549.209664</ele>
        <time>2021-11-12T21:50:24.815Z</time>
      </trkpt>
      <trkpt lat="47.501738" lon="7.667367">
        <ele>550.891855</ele>
        <time>2021-11-12T21:50:31.777Z</time>
      </trkpt>
      <trkpt lat="47.501725" lon="7.667123">
        <ele>552.222716</ele>
        <time>2021-11-12T21:50:41.346Z</time>
      </trkpt>
      <trkpt lat="47.502047" lon="7.666538">
        <ele>556.325767</ele>
        <time>2021-11-12T21:51:03.533Z</time>
      </trkpt>
      <trkpt lat="47.502211" lon="7.666089">
        <ele>559.101163</ele>
        <time>2021-11-12T21:51:19.875Z</time>
      </trkpt>
      <trkpt lat="47.502398" lon="7.665168">
        <ele>564.330304</ele>
        <time>2021-11-12T21:51:51.229Z</time>
      </trkpt>
      <trkpt lat="47.502680" lon="7.664603">
        <ele>568.511184</ele>
        <time>2021-11-12T21:52:12.578Z</time>
      </trkpt>
      <trkpt lat="47.502656" lon="7.664371">
        <ele>569.921711</ele>
        <time>2021-11-12T21:52:20.060Z</time>
      </trkpt>
      <trkpt lat="47.502470" lon="7.664143">
        <ele>572.070082</ele>
        <time>2021-11-12T21:52:32.439Z</time>
      </trkpt>
      <trkpt lat="47.502341" lon="7.664057">
        <ele>573.328694</ele>
        <time>2021-11-12T21:52:40.527Z</time>
      </trkpt>
      <trkpt lat="47.502215" lon="7.663950">
        <ele>574.620961</ele>
        <time>2021-11-12T21:52:49.051Z</time>
      </trkpt>
      <trkpt lat="47.502113" lon="7.663831">
        <ele>575.776318</ele>
        <time>2021-11-12T21:52:55.506Z</time>
      </trkpt>
      <trkpt lat="47.501982" lon="7.663470">
        <ele>578.239069</ele>
        <time>2021-11-12T21:53:10.647Z</time>
      </trkpt>
      <trkpt lat="47.501929" lon="7.662724">
        <ele>581.944900</ele>
        <time>2021-11-12T21:53:36.579Z</time>
      </trkpt>
      <trkpt lat="47.501880" lon="7.662547">
        <ele>582.639633</ele>
        <time>2021-11-12T21:53:43.012Z</time>
      </trkpt>
      <trkpt lat="47.501814" lon="7.662406">
        <ele>583.262649</ele>
        <time>2021-11-12T21:53:47.292Z</time>
      </trkpt>
      <trkpt lat="47.501739" lon="7.662303">
        <ele>583.812668</ele>
        <time>2021-11-12T21:53:52.122Z</time>
      </trkpt>
      <trkpt lat="47.501540" lon="7.662165">
        <ele>584.994103</ele>
        <time>2021-11-12T21:54:01.347Z</time>
      </trkpt>
      <trkpt lat="47.501427" lon="7.662094">
        <ele>585.654069</ele>
        <time>2021-11-12T21:54:04.875Z</time>
      </trkpt>
      <trkpt lat="47.501357" lon="7.661880">
        <ele>586.517624</ele>
        <time>2021-11-12T21:54:08.975Z</time>
      </trkpt>
      <trkpt lat="47.501296" lon="7.661615">
        <ele>587.534432</ele>
        <time>2021-11-12T21:54:13.821Z</time>
      </trkpt>
      <trkpt lat="47.501272" lon="7.661516">
        <ele>587.916446</ele>
        <time>2021-11-12T21:54:15.635Z</time>
      </trkpt>
      <trkpt lat="47.501255" lon="7.661462">
        <ele>588.132822</ele>
        <time>2021-11-12T21:54:16.779Z</time>
      </trkpt>
      <trkpt lat="47.501224" lon="7.661406">
        <ele>588.395773</ele>
        <time>2021-11-12T21:54:18.027Z</time>
      </trkpt>
      <trkpt lat="47.501172" lon="7.661341">
        <ele>588.761678</ele>
        <time>2021-11-12T21:54:19.619Z</time>
      </trkpt>
      <trkpt lat="47.501134" lon="7.661306">
        <ele>589.002292</ele>
        <time>2021-11-12T21:54:20.776Z</time>
      </trkpt>
      <trkpt lat="47.500892" lon="7.661159">
        <ele>590.403016</ele>
        <time>2021-11-12T21:54:29.280Z</time>
      </trkpt>
      <trkpt lat="47.500378" lon="7.660739">
        <ele>592.645332</ele>
        <time>2021-11-12T21:54:46.716Z</time>
      </trkpt>
      <trkpt lat="47.500168" lon="7.660591">
        <ele>593.533632</ele>
        <time>2021-11-12T21:54:51.900Z</time>
      </trkpt>
      <trkpt lat="47.499828" lon="7.660558">
        <ele>594.834947</ele>
        <time>2021-11-12T21:55:00.822Z</time>
      </trkpt>
      <trkpt lat="47.499384" lon="7.660566">
        <ele>596.530795</ele>
        <time>2021-11-12T21:55:14.793Z</time>
      </trkpt>
      <trkpt lat="47.498649" lon="7.660737">
        <ele>600.503704</ele>
        <time>2021-11-12T21:55:43.334Z</time>
      </trkpt>
      <trkpt lat="47.498030" lon="7.660538">
        <ele>604.217766</ele>
        <time>2021-11-12T21:56:11.423Z</time>
      </trkpt>
      <trkpt lat="47.497005" lon="7.659684">
        <ele>609.611452</ele>
        <time>2021-11-12T21:56:52.068Z</time>
      </trkpt>
      <trkpt lat="47.496700" lon="7.659355">
        <ele>610.819375</ele>
        <time>2021-11-12T21:57:02.698Z</time>
      </trkpt>
      <trkpt lat="47.496419" lon="7.658896">
        <ele>612.158792</ele>
        <time>2021-11-12T21:57:13.344Z</time>
      </trkpt>
      <trkpt lat="47.495370" lon="7.658146">
        <ele>613.139007</ele>
        <time>2021-11-12T21:57:36.654Z</time>
      </trkpt>
      <trkpt lat="47.495295" lon="7.658106">
        <ele>613.092651</ele>
        <time>2021-11-12T21:57:38.062Z</time>
      </trkpt>
      <trkpt lat="47.495132" lon="7.658047">
        <ele>612.995076</ele>
        <time>2021-11-12T21:57:40.807Z</time>
      </trkpt>
      <trkpt lat="47.494878" lon="7.657874">
        <ele>612.832490</ele>
        <time>2021-11-12T21:57:43.962Z</time>
      </trkpt>
      <trkpt lat="47.493869" lon="7.656901">
        <ele>610.988332</ele>
        <time>2021-11-12T21:57:56.319Z</time>
      </trkpt>
      <trkpt lat="47.493727" lon="7.656848">
        <ele>610.649152</ele>
        <time>2021-11-12T21:57:57.752Z</time>
      </trkpt>
      <trkpt lat="47.493625" lon="7.656806">
        <ele>610.403940</ele>
        <time>2021-11-12T21:57:58.771Z</time>
      </trkpt>
      <trkpt lat="47.493454" lon="7.656654">
        <ele>609.941949</ele>
        <time>2021-11-12T21:58:01.003Z</time>
      </trkpt>
      <trkpt lat="47.493323" lon="7.656425">
        <ele>609.472395</ele>
        <time>2021-11-12T21:58:03.232Z</time>
      </trkpt>
      <trkpt lat="47.492960" lon="7.655784">
        <ele>608.487429</ele>
        <time>2021-11-12T21:58:09.926Z</time>
      </trkpt>
      <trkpt lat="47.492898" lon="7.656011">
        <ele>608.770238</ele>
        <time>2021-11-12T21:58:11.994Z</time>
      </trkpt>
      <trkpt lat="47.492834" lon="7.656127">
        <ele>608.943218</ele>
        <time>2021-11-12T21:58:13.292Z</time>
      </trkpt>
      <trkpt lat="47.492655" lon="7.656259">
        <ele>609.285094</ele>
        <time>2021-11-12T21:58:15.549Z</time>
      </trkpt>
      <trkpt lat="47.492368" lon="7.656441">
        <ele>609.818854</ele>
        <time>2021-11-12T21:58:21.539Z</time>
      </trkpt>
      <trkpt lat="47.492098" lon="7.656633">
        <ele>610.330926</ele>
        <time>2021-11-12T21:58:28.300Z</time>
      </trkpt>
      <trkpt lat="47.491848" lon="7.656926">
        <ele>610.876071</ele>
        <time>2021-11-12T21:58:37.825Z</time>
      </trkpt>
      <trkpt lat="47.491315" lon="7.657218">
        <ele>612.340121</ele>
        <time>2021-11-12T21:58:57.891Z</time>
      </trkpt>
      <trkpt lat="47.490868" lon="7.657356">
        <ele>614.029442</ele>
        <time>2021-11-12T21:59:13.040Z</time>
      </trkpt>
      <trkpt lat="47.491290" lon="7.658126">
        <ele>616.507868</ele>
        <time>2021-11-12T21:59:32.474Z</time>
      </trkpt>
      <trkpt lat="47.491352" lon="7.658296">
        <ele>616.990790</ele>
        <time>2021-11-12T21:59:36.165Z</time>
      </trkpt>
      <trkpt lat="47.491366" lon="7.658534">
        <ele>617.587999</ele>
        <time>2021-11-12T21:59:40.380Z</time>
      </trkpt>
      <trkpt lat="47.491283" lon="7.659274">
        <ele>618.480598</ele>
        <time>2021-11-12T21:59:52.927Z</time>
      </trkpt>
      <trkpt lat="47.491148" lon="7.660578">
        <ele>619.437605</ele>
        <time>2021-11-12T22:00:10.543Z</time>
      </trkpt>
      <trkpt lat="47.491135" lon="7.660667">
        <ele>619.503660</ele>
        <time>2021-11-12T22:00:11.206Z</time>
      </trkpt>
      <trkpt lat="47.491038" lon="7.661369">
        <ele>619.972331</ele>
        <time>2021-11-12T22:00:18.482Z</time>
      </trkpt>
      <trkpt lat="47.491127" lon="7.662280">
        <ele>618.120325</ele>
        <time>2021-11-12T22:00:26.516Z</time>
      </trkpt>
      <trkpt lat="47.491078" lon="7.662652">
        <ele>617.357766</ele>
        <time>2021-11-12T22:00:29.308Z</time>
      </trkpt>
      <trkpt lat="47.490960" lon="7.662986">
        <ele>616.599439</ele>
        <time>2021-11-12T22:00:31.714Z</time>
      </trkpt>
      <trkpt lat="47.490710" lon="7.663509">
        <ele>615.310460</ele>
        <time>2021-11-12T22:00:35.828Z</time>
      </trkpt>
      <trkpt lat="47.490681" lon="7.663697">
        <ele>614.922467</ele>
        <time>2021-11-12T22:00:37.200Z</time>
      </trkpt>
      <trkpt lat="47.490690" lon="7.663753">
        <ele>614.806650</ele>
        <time>2021-11-12T22:00:38.371Z</time>
      </trkpt>
      <trkpt lat="47.490724" lon="7.663818">
        <ele>614.627957</ele>
        <time>2021-11-12T22:00:38.836Z</time>
      </trkpt>
      <trkpt lat="47.491023" lon="7.664258">
        <ele>612.078029</ele>
        <time>2021-11-12T22:00:42.657Z</time>
      </trkpt>
      <trkpt lat="47.491167" lon="7.664633">
        <ele>610.315527</ele>
        <time>2021-11-12T22:00:45.442Z</time>
      </trkpt>
      <trkpt lat="47.491209" lon="7.664759">
        <ele>609.741420</ele>
        <time>2021-11-12T22:00:46.251Z</time>
      </trkpt>
      <trkpt lat="47.491235" lon="7.664889">
        <ele>609.187428</ele>
        <time>2021-11-12T22:00:47.135Z</time>
      </trkpt>
      <trkpt lat="47.491257" lon="7.665065">
        <ele>608.456047</ele>
        <time>2021-11-12T22:00:48.979Z</time>
      </trkpt>
      <trkpt lat="47.491275" lon="7.665260">
        <ele>607.651830</ele>
        <time>2021-11-12T22:00:50.104Z</time>
      </trkpt>
      <trkpt lat="47.491290" lon="7.665444">
        <ele>606.894510</ele>
        <time>2021-11-12T22:00:51.267Z</time>
      </trkpt>
      <trkpt lat="47.491308" lon="7.665727">
        <ele>605.732994</ele>
        <time>2021-11-12T22:00:53.012Z</time>
      </trkpt>
      <trkpt lat="47.491307" lon="7.665780">
        <ele>605.516339</ele>
        <time>2021-11-12T22:00:53.313Z</time>
      </trkpt>
      <trkpt lat="47.491296" lon="7.665853">
        <ele>605.210716</ele>
        <time>2021-11-12T22:00:53.749Z</time>
      </trkpt>
      <trkpt lat="47.491273" lon="7.665952">
        <ele>604.782935</ele>
        <time>2021-11-12T22:00:54.409Z</time>
      </trkpt>
      <trkpt lat="47.491126" lon="7.666409">
        <ele>602.773729</ele>
        <time>2021-11-12T22:00:57.505Z</time>
      </trkpt>
      <trkpt lat="47.490942" lon="7.667164">
        <ele>599.676230</ele>
        <time>2021-11-12T22:01:02.516Z</time>
      </trkpt>
      <trkpt lat="47.490690" lon="7.668617">
        <ele>593.886874</ele>
        <time>2021-11-12T22:01:12.097Z</time>
      </trkpt>
      <trkpt lat="47.490666" lon="7.670201">
        <ele>588.024111</ele>
        <time>2021-11-12T22:01:21.768Z</time>
      </trkpt>
      <trkpt lat="47.490706" lon="7.670713">
        <ele>586.122405</ele>
        <time>2021-11-12T22:01:24.931Z</time>
      </trkpt>
      <trkpt lat="47.490770" lon="7.671048">
        <ele>584.837907</ele>
        <time>2021-11-12T22:01:27.142Z</time>
      </trkpt>
      <trkpt lat="47.491002" lon="7.671806">
        <ele>583.345134</ele>
        <time>2021-11-12T22:01:33.139Z</time>
      </trkpt>
      <trkpt lat="47.491257" lon="7.672549">
        <ele>582.803201</ele>
        <time>2021-11-12T22:01:40.252Z</time>
      </trkpt>
      <trkpt lat="47.491431" lon="7.672880">
        <ele>582.530481</ele>
        <time>2021-11-12T22:01:43.837Z</time>
      </trkpt>
      <trkpt lat="47.491487" lon="7.672963">
        <ele>582.454205</ele>
        <time>2021-11-12T22:01:44.983Z</time>
      </trkpt>
      <trkpt lat="47.492120" lon="7.673689">
        <ele>581.514039</ele>
        <time>2021-11-12T22:01:58.565Z</time>
      </trkpt>
      <trkpt lat="47.492397" lon="7.673977">
        <ele>580.982385</ele>
        <time>2021-11-12T22:02:05.402Z</time>
      </trkpt>
      <trkpt lat="47.492419" lon="7.674013">
        <ele>580.930876</ele>
        <time>2021-11-12T22:02:06.258Z</time>
      </trkpt>
      <trkpt lat="47.492441" lon="7.674076">
        <ele>580.855621</ele>
        <time>2021-11-12T22:02:06.674Z</time>
      </trkpt>
      <trkpt lat="47.492431" lon="7.674567">
        <ele>580.334348</ele>
        <time>2021-11-12T22:02:13.707Z</time>
      </trkpt>
      <trkpt lat="47.492357" lon="7.674981">
        <ele>579.879909</ele>
        <time>2021-11-12T22:02:17.291Z</time>
      </trkpt>
      <trkpt lat="47.492252" lon="7.675376">
        <ele>579.429473</ele>
        <time>2021-11-12T22:02:19.970Z</time>
      </trkpt>
      <trkpt lat="47.492259" lon="7.675423">
        <ele>579.378400</ele>
        <time>2021-11-12T22:02:21.197Z</time>
      </trkpt>
      <trkpt lat="47.492364" lon="7.675466">
        <ele>579.207300</ele>
        <time>2021-11-12T22:02:22.184Z</time>
      </trkpt>
      <trkpt lat="47.492476" lon="7.675406">
        <ele>578.429850</ele>
        <time>2021-11-12T22:02:23.234Z</time>
      </trkpt>
      <trkpt lat="47.492876" lon="7.675193">
        <ele>574.064753</ele>
        <time>2021-11-12T22:02:27.048Z</time>
      </trkpt>
      <trkpt lat="47.493934" lon="7.674840">
        <ele>562.928238</ele>
        <time>2021-11-12T22:02:36.340Z</time>
      </trkpt>
      <trkpt lat="47.494214" lon="7.674823">
        <ele>559.748378</ele>
        <time>2021-11-12T22:02:38.657Z</time>
      </trkpt>
      <trkpt lat="47.494287" lon="7.674903">
        <ele>558.351226</ele>
        <time>2021-11-12T22:02:39.425Z</time>
      </trkpt>
      <trkpt lat="47.494344" lon="7.675092">
        <ele>556.200222</ele>
        <time>2021-11-12T22:02:40.590Z</time>
      </trkpt>
      <trkpt lat="47.494342" lon="7.675161">
        <ele>555.482468</ele>
        <time>2021-11-12T22:02:40.973Z</time>
      </trkpt>
      <trkpt lat="47.494328" lon="7.675230">
        <ele>554.733739</ele>
        <time>2021-11-12T22:02:41.371Z</time>
      </trkpt>
      <trkpt lat="47.494233" lon="7.675518">
        <ele>551.403001</ele>
        <time>2021-11-12T22:02:43.176Z</time>
      </trkpt>
      <trkpt lat="47.494229" lon="7.675736">
        <ele>549.136559</ele>
        <time>2021-11-12T22:02:44.383Z</time>
      </trkpt>
      <trkpt lat="47.494465" lon="7.676284">
        <ele>542.382883</ele>
        <time>2021-11-12T22:02:48.028Z</time>
      </trkpt>
      <trkpt lat="47.494529" lon="7.676434">
        <ele>540.539184</ele>
        <time>2021-11-12T22:02:49.015Z</time>
      </trkpt>
      <trkpt lat="47.494913" lon="7.677178">
        <ele>531.342977</ele>
        <time>2021-11-12T22:02:54.254Z</time>
      </trkpt>
      <trkpt lat="47.495197" lon="7.677947">
        <ele>524.462137</ele>
        <time>2021-11-12T22:02:59.273Z</time>
      </trkpt>
      <trkpt lat="47.495874" lon="7.678827">
        <ele>513.991798</ele>
        <time>2021-11-12T22:03:06.999Z</time>
      </trkpt>
      <trkpt lat="47.496153" lon="7.679066">
        <ele>510.468220</ele>
        <time>2021-11-12T22:03:09.762Z</time>
      </trkpt>
      <trkpt lat="47.496289" lon="7.679485">
        <ele>507.258537</ele>
        <time>2021-11-12T22:03:12.480Z</time>
      </trkpt>
      <trkpt lat="47.496525" lon="7.679952">
        <ele>503.231761</ele>
        <time>2021-11-12T22:03:15.849Z</time>
      </trkpt>
      <trkpt lat="47.496907" lon="7.680663">
        <ele>496.959419</ele>
        <time>2021-11-12T22:03:23.409Z</time>
      </trkpt>
      <trkpt lat="47.496916" lon="7.680688">
        <ele>496.763824</ele>
        <time>2021-11-12T22:03:23.576Z</time>
      </trkpt>
      <trkpt lat="47.496959" lon="7.680793">
        <ele>495.916036</ele>
        <time>2021-11-12T22:03:24.258Z</time>
      </trkpt>
      <trkpt lat="47.497186" lon="7.681839">
        <ele>488.840908</ele>
        <time>2021-11-12T22:03:30.605Z</time>
      </trkpt>
      <trkpt lat="47.497142" lon="7.682124">
        <ele>487.013979</ele>
        <time>2021-11-12T22:03:32.345Z</time>
      </trkpt>
      <trkpt lat="47.496983" lon="7.682567">
        <ele>483.879188</ele>
        <time>2021-11-12T22:03:35.278Z</time>
      </trkpt>
      <trkpt lat="47.497012" lon="7.682986">
        <ele>481.247061</ele>
        <time>2021-11-12T22:03:37.734Z</time>
      </trkpt>
      <trkpt lat="47.497149" lon="7.683668">
        <ele>476.833096</ele>
        <time>2021-11-12T22:03:42.021Z</time>
      </trkpt>
      <trkpt lat="47.497155" lon="7.683756">
        <ele>476.346192</ele>
        <time>2021-11-12T22:03:42.565Z</time>
      </trkpt>
      <trkpt lat="47.497128" lon="7.683933">
        <ele>475.347273</ele>
        <time>2021-11-12T22:03:43.675Z</time>
      </trkpt>
      <trkpt lat="47.497043" lon="7.684092">
        <ele>474.231107</ele>
        <time>2021-11-12T22:03:44.887Z</time>
      </trkpt>
      <trkpt lat="47.496620" lon="7.684549">
        <ele>469.963957</ele>
        <time>2021-11-12T22:03:49.511Z</time>
      </trkpt>
      <trkpt lat="47.496136" lon="7.684606">
        <ele>466.007837</ele>
        <time>2021-11-12T22:03:53.757Z</time>
      </trkpt>
      <trkpt lat="47.495883" lon="7.684734">
        <ele>463.829272</ele>
        <time>2021-11-12T22:03:56.146Z</time>
      </trkpt>
      <trkpt lat="47.495359" lon="7.684972">
        <ele>458.648191</ele>
        <time>2021-11-12T22:04:00.946Z</time>
      </trkpt>
      <trkpt lat="47.495085" lon="7.685344">
        <ele>454.909344</ele>
        <time>2021-11-12T22:04:05.469Z</time>
      </trkpt>
      <trkpt lat="47.494766" lon="7.685867">
        <ele>450.122325</ele>
        <time>2021-11-12T22:04:11.210Z</time>
      </trkpt>
      <trkpt lat="47.494620" lon="7.686242">
        <ele>447.181809</ele>
        <time>2021-11-12T22:04:14.746Z</time>
      </trkpt>
      <trkpt lat="47.494500" lon="7.686629">
        <ele>444.291769</ele>
        <time>2021-11-12T22:04:18.239Z</time>
      </trkpt>
      <trkpt lat="47.494444" lon="7.686783">
        <ele>443.187160</ele>
        <time>2021-11-12T22:04:19.642Z</time>
      </trkpt>
      <trkpt lat="47.493965" lon="7.687977">
        <ele>434.416509</ele>
        <time>2021-11-12T22:04:31.164Z</time>
      </trkpt>
      <trkpt lat="47.493869" lon="7.688820">
        <ele>429.016854</ele>
        <time>2021-11-12T22:04:38.246Z</time>
      </trkpt>
      <trkpt lat="47.493613" lon="7.689576">
        <ele>425.029950</ele>
        <time>2021-11-12T22:04:45.575Z</time>
      </trkpt>
      <trkpt lat="47.493600" lon="7.690048">
        <ele>423.098132</ele>
        <time>2021-11-12T22:04:49.712Z</time>
      </trkpt>
      <trkpt lat="47.493683" lon="7.690452">
        <ele>421.371316</ele>
        <time>2021-11-12T22:04:53.447Z</time>
      </trkpt>
      <trkpt lat="47.494025" lon="7.691490">
        <ele>416.648707</ele>
        <time>2021-11-12T22:05:03.961Z</time>
      </trkpt>
      <trkpt lat="47.494615" lon="7.692795">
        <ele>412.318150</ele>
        <time>2021-11-12T22:05:18.826Z</time>
      </trkpt>
      <trkpt lat="47.494792" lon="7.693234">
        <ele>410.910120</ele>
        <time>2021-11-12T22:05:23.774Z</time>
      </trkpt>
      <trkpt lat="47.494837" lon="7.693410">
        <ele>410.391826</ele>
        <time>2021-11-12T22:05:25.613Z</time>
      </trkpt>
      <trkpt lat="47.495048" lon="7.694079">
        <ele>408.111021</ele>
        <time>2021-11-12T22:05:32.746Z</time>
      </trkpt>
      <trkpt lat="47.495505" lon="7.695885">
        <ele>401.402656</ele>
        <time>2021-11-12T22:05:50.191Z</time>
      </trkpt>
      <trkpt lat="47.495631" lon="7.696342">
        <ele>399.592764</ele>
        <time>2021-11-12T22:05:54.577Z</time>
      </trkpt>
      <trkpt lat="47.495804" lon="7.696859">
        <ele>397.057599</ele>
        <time>2021-11-12T22:05:59.652Z</time>
      </trkpt>
      <trkpt lat="47.496154" lon="7.697633">
        <ele>392.965035</ele>
        <time>2021-11-12T22:06:07.752Z</time>
      </trkpt>
      <trkpt lat="47.496250" lon="7.697997">
        <ele>391.248016</ele>
        <time>2021-11-12T22:06:11.127Z</time>
      </trkpt>
      <trkpt lat="47.496334" lon="7.698787">
        <ele>387.806055</ele>
        <time>2021-11-12T22:06:18.078Z</time>
      </trkpt>
      <trkpt lat="47.496294" lon="7.699210">
        <ele>386.152306</ele>
        <time>2021-11-12T22:06:21.897Z</time>
      </trkpt>
      <trkpt lat="47.496222" lon="7.699560">
        <ele>384.735742</ele>
        <time>2021-11-12T22:06:25.170Z</time>
      </trkpt>
      <trkpt lat="47.496077" lon="7.699908">
        <ele>383.152721</ele>
        <time>2021-11-12T22:06:28.798Z</time>
      </trkpt>
      <trkpt lat="47.495661" lon="7.700465">
        <ele>379.938030</ele>
        <time>2021-11-12T22:06:36.195Z</time>
      </trkpt>
      <trkpt lat="47.495486" lon="7.700890">
        <ele>378.018342</ele>
        <time>2021-11-12T22:06:40.728Z</time>
      </trkpt>
      <trkpt lat="47.495292" lon="7.701199">
        <ele>376.918558</ele>
        <time>2021-11-12T22:06:44.628Z</time>
      </trkpt>
      <trkpt lat="47.495025" lon="7.701511">
        <ele>375.605800</ele>
        <time>2021-11-12T22:06:49.353Z</time>
      </trkpt>
      <trkpt lat="47.494812" lon="7.701920">
        <ele>374.259400</ele>
        <time>2021-11-12T22:06:54.312Z</time>
      </trkpt>
      <trkpt lat="47.494640" lon="7.702401">
        <ele>372.840470</ele>
        <time>2021-11-12T22:06:59.606Z</time>
      </trkpt>
      <trkpt lat="47.494222" lon="7.703982">
        <ele>369.092534</ele>
        <time>2021-11-12T22:07:16.430Z</time>
      </trkpt>
      <trkpt lat="47.493976" lon="7.704494">
        <ele>367.869431</ele>
        <time>2021-11-12T22:07:22.861Z</time>
      </trkpt>
      <trkpt lat="47.493648" lon="7.705186">
        <ele>366.223779</ele>
        <time>2021-11-12T22:07:31.394Z</time>
      </trkpt>
      <trkpt lat="47.492600" lon="7.707945">
        <ele>359.771877</ele>
        <time>2021-11-12T22:08:02.949Z</time>
      </trkpt>
      <trkpt lat="47.492308" lon="7.708870">
        <ele>357.451459</ele>
        <time>2021-11-12T22:08:12.973Z</time>
      </trkpt>
      <trkpt lat="47.492149" lon="7.709619">
        <ele>355.667122</ele>
        <time>2021-11-12T22:08:20.606Z</time>
      </trkpt>
      <trkpt lat="47.492099" lon="7.710117">
        <ele>354.522855</ele>
        <time>2021-11-12T22:08:25.469Z</time>
      </trkpt>
      <trkpt lat="47.491989" lon="7.711389">
        <ele>350.796644</ele>
        <time>2021-11-12T22:08:37.760Z</time>
      </trkpt>
      <trkpt lat="47.491849" lon="7.712800">
        <ele>346.634772</ele>
        <time>2021-11-12T22:08:50.878Z</time>
      </trkpt>
      <trkpt lat="47.491736" lon="7.713412">
        <ele>344.602718</ele>
        <time>2021-11-12T22:08:56.666Z</time>
      </trkpt>
      <trkpt lat="47.491697" lon="7.713947">
        <ele>342.879210</ele>
        <time>2021-11-12T22:09:01.564Z</time>
      </trkpt>
      <trkpt lat="47.491706" lon="7.714312">
        <ele>341.709364</ele>
        <time>2021-11-12T22:09:03.900Z</time>
      </trkpt>
      <trkpt lat="47.491733" lon="7.714864">
        <ele>339.936723</ele>
        <time>2021-11-12T22:09:07.477Z</time>
      </trkpt>
      <trkpt lat="47.491636" lon="7.715360">
        <ele>338.282871</ele>
        <time>2021-11-12T22:09:10.831Z</time>
      </trkpt>
      <trkpt lat="47.491513" lon="7.715837">
        <ele>336.960641</ele>
        <time>2021-11-12T22:09:14.127Z</time>
      </trkpt>
      <trkpt lat="47.491472" lon="7.716017">
        <ele>336.472989</ele>
        <time>2021-11-12T22:09:15.346Z</time>
      </trkpt>
      <trkpt lat="47.491306" lon="7.716757">
        <ele>334.471272</ele>
        <time>2021-11-12T22:09:20.524Z</time>
      </trkpt>
      <trkpt lat="47.491263" lon="7.716920">
        <ele>334.022049</ele>
        <time>2021-11-12T22:09:21.675Z</time>
      </trkpt>
      <trkpt lat="47.491157" lon="7.717265">
        <ele>333.049083</ele>
        <time>2021-11-12T22:09:24.298Z</time>
      </trkpt>
      <trkpt lat="47.491015" lon="7.717616">
        <ele>331.998812</ele>
        <time>2021-11-12T22:09:27.080Z</time>
      </trkpt>
      <trkpt lat="47.490797" lon="7.718126">
        <ele>330.671201</ele>
        <time>2021-11-12T22:09:31.253Z</time>
      </trkpt>
      <trkpt lat="47.490501" lon="7.719280">
        <ele>328.248353</ele>
        <time>2021-11-12T22:09:39.696Z</time>
      </trkpt>
      <trkpt lat="47.490481" lon="7.719358">
        <ele>328.084597</ele>
        <time>2021-11-12T22:09:40.232Z</time>
      </trkpt>
      <trkpt lat="47.490474" lon="7.719709">
        <ele>327.395331</ele>
        <time>2021-11-12T22:09:42.739Z</time>
      </trkpt>
      <trkpt lat="47.490473" lon="7.719772">
        <ele>327.271637</ele>
        <time>2021-11-12T22:09:43.163Z</time>
      </trkpt>
      <trkpt lat="47.490529" lon="7.720667">
        <ele>325.690550</ele>
        <time>2021-11-12T22:09:49.682Z</time>
      </trkpt>
      <trkpt lat="47.490091" lon="7.720768">
        <ele>324.760871</ele>
        <time>2021-11-12T22:09:54.722Z</time>
      </trkpt>
      <trkpt lat="47.489818" lon="7.720826">
        <ele>324.182452</ele>
        <time>2021-11-12T22:09:57.823Z</time>
      </trkpt>
      <trkpt lat="47.489769" lon="7.720870">
        <ele>324.062249</ele>
        <time>2021-11-12T22:09:58.623Z</time>
      </trkpt>
      <trkpt lat="47.489762" lon="7.720945">
        <ele>323.954953</ele>
        <time>2021-11-12T22:09:59.170Z</time>
      </trkpt>
      <trkpt lat="47.489729" lon="7.721495">
        <ele>323.172449</ele>
        <time>2021-11-12T22:10:03.222Z</time>
      </trkpt>
      <trkpt lat="47.489704" lon="7.721679">
        <ele>322.906473</ele>
        <time>2021-11-12T22:10:04.628Z</time>
      </trkpt>
      <trkpt lat="47.489637" lon="7.721832">
        <ele>322.648098</ele>
        <time>2021-11-12T22:10:05.840Z</time>
      </trkpt>
      <trkpt lat="47.489281" lon="7.722307">
        <ele>321.661261</ele>
        <time>2021-11-12T22:10:10.945Z</time>
      </trkpt>
      <trkpt lat="47.489127" lon="7.722760">
        <ele>320.960255</ele>
        <time>2021-11-12T22:10:14.524Z</time>
      </trkpt>
      <trkpt lat="47.489110" lon="7.722971">
        <ele>320.666505</ele>
        <time>2021-11-12T22:10:16.153Z</time>
      </trkpt>
      <trkpt lat="47.489100" lon="7.723089">
        <ele>320.502105</ele>
        <time>2021-11-12T22:10:16.921Z</time>
      </trkpt>
      <trkpt lat="47.489109" lon="7.723791">
        <ele>319.531492</ele>
        <time>2021-11-12T22:10:22.183Z</time>
      </trkpt>
      <trkpt lat="47.489115" lon="7.723950">
        <ele>319.311350</ele>
        <time>2021-11-12T22:10:23.573Z</time>
      </trkpt>
      <trkpt lat="47.489122" lon="7.724141">
        <ele>319.046925</ele>
        <time>2021-11-12T22:10:24.935Z</time>
      </trkpt>
      <trkpt lat="47.489141" lon="7.724266">
        <ele>318.869809</ele>
        <time>2021-11-12T22:10:25.939Z</time>
      </trkpt>
      <trkpt lat="47.489169" lon="7.724454">
        <ele>318.754351</ele>
        <time>2021-11-12T22:10:27.634Z</time>
      </trkpt>
      <trkpt lat="47.489116" lon="7.724510">
        <ele>318.802349</ele>
        <time>2021-11-12T22:10:28.603Z</time>
      </trkpt>
      <trkpt lat="47.488897" lon="7.724752">
        <ele>319.003793</ele>
        <time>2021-11-12T22:10:31.726Z</time>
      </trkpt>
      <trkpt lat="47.488326" lon="7.725302">
        <ele>319.505936</ele>
        <time>2021-11-12T22:10:41.508Z</time>
      </trkpt>
      <trkpt lat="47.486872" lon="7.727207">
        <ele>323.646171</ele>
        <time>2021-11-12T22:11:31.853Z</time>
      </trkpt>
      <trkpt lat="47.486046" lon="7.728429">
        <ele>326.539275</ele>
        <time>2021-11-12T22:12:05.268Z</time>
      </trkpt>
      <trkpt lat="47.485113" lon="7.729094">
        <ele>328.605985</ele>
        <time>2021-11-12T22:12:28.397Z</time>
      </trkpt>
      <trkpt lat="47.485059" lon="7.729137">
        <ele>328.728365</ele>
        <time>2021-11-12T22:12:30.438Z</time>
      </trkpt>
      <trkpt lat="47.484975" lon="7.729224">
        <ele>328.932985</ele>
        <time>2021-11-12T22:12:31.647Z</time>
      </trkpt>
      <trkpt lat="47.484909" lon="7.729250">
        <ele>328.850857</ele>
        <time>2021-11-12T22:12:32.884Z</time>
      </trkpt>
      <trkpt lat="47.484875" lon="7.729436">
        <ele>328.599659</ele>
        <time>2021-11-12T22:12:34.347Z</time>
      </trkpt>
      <trkpt lat="47.484429" lon="7.730405">
        <ele>327.071220</ele>
        <time>2021-11-12T22:12:43.954Z</time>
      </trkpt>
      <trkpt lat="47.484446" lon="7.730531">
        <ele>326.903713</ele>
        <time>2021-11-12T22:12:44.777Z</time>
      </trkpt>
      <trkpt lat="47.484524" lon="7.730612">
        <ele>326.719884</ele>
        <time>2021-11-12T22:12:45.815Z</time>
      </trkpt>
      <trkpt lat="47.484753" lon="7.730938">
        <ele>326.106869</ele>
        <time>2021-11-12T22:12:49.051Z</time>
      </trkpt>
      <trkpt lat="47.484948" lon="7.731213">
        <ele>325.587213</ele>
        <time>2021-11-12T22:12:51.638Z</time>
      </trkpt>
      <trkpt lat="47.485104" lon="7.731443">
        <ele>324.942693</ele>
        <time>2021-11-12T22:12:53.848Z</time>
      </trkpt>
      <trkpt lat="47.485181" lon="7.731560">
        <ele>324.586305</ele>
        <time>2021-11-12T22:12:54.933Z</time>
      </trkpt>
      <trkpt lat="47.485199" lon="7.731623">
        <ele>324.437043</ele>
        <time>2021-11-12T22:12:55.356Z</time>
      </trkpt>
      <trkpt lat="47.485205" lon="7.731776">
        <ele>324.102603</ele>
        <time>2021-11-12T22:12:56.355Z</time>
      </trkpt>
      <trkpt lat="47.485209" lon="7.731931">
        <ele>323.764114</ele>
        <time>2021-11-12T22:12:57.465Z</time>
      </trkpt>
      <trkpt lat="47.485231" lon="7.732115">
        <ele>323.356352</ele>
        <time>2021-11-12T22:12:58.707Z</time>
      </trkpt>
      <trkpt lat="47.485263" lon="7.732218">
        <ele>323.108969</ele>
        <time>2021-11-12T22:12:59.393Z</time>
      </trkpt>
      <trkpt lat="47.485374" lon="7.732366">
        <ele>322.626492</ele>
        <time>2021-11-12T22:13:00.942Z</time>
      </trkpt>
      <trkpt lat="47.485607" lon="7.732608">
        <ele>321.707264</ele>
        <time>2021-11-12T22:13:03.792Z</time>
      </trkpt>
      <trkpt lat="47.485615" lon="7.732708">
        <ele>321.487521</ele>
        <time>2021-11-12T22:13:04.560Z</time>
      </trkpt>
      <trkpt lat="47.485619" lon="7.732745">
        <ele>321.405753</ele>
        <time>2021-11-12T22:13:04.812Z</time>
      </trkpt>
      <trkpt lat="47.485622" lon="7.732779">
        <ele>321.330929</ele>
        <time>2021-11-12T22:13:05.047Z</time>
      </trkpt>
      <trkpt lat="47.485621" lon="7.732816">
        <ele>321.250123</ele>
        <time>2021-11-12T22:13:05.314Z</time>
      </trkpt>
      <trkpt lat="47.485621" lon="7.732881">
        <ele>321.108281</ele>
        <time>2021-11-12T22:13:05.791Z</time>
      </trkpt>
      <trkpt lat="47.485609" lon="7.732921">
        <ele>321.012778</ele>
        <time>2021-11-12T22:13:06.115Z</time>
      </trkpt>
      <trkpt lat="47.485583" lon="7.733031">
        <ele>320.758478</ele>
        <time>2021-11-12T22:13:06.858Z</time>
      </trkpt>
      <trkpt lat="47.485554" lon="7.733208">
        <ele>320.361040</ele>
        <time>2021-11-12T22:13:08.380Z</time>
      </trkpt>
      <trkpt lat="47.485561" lon="7.733353">
        <ele>320.043815</ele>
        <time>2021-11-12T22:13:09.457Z</time>
      </trkpt>
      <trkpt lat="47.485587" lon="7.733415">
        <ele>319.884586</ele>
        <time>2021-11-12T22:13:10.052Z</time>
      </trkpt>
      <trkpt lat="47.485602" lon="7.733445">
        <ele>319.803149</ele>
        <time>2021-11-12T22:13:10.309Z</time>
      </trkpt>
      <trkpt lat="47.485625" lon="7.733476">
        <ele>319.702688</ele>
        <time>2021-11-12T22:13:10.606Z</time>
      </trkpt>
      <trkpt lat="47.485668" lon="7.733521">
        <ele>319.601632</ele>
        <time>2021-11-12T22:13:11.125Z</time>
      </trkpt>
      <trkpt lat="47.485916" lon="7.733734">
        <ele>319.108446</ele>
        <time>2021-11-12T22:13:14.388Z</time>
      </trkpt>
      <trkpt lat="47.485942" lon="7.733758">
        <ele>319.055740</ele>
        <time>2021-11-12T22:13:14.672Z</time>
      </trkpt>
      <trkpt lat="47.485959" lon="7.733777">
        <ele>319.019098</ele>
        <time>2021-11-12T22:13:14.876Z</time>
      </trkpt>
      <trkpt lat="47.486030" lon="7.733887">
        <ele>318.842298</ele>
        <time>2021-11-12T22:13:16.190Z</time>
      </trkpt>
      <trkpt lat="47.486064" lon="7.733959">
        <ele>318.740206</ele>
        <time>2021-11-12T22:13:16.833Z</time>
      </trkpt>
      <trkpt lat="47.486116" lon="7.734202">
        <ele>318.443947</ele>
        <time>2021-11-12T22:13:19.617Z</time>
      </trkpt>
      <trkpt lat="47.486110" lon="7.734387">
        <ele>318.228677</ele>
        <time>2021-11-12T22:13:21.114Z</time>
      </trkpt>
      <trkpt lat="47.486098" lon="7.734739">
        <ele>317.819032</ele>
        <time>2021-11-12T22:13:23.902Z</time>
      </trkpt>
      <trkpt lat="47.486091" lon="7.734940">
        <ele>317.585102</ele>
        <time>2021-11-12T22:13:25.839Z</time>
      </trkpt>
      <trkpt lat="47.486083" lon="7.735015">
        <ele>317.496851</ele>
        <time>2021-11-12T22:13:26.490Z</time>
      </trkpt>
      <trkpt lat="47.486083" lon="7.735015">
        <ele>317.496851</ele>
        <time>2021-11-12T22:13:26.504Z</time>
      </trkpt>
      <trkpt lat="47.486078" lon="7.735123">
        <ele>317.371030</ele>
        <time>2021-11-12T22:13:27.471Z</time>
      </trkpt>
      <trkpt lat="47.486080" lon="7.735202">
        <ele>317.279145</ele>
        <time>2021-11-12T22:13:28.025Z</time>
      </trkpt>
      <trkpt lat="47.486093" lon="7.735299">
        <ele>317.164207</ele>
        <time>2021-11-12T22:13:28.714Z</time>
      </trkpt>
      <trkpt lat="47.486134" lon="7.735440">
        <ele>316.985797</ele>
        <time>2021-11-12T22:13:29.925Z</time>
      </trkpt>
      <trkpt lat="47.486151" lon="7.735532">
        <ele>316.874941</ele>
        <time>2021-11-12T22:13:30.646Z</time>
      </trkpt>
      <trkpt lat="47.486157" lon="7.735604">
        <ele>316.790622</ele>
        <time>2021-11-12T22:13:31.220Z</time>
      </trkpt>
      <trkpt lat="47.486154" lon="7.735694">
        <ele>316.685890</ele>
        <time>2021-11-12T22:13:31.836Z</time>
      </trkpt>
      <trkpt lat="47.486144" lon="7.735743">
        <ele>316.626397</ele>
        <time>2021-11-12T22:13:32.205Z</time>
      </trkpt>
      <trkpt lat="47.486119" lon="7.735898">
        <ele>316.436071</ele>
        <time>2021-11-12T22:13:33.451Z</time>
      </trkpt>
      <trkpt lat="47.486042" lon="7.736224">
        <ele>316.020589</ele>
        <time>2021-11-12T22:13:35.900Z</time>
      </trkpt>
      <trkpt lat="47.486015" lon="7.736344">
        <ele>315.868424</ele>
        <time>2021-11-12T22:13:37.055Z</time>
      </trkpt>
      <trkpt lat="47.485907" lon="7.736780">
        <ele>315.309736</ele>
        <time>2021-11-12T22:13:40.471Z</time>
      </trkpt>
      <trkpt lat="47.485878" lon="7.736850">
        <ele>315.210952</ele>
        <time>2021-11-12T22:13:41.192Z</time>
      </trkpt>
      <trkpt lat="47.485799" lon="7.736984">
        <ele>314.997005</ele>
        <time>2021-11-12T22:13:42.542Z</time>
      </trkpt>
      <trkpt lat="47.485750" lon="7.737070">
        <ele>314.861669</ele>
        <time>2021-11-12T22:13:43.316Z</time>
      </trkpt>
      <trkpt lat="47.485806" lon="7.737111">
        <ele>314.750433</ele>
        <time>2021-11-12T22:13:43.930Z</time>
      </trkpt>
      <trkpt lat="47.485875" lon="7.737156">
        <ele>314.616187</ele>
        <time>2021-11-12T22:13:44.866Z</time>
      </trkpt>
      <trkpt lat="47.485976" lon="7.737217">
        <ele>314.421971</ele>
        <time>2021-11-12T22:13:46.094Z</time>
      </trkpt>
      <trkpt lat="47.486087" lon="7.737329">
        <ele>314.182784</ele>
        <time>2021-11-12T22:13:47.481Z</time>
      </trkpt>
      <trkpt lat="47.486287" lon="7.737642">
        <ele>313.664523</ele>
        <time>2021-11-12T22:13:50.956Z</time>
      </trkpt>
      <trkpt lat="47.486314" lon="7.737686">
        <ele>313.593018</ele>
        <time>2021-11-12T22:13:51.370Z</time>
      </trkpt>
      <trkpt lat="47.486354" lon="7.737753">
        <ele>313.485458</ele>
        <time>2021-11-12T22:13:52.003Z</time>
      </trkpt>
      <trkpt lat="47.486384" lon="7.737805">
        <ele>313.403198</ele>
        <time>2021-11-12T22:13:52.630Z</time>
      </trkpt>
      <trkpt lat="47.486495" lon="7.737981">
        <ele>313.476473</ele>
        <time>2021-11-12T22:13:54.835Z</time>
      </trkpt>
      <trkpt lat="47.486621" lon="7.738169">
        <ele>313.584640</ele>
        <time>2021-11-12T22:13:56.866Z</time>
      </trkpt>
      <trkpt lat="47.486676" lon="7.738293">
        <ele>313.645232</ele>
        <time>2021-11-12T22:13:58.288Z</time>
      </trkpt>
      <trkpt lat="47.486689" lon="7.738358">
        <ele>313.672924</ele>
        <time>2021-11-12T22:13:58.909Z</time>
      </trkpt>
      <trkpt lat="47.486696" lon="7.738489">
        <ele>313.726606</ele>
        <time>2021-11-12T22:14:00.067Z</time>
      </trkpt>
      <trkpt lat="47.486688" lon="7.738613">
        <ele>313.777491</ele>
        <time>2021-11-12T22:14:01.000Z</time>
      </trkpt>
      <trkpt lat="47.486652" lon="7.738745">
        <ele>313.835641</ele>
        <time>2021-11-12T22:14:02.560Z</time>
      </trkpt>
      <trkpt lat="47.486599" lon="7.738994">
        <ele>313.942287</ele>
        <time>2021-11-12T22:14:04.929Z</time>
      </trkpt>
      <trkpt lat="47.486588" lon="7.739167">
        <ele>314.013271</ele>
        <time>2021-11-12T22:14:06.727Z</time>
      </trkpt>
      <trkpt lat="47.486574" lon="7.739389">
        <ele>314.104355</ele>
        <time>2021-11-12T22:14:09.626Z</time>
      </trkpt>
      <trkpt lat="47.486546" lon="7.739919">
        <ele>314.321527</ele>
        <time>2021-11-12T22:14:16.709Z</time>
      </trkpt>
      <trkpt lat="47.486498" lon="7.740674">
        <ele>315.766194</ele>
        <time>2021-11-12T22:14:31.304Z</time>
      </trkpt>
      <trkpt lat="47.486493" lon="7.740755">
        <ele>316.035812</ele>
        <time>2021-11-12T22:14:33.142Z</time>
      </trkpt>
      <trkpt lat="47.486469" lon="7.741035">
        <ele>316.971399</ele>
        <time>2021-11-12T22:14:39.842Z</time>
      </trkpt>
      <trkpt lat="47.486458" lon="7.741135">
        <ele>317.307244</ele>
        <time>2021-11-12T22:14:42.191Z</time>
      </trkpt>
      <trkpt lat="47.486413" lon="7.741401">
        <ele>318.216197</ele>
        <time>2021-11-12T22:14:48.685Z</time>
      </trkpt>
      <trkpt lat="47.486335" lon="7.741716">
        <ele>319.328260</ele>
        <time>2021-11-12T22:14:56.789Z</time>
      </trkpt>
      <trkpt lat="47.486221" lon="7.742103">
        <ele>320.727684</ele>
        <time>2021-11-12T22:15:07.681Z</time>
      </trkpt>
      <trkpt lat="47.486170" lon="7.742275">
        <ele>321.350307</ele>
        <time>2021-11-12T22:15:12.122Z</time>
      </trkpt>
      <trkpt lat="47.486081" lon="7.742579">
        <ele>322.448523</ele>
        <time>2021-11-12T22:15:21.632Z</time>
      </trkpt>
      <trkpt lat="47.485726" lon="7.743655">
        <ele>326.178025</ele>
        <time>2021-11-12T22:15:51.214Z</time>
      </trkpt>
      <trkpt lat="47.485353" lon="7.744189">
        <ele>328.528454</ele>
        <time>2021-11-12T22:16:08.657Z</time>
      </trkpt>
      <trkpt lat="47.485152" lon="7.744380">
        <ele>329.610279</ele>
        <time>2021-11-12T22:16:16.667Z</time>
      </trkpt>
      <trkpt lat="47.484772" lon="7.744741">
        <ele>331.614920</ele>
        <time>2021-11-12T22:16:27.856Z</time>
      </trkpt>
      <trkpt lat="47.484727" lon="7.744803">
        <ele>331.840978</ele>
        <time>2021-11-12T22:16:29.379Z</time>
      </trkpt>
      <trkpt lat="47.484658" lon="7.744938">
        <ele>332.261528</ele>
        <time>2021-11-12T22:16:31.887Z</time>
      </trkpt>
      <trkpt lat="47.484616" lon="7.745052">
        <ele>332.584130</ele>
        <time>2021-11-12T22:16:35.472Z</time>
      </trkpt>
      <trkpt lat="47.484266" lon="7.746897">
        <ele>337.345411</ele>
        <time>2021-11-12T22:17:11.598Z</time>
      </trkpt>
      <trkpt lat="47.484176" lon="7.747166">
        <ele>338.119699</ele>
        <time>2021-11-12T22:17:18.822Z</time>
      </trkpt>
      <trkpt lat="47.483953" lon="7.747697">
        <ele>340.841486</ele>
        <time>2021-11-12T22:17:33.448Z</time>
      </trkpt>
      <trkpt lat="47.483857" lon="7.747917">
        <ele>341.981599</ele>
        <time>2021-11-12T22:17:41.415Z</time>
      </trkpt>
      <trkpt lat="47.483653" lon="7.748384">
        <ele>344.402516</ele>
        <time>2021-11-12T22:17:58.002Z</time>
      </trkpt>
      <trkpt lat="47.483455" lon="7.748863">
        <ele>346.847088</ele>
        <time>2021-11-12T22:18:15.287Z</time>
      </trkpt>
      <trkpt lat="47.483127" lon="7.749663">
        <ele>351.205256</ele>
        <time>2021-11-12T22:18:40.961Z</time>
      </trkpt>
      <trkpt lat="47.483104" lon="7.749789">
        <ele>351.899684</ele>
        <time>2021-11-12T22:18:46.437Z</time>
      </trkpt>
      <trkpt lat="47.483118" lon="7.750142">
        <ele>353.781109</ele>
        <time>2021-11-12T22:18:54.477Z</time>
      </trkpt>
      <trkpt lat="47.483212" lon="7.750380">
        <ele>355.247824</ele>
        <time>2021-11-12T22:19:03.298Z</time>
      </trkpt>
      <trkpt lat="47.483353" lon="7.750495">
        <ele>356.515385</ele>
        <time>2021-11-12T22:19:09.225Z</time>
      </trkpt>
      <trkpt lat="47.483598" lon="7.750514">
        <ele>358.446927</ele>
        <time>2021-11-12T22:19:22.090Z</time>
      </trkpt>
      <trkpt lat="47.483821" lon="7.750312">
        <ele>360.505459</ele>
        <time>2021-11-12T22:19:35.288Z</time>
      </trkpt>
      <trkpt lat="47.484079" lon="7.749775">
        <ele>364.082524</ele>
        <time>2021-11-12T22:19:56.943Z</time>
      </trkpt>
      <trkpt lat="47.484276" lon="7.749526">
        <ele>366.817296</ele>
        <time>2021-11-12T22:20:10.288Z</time>
      </trkpt>
      <trkpt lat="47.484374" lon="7.749499">
        <ele>367.869515</ele>
        <time>2021-11-12T22:20:15.335Z</time>
      </trkpt>
      <trkpt lat="47.484403" lon="7.749499">
        <ele>368.175626</ele>
        <time>2021-11-12T22:20:16.978Z</time>
      </trkpt>
      <trkpt lat="47.484462" lon="7.749511">
        <ele>368.804257</ele>
        <time>2021-11-12T22:20:19.579Z</time>
      </trkpt>
      <trkpt lat="47.484510" lon="7.749532">
        <ele>369.332603</ele>
        <time>2021-11-12T22:20:22.349Z</time>
      </trkpt>
      <trkpt lat="47.484525" lon="7.749544">
        <ele>369.512594</ele>
        <time>2021-11-12T22:20:24.125Z</time>
      </trkpt>
      <trkpt lat="47.484572" lon="7.749580">
        <ele>370.071227</ele>
        <time>2021-11-12T22:20:27.603Z</time>
      </trkpt>
      <trkpt lat="47.484700" lon="7.749896">
        <ele>372.699261</ele>
        <time>2021-11-12T22:20:40.338Z</time>
      </trkpt>
      <trkpt lat="47.484640" lon="7.750440">
        <ele>376.631116</ele>
        <time>2021-11-12T22:21:02.261Z</time>
      </trkpt>
      <trkpt lat="47.484582" lon="7.750743">
        <ele>378.877541</ele>
        <time>2021-11-12T22:21:16.077Z</time>
      </trkpt>
      <trkpt lat="47.484428" lon="7.751559">
        <ele>384.638605</ele>
        <time>2021-11-12T22:21:53.356Z</time>
      </trkpt>
      <trkpt lat="47.484067" lon="7.753436">
        <ele>396.717168</ele>
        <time>2021-11-12T22:23:07.083Z</time>
      </trkpt>
      <trkpt lat="47.483916" lon="7.754251">
        <ele>400.002565</ele>
        <time>2021-11-12T22:23:23.428Z</time>
      </trkpt>
      <trkpt lat="47.483838" lon="7.754668">
        <ele>400.742566</ele>
        <time>2021-11-12T22:23:31.286Z</time>
      </trkpt>
      <trkpt lat="47.483795" lon="7.754908">
        <ele>401.167213</ele>
        <time>2021-11-12T22:23:34.790Z</time>
      </trkpt>
      <trkpt lat="47.483754" lon="7.755239">
        <ele>401.742747</ele>
        <time>2021-11-12T22:23:40.143Z</time>
      </trkpt>
      <trkpt lat="47.483769" lon="7.756121">
        <ele>403.251694</ele>
        <time>2021-11-12T22:23:53.380Z</time>
      </trkpt>
      <trkpt lat="47.483791" lon="7.756407">
        <ele>403.743993</ele>
        <time>2021-11-12T22:23:55.812Z</time>
      </trkpt>
      <trkpt lat="47.483892" lon="7.756713">
        <ele>404.827021</ele>
        <time>2021-11-12T22:24:00.413Z</time>
      </trkpt>
      <trkpt lat="47.484252" lon="7.757357">
        <ele>407.646858</ele>
        <time>2021-11-12T22:24:11.820Z</time>
      </trkpt>
      <trkpt lat="47.484552" lon="7.757716">
        <ele>409.573096</ele>
        <time>2021-11-12T22:24:27.504Z</time>
      </trkpt>
      <trkpt lat="47.485109" lon="7.758040">
        <ele>412.561086</ele>
        <time>2021-11-12T22:24:55.799Z</time>
      </trkpt>
      <trkpt lat="47.485584" lon="7.758116">
        <ele>416.972652</ele>
        <time>2021-11-12T22:25:19.664Z</time>
      </trkpt>
      <trkpt lat="47.485622" lon="7.758125">
        <ele>417.345460</ele>
        <time>2021-11-12T22:25:23.737Z</time>
      </trkpt>
      <trkpt lat="47.485673" lon="7.758136">
        <ele>417.844740</ele>
        <time>2021-11-12T22:25:27.049Z</time>
      </trkpt>
      <trkpt lat="47.485984" lon="7.758280">
        <ele>421.001574</ele>
        <time>2021-11-12T22:25:44.144Z</time>
      </trkpt>
      <trkpt lat="47.486303" lon="7.758588">
        <ele>424.691483</ele>
        <time>2021-11-12T22:26:05.059Z</time>
      </trkpt>
      <trkpt lat="47.486484" lon="7.758798">
        <ele>426.919587</ele>
        <time>2021-11-12T22:26:15.631Z</time>
      </trkpt>
      <trkpt lat="47.486636" lon="7.758922">
        <ele>428.601007</ele>
        <time>2021-11-12T22:26:27.468Z</time>
      </trkpt>
      <trkpt lat="47.487031" lon="7.759652">
        <ele>435.021680</ele>
        <time>2021-11-12T22:27:01.020Z</time>
      </trkpt>
      <trkpt lat="47.487890" lon="7.761232">
        <ele>449.220162</ele>
        <time>2021-11-12T22:28:18.499Z</time>
      </trkpt>
      <trkpt lat="47.488339" lon="7.762200">
        <ele>458.358300</ele>
        <time>2021-11-12T22:29:05.690Z</time>
      </trkpt>
      <trkpt lat="47.488582" lon="7.762924">
        <ele>464.650004</ele>
        <time>2021-11-12T22:29:39.531Z</time>
      </trkpt>
      <trkpt lat="47.488619" lon="7.763292">
        <ele>467.545677</ele>
        <time>2021-11-12T22:29:55.092Z</time>
      </trkpt>
      <trkpt lat="47.488592" lon="7.765070">
        <ele>481.892729</ele>
        <time>2021-11-12T22:31:13.800Z</time>
      </trkpt>
      <trkpt lat="47.488674" lon="7.765750">
        <ele>487.497546</ele>
        <time>2021-11-12T22:31:43.740Z</time>
      </trkpt>
      <trkpt lat="47.488779" lon="7.766201">
        <ele>491.216222</ele>
        <time>2021-11-12T22:32:04.376Z</time>
      </trkpt>
      <trkpt lat="47.488885" lon="7.766666">
        <ele>492.865771</ele>
        <time>2021-11-12T22:32:22.362Z</time>
      </trkpt>
      <trkpt lat="47.489047" lon="7.767376">
        <ele>495.384670</ele>
        <time>2021-11-12T22:32:44.411Z</time>
      </trkpt>
      <trkpt lat="47.489106" lon="7.767650">
        <ele>496.351293</ele>
        <time>2021-11-12T22:32:51.373Z</time>
      </trkpt>
      <trkpt lat="47.489166" lon="7.767905">
        <ele>497.258897</ele>
        <time>2021-11-12T22:32:56.945Z</time>
      </trkpt>
      <trkpt lat="47.489202" lon="7.768057">
        <ele>497.800286</ele>
        <time>2021-11-12T22:32:59.731Z</time>
      </trkpt>
      <trkpt lat="47.489217" lon="7.768114">
        <ele>498.005895</ele>
        <time>2021-11-12T22:33:01.067Z</time>
      </trkpt>
      <trkpt lat="47.489260" lon="7.768283">
        <ele>498.612887</ele>
        <time>2021-11-12T22:33:04.228Z</time>
      </trkpt>
      <trkpt lat="47.489330" lon="7.768521">
        <ele>499.485365</ele>
        <time>2021-11-12T22:33:06.399Z</time>
      </trkpt>
      <trkpt lat="47.489759" lon="7.769607">
        <ele>495.232402</ele>
        <time>2021-11-12T22:33:14.828Z</time>
      </trkpt>
      <trkpt lat="47.489882" lon="7.769861">
        <ele>493.847394</ele>
        <time>2021-11-12T22:33:16.693Z</time>
      </trkpt>
      <trkpt lat="47.490063" lon="7.770088">
        <ele>492.291214</ele>
        <time>2021-11-12T22:33:18.767Z</time>
      </trkpt>
      <trkpt lat="47.490367" lon="7.770241">
        <ele>490.185076</ele>
        <time>2021-11-12T22:33:21.510Z</time>
      </trkpt>
      <trkpt lat="47.491182" lon="7.770222">
        <ele>484.529014</ele>
        <time>2021-11-12T22:33:28.526Z</time>
      </trkpt>
      <trkpt lat="47.492020" lon="7.770184">
        <ele>478.531832</ele>
        <time>2021-11-12T22:33:36.035Z</time>
      </trkpt>
      <trkpt lat="47.492137" lon="7.770169">
        <ele>477.691775</ele>
        <time>2021-11-12T22:33:37.152Z</time>
      </trkpt>
      <trkpt lat="47.492295" lon="7.770100">
        <ele>476.513394</ele>
        <time>2021-11-12T22:33:38.700Z</time>
      </trkpt>
      <trkpt lat="47.492435" lon="7.770039">
        <ele>475.469449</ele>
        <time>2021-11-12T22:33:40.104Z</time>
      </trkpt>
      <trkpt lat="47.492661" lon="7.769832">
        <ele>474.888566</ele>
        <time>2021-11-12T22:33:42.715Z</time>
      </trkpt>
      <trkpt lat="47.492753" lon="7.769701">
        <ele>474.636417</ele>
        <time>2021-11-12T22:33:44.147Z</time>
      </trkpt>
      <trkpt lat="47.492853" lon="7.769527">
        <ele>474.331578</ele>
        <time>2021-11-12T22:33:45.826Z</time>
      </trkpt>
      <trkpt lat="47.492876" lon="7.769465">
        <ele>474.237189</ele>
        <time>2021-11-12T22:33:46.333Z</time>
      </trkpt>
      <trkpt lat="47.493003" lon="7.769128">
        <ele>473.722241</ele>
        <time>2021-11-12T22:33:50.051Z</time>
      </trkpt>
      <trkpt lat="47.493049" lon="7.768906">
        <ele>473.412364</ele>
        <time>2021-11-12T22:33:52.208Z</time>
      </trkpt>
      <trkpt lat="47.493059" lon="7.768825">
        <ele>473.302480</ele>
        <time>2021-11-12T22:33:53.156Z</time>
      </trkpt>
      <trkpt lat="47.493070" lon="7.768289">
        <ele>472.586858</ele>
        <time>2021-11-12T22:33:58.435Z</time>
      </trkpt>
      <trkpt lat="47.493062" lon="7.767908">
        <ele>472.078168</ele>
        <time>2021-11-12T22:34:01.517Z</time>
      </trkpt>
      <trkpt lat="47.493042" lon="7.767301">
        <ele>469.353311</ele>
        <time>2021-11-12T22:34:05.872Z</time>
      </trkpt>
      <trkpt lat="47.493026" lon="7.766838">
        <ele>466.666677</ele>
        <time>2021-11-12T22:34:08.930Z</time>
      </trkpt>
      <trkpt lat="47.492990" lon="7.765695">
        <ele>460.035693</ele>
        <time>2021-11-12T22:34:15.643Z</time>
      </trkpt>
      <trkpt lat="47.493004" lon="7.765343">
        <ele>457.992289</ele>
        <time>2021-11-12T22:34:17.634Z</time>
      </trkpt>
      <trkpt lat="47.493099" lon="7.764952">
        <ele>454.860622</ele>
        <time>2021-11-12T22:34:19.962Z</time>
      </trkpt>
      <trkpt lat="47.493263" lon="7.764681">
        <ele>450.911719</ele>
        <time>2021-11-12T22:34:21.990Z</time>
      </trkpt>
      <trkpt lat="47.493540" lon="7.764515">
        <ele>446.110879</ele>
        <time>2021-11-12T22:34:24.501Z</time>
      </trkpt>
      <trkpt lat="47.493590" lon="7.764507">
        <ele>445.302971</ele>
        <time>2021-11-12T22:34:24.929Z</time>
      </trkpt>
      <trkpt lat="47.493680" lon="7.764500">
        <ele>443.855166</ele>
        <time>2021-11-12T22:34:25.669Z</time>
      </trkpt>
      <trkpt lat="47.493931" lon="7.764617">
        <ele>439.627700</ele>
        <time>2021-11-12T22:34:27.852Z</time>
      </trkpt>
      <trkpt lat="47.494264" lon="7.764935">
        <ele>433.261297</ele>
        <time>2021-11-12T22:34:31.116Z</time>
      </trkpt>
      <trkpt lat="47.494492" lon="7.765172">
        <ele>428.785471</ele>
        <time>2021-11-12T22:34:33.488Z</time>
      </trkpt>
      <trkpt lat="47.494591" lon="7.765251">
        <ele>427.113537</ele>
        <time>2021-11-12T22:34:34.422Z</time>
      </trkpt>
      <trkpt lat="47.495053" lon="7.765476">
        <ele>421.250914</ele>
        <time>2021-11-12T22:34:38.466Z</time>
      </trkpt>
      <trkpt lat="47.495769" lon="7.765706">
        <ele>412.419420</ele>
        <time>2021-11-12T22:34:44.761Z</time>
      </trkpt>
      <trkpt lat="47.496105" lon="7.765775">
        <ele>408.330527</ele>
        <time>2021-11-12T22:34:47.655Z</time>
      </trkpt>
      <trkpt lat="47.496330" lon="7.765821">
        <ele>405.648023</ele>
        <time>2021-11-12T22:34:49.598Z</time>
      </trkpt>
      <trkpt lat="47.496588" lon="7.765860">
        <ele>403.226359</ele>
        <time>2021-11-12T22:34:51.860Z</time>
      </trkpt>
      <trkpt lat="47.496750" lon="7.765887">
        <ele>401.704089</ele>
        <time>2021-11-12T22:34:53.248Z</time>
      </trkpt>
      <trkpt lat="47.496969" lon="7.765900">
        <ele>399.657484</ele>
        <time>2021-11-12T22:34:55.150Z</time>
      </trkpt>
      <trkpt lat="47.497210" lon="7.765902">
        <ele>397.407058</ele>
        <time>2021-11-12T22:34:57.225Z</time>
      </trkpt>
      <trkpt lat="47.497498" lon="7.765897">
        <ele>394.717610</ele>
        <time>2021-11-12T22:34:59.693Z</time>
      </trkpt>
      <trkpt lat="47.497754" lon="7.765880">
        <ele>392.324749</ele>
        <time>2021-11-12T22:35:01.929Z</time>
      </trkpt>
      <trkpt lat="47.497754" lon="7.765880">
        <ele>392.324749</ele>
        <time>2021-11-12T22:35:01.939Z</time>
      </trkpt>
      <trkpt lat="47.497958" lon="7.765844">
        <ele>390.406363</ele>
        <time>2021-11-12T22:35:03.786Z</time>
      </trkpt>
      <trkpt lat="47.498155" lon="7.765801">
        <ele>388.752377</ele>
        <time>2021-11-12T22:35:05.528Z</time>
      </trkpt>
      <trkpt lat="47.498351" lon="7.765739">
        <ele>387.655719</ele>
        <time>2021-11-12T22:35:07.357Z</time>
      </trkpt>
      <trkpt lat="47.498586" lon="7.765657">
        <ele>386.334638</ele>
        <time>2021-11-12T22:35:09.515Z</time>
      </trkpt>
      <trkpt lat="47.498800" lon="7.765582">
        <ele>385.131332</ele>
        <time>2021-11-12T22:35:11.497Z</time>
      </trkpt>
      <trkpt lat="47.499360" lon="7.765292">
        <ele>381.885098</ele>
        <time>2021-11-12T22:35:17.049Z</time>
      </trkpt>
      <trkpt lat="47.499422" lon="7.765260">
        <ele>381.525824</ele>
        <time>2021-11-12T22:35:17.667Z</time>
      </trkpt>
      <trkpt lat="47.499609" lon="7.765136">
        <ele>380.404646</ele>
        <time>2021-11-12T22:35:19.675Z</time>
      </trkpt>
      <trkpt lat="47.499963" lon="7.764903">
        <ele>379.014659</ele>
        <time>2021-11-12T22:35:23.602Z</time>
      </trkpt>
      <trkpt lat="47.500387" lon="7.764595">
        <ele>378.487655</ele>
        <time>2021-11-12T22:35:29.034Z</time>
      </trkpt>
      <trkpt lat="47.500727" lon="7.764330">
        <ele>378.058901</ele>
        <time>2021-11-12T22:35:34.084Z</time>
      </trkpt>
      <trkpt lat="47.500820" lon="7.764278">
        <ele>377.947974</ele>
        <time>2021-11-12T22:35:35.194Z</time>
      </trkpt>
      <trkpt lat="47.501035" lon="7.764209">
        <ele>377.702502</ele>
        <time>2021-11-12T22:35:38.773Z</time>
      </trkpt>
      <trkpt lat="47.501196" lon="7.764236">
        <ele>377.521708</ele>
        <time>2021-11-12T22:35:41.082Z</time>
      </trkpt>
      <trkpt lat="47.501281" lon="7.764267">
        <ele>377.424028</ele>
        <time>2021-11-12T22:35:42.429Z</time>
      </trkpt>
      <trkpt lat="47.501345" lon="7.764315">
        <ele>377.343973</ele>
        <time>2021-11-12T22:35:43.372Z</time>
      </trkpt>
      <trkpt lat="47.501402" lon="7.764367">
        <ele>377.269263</ele>
        <time>2021-11-12T22:35:44.749Z</time>
      </trkpt>
      <trkpt lat="47.501717" lon="7.764903">
        <ele>377.024565</ele>
        <time>2021-11-12T22:35:51.472Z</time>
      </trkpt>
      <trkpt lat="47.501785" lon="7.764941">
        <ele>376.994633</ele>
        <time>2021-11-12T22:35:52.788Z</time>
      </trkpt>
      <trkpt lat="47.501861" lon="7.764937">
        <ele>376.963317</ele>
        <time>2021-11-12T22:35:53.820Z</time>
      </trkpt>
      <trkpt lat="47.502299" lon="7.764761">
        <ele>376.776422</ele>
        <time>2021-11-12T22:36:01.186Z</time>
      </trkpt>
      <trkpt lat="47.502400" lon="7.764717">
        <ele>376.733067</ele>
        <time>2021-11-12T22:36:02.714Z</time>
      </trkpt>
      <trkpt lat="47.502578" lon="7.764620">
        <ele>376.654957</ele>
        <time>2021-11-12T22:36:05.339Z</time>
      </trkpt>
      <trkpt lat="47.503736" lon="7.764325">
        <ele>374.497679</ele>
        <time>2021-11-12T22:36:18.867Z</time>
      </trkpt>
      <trkpt lat="47.504400" lon="7.764478">
        <ele>372.584152</ele>
        <time>2021-11-12T22:36:25.535Z</time>
      </trkpt>
      <trkpt lat="47.505115" lon="7.765011">
        <ele>370.251801</ele>
        <time>2021-11-12T22:36:33.304Z</time>
      </trkpt>
      <trkpt lat="47.506143" lon="7.764883">
        <ele>367.163318</ele>
        <time>2021-11-12T22:36:44.155Z</time>
      </trkpt>
      <trkpt lat="47.506301" lon="7.764884">
        <ele>366.690295</ele>
        <time>2021-11-12T22:36:45.698Z</time>
      </trkpt>
      <trkpt lat="47.506377" lon="7.764894">
        <ele>366.461870</ele>
        <time>2021-11-12T22:36:46.628Z</time>
      </trkpt>
      <trkpt lat="47.506619" lon="7.764938">
        <ele>365.672558</ele>
        <time>2021-11-12T22:36:49.284Z</time>
      </trkpt>
      <trkpt lat="47.506716" lon="7.764971">
        <ele>365.292548</ele>
        <time>2021-11-12T22:36:50.309Z</time>
      </trkpt>
      <trkpt lat="47.506870" lon="7.765037">
        <ele>364.680416</ele>
        <time>2021-11-12T22:36:52.134Z</time>
      </trkpt>
      <trkpt lat="47.507429" lon="7.765409">
        <ele>362.340368</ele>
        <time>2021-11-12T22:36:58.122Z</time>
      </trkpt>
      <trkpt lat="47.507506" lon="7.765470">
        <ele>362.006925</ele>
        <time>2021-11-12T22:36:59.048Z</time>
      </trkpt>
      <trkpt lat="47.507650" lon="7.765503">
        <ele>361.450570</ele>
        <time>2021-11-12T22:37:00.401Z</time>
      </trkpt>
      <trkpt lat="47.507977" lon="7.765561">
        <ele>360.193122</ele>
        <time>2021-11-12T22:37:03.621Z</time>
      </trkpt>
      <trkpt lat="47.508137" lon="7.765584">
        <ele>359.579352</ele>
        <time>2021-11-12T22:37:05.186Z</time>
      </trkpt>
      <trkpt lat="47.508322" lon="7.765556">
        <ele>358.821492</ele>
        <time>2021-11-12T22:37:06.955Z</time>
      </trkpt>
      <trkpt lat="47.508744" lon="7.765478">
        <ele>356.829381</ele>
        <time>2021-11-12T22:37:10.948Z</time>
      </trkpt>
      <trkpt lat="47.508693" lon="7.765219">
        <ele>355.975762</ele>
        <time>2021-11-12T22:37:13.396Z</time>
      </trkpt>
      <trkpt lat="47.508640" lon="7.764678">
        <ele>354.246059</ele>
        <time>2021-11-12T22:37:18.281Z</time>
      </trkpt>
      <trkpt lat="47.508609" lon="7.764531">
        <ele>353.758792</ele>
        <time>2021-11-12T22:37:19.617Z</time>
      </trkpt>
      <trkpt lat="47.508587" lon="7.764464">
        <ele>353.523074</ele>
        <time>2021-11-12T22:37:20.328Z</time>
      </trkpt>
      <trkpt lat="47.508566" lon="7.764388">
        <ele>353.263258</ele>
        <time>2021-11-12T22:37:21.172Z</time>
      </trkpt>
      <trkpt lat="47.508640" lon="7.764363">
        <ele>352.907711</ele>
        <time>2021-11-12T22:37:22.212Z</time>
      </trkpt>
      <trkpt lat="47.509093" lon="7.764071">
        <ele>350.622515</ele>
        <time>2021-11-12T22:37:29.106Z</time>
      </trkpt>
      <trkpt lat="47.509205" lon="7.763997">
        <ele>350.320754</ele>
        <time>2021-11-12T22:37:30.864Z</time>
      </trkpt>
      <trkpt lat="47.509344" lon="7.763865">
        <ele>349.914447</ele>
        <time>2021-11-12T22:37:33.354Z</time>
      </trkpt>
      <trkpt lat="47.509486" lon="7.763744">
        <ele>349.511333</ele>
        <time>2021-11-12T22:37:35.713Z</time>
      </trkpt>
      <trkpt lat="47.509528" lon="7.763651">
        <ele>349.325412</ele>
        <time>2021-11-12T22:37:37.195Z</time>
      </trkpt>
      <trkpt lat="47.509577" lon="7.763264">
        <ele>348.671049</ele>
        <time>2021-11-12T22:37:41.075Z</time>
      </trkpt>
      <trkpt lat="47.509487" lon="7.762907">
        <ele>348.037770</ele>
        <time>2021-11-12T22:37:45.207Z</time>
      </trkpt>
      <trkpt lat="47.509821" lon="7.762738">
        <ele>347.169329</ele>
        <time>2021-11-12T22:37:49.158Z</time>
      </trkpt>
      <trkpt lat="47.509914" lon="7.762697">
        <ele>346.930582</ele>
        <time>2021-11-12T22:37:50.169Z</time>
      </trkpt>
      <trkpt lat="47.510055" lon="7.762636">
        <ele>346.569159</ele>
        <time>2021-11-12T22:37:51.878Z</time>
      </trkpt>
      <trkpt lat="47.510389" lon="7.762733">
        <ele>345.790686</ele>
        <time>2021-11-12T22:37:55.790Z</time>
      </trkpt>
      <trkpt lat="47.510823" lon="7.762808">
        <ele>344.842977</ele>
        <time>2021-11-12T22:38:00.533Z</time>
      </trkpt>
      <trkpt lat="47.511022" lon="7.762848">
        <ele>344.407398</ele>
        <time>2021-11-12T22:38:02.676Z</time>
      </trkpt>
      <trkpt lat="47.511165" lon="7.762840">
        <ele>344.097019</ele>
        <time>2021-11-12T22:38:04.152Z</time>
      </trkpt>
      <trkpt lat="47.511316" lon="7.762702">
        <ele>343.712136</ele>
        <time>2021-11-12T22:38:06.062Z</time>
      </trkpt>
      <trkpt lat="47.511378" lon="7.762637">
        <ele>343.547360</ele>
        <time>2021-11-12T22:38:06.881Z</time>
      </trkpt>
      <trkpt lat="47.511448" lon="7.762547">
        <ele>343.346275</ele>
        <time>2021-11-12T22:38:07.850Z</time>
      </trkpt>
      <trkpt lat="47.511669" lon="7.762441">
        <ele>342.842414</ele>
        <time>2021-11-12T22:38:10.364Z</time>
      </trkpt>
      <trkpt lat="47.511856" lon="7.762402">
        <ele>342.432818</ele>
        <time>2021-11-12T22:38:12.364Z</time>
      </trkpt>
      <trkpt lat="47.512053" lon="7.762337">
        <ele>342.050739</ele>
        <time>2021-11-12T22:38:14.572Z</time>
      </trkpt>
      <trkpt lat="47.512768" lon="7.762032">
        <ele>340.706526</ele>
        <time>2021-11-12T22:38:22.941Z</time>
      </trkpt>
      <trkpt lat="47.512915" lon="7.761964">
        <ele>340.428306</ele>
        <time>2021-11-12T22:38:24.620Z</time>
      </trkpt>
      <trkpt lat="47.513579" lon="7.761207">
        <ele>338.916532</ele>
        <time>2021-11-12T22:38:38.258Z</time>
      </trkpt>
      <trkpt lat="47.513698" lon="7.761024">
        <ele>338.610669</ele>
        <time>2021-11-12T22:38:41.026Z</time>
      </trkpt>
      <trkpt lat="47.513823" lon="7.760801">
        <ele>338.261746</ele>
        <time>2021-11-12T22:38:44.184Z</time>
      </trkpt>
      <trkpt lat="47.513925" lon="7.760568">
        <ele>337.927432</ele>
        <time>2021-11-12T22:38:47.107Z</time>
      </trkpt>
      <trkpt lat="47.514223" lon="7.759880">
        <ele>336.943352</ele>
        <time>2021-11-12T22:38:55.995Z</time>
      </trkpt>
      <trkpt lat="47.514516" lon="7.759245">
        <ele>336.017411</ele>
        <time>2021-11-12T22:39:04.302Z</time>
      </trkpt>
      <trkpt lat="47.514759" lon="7.758843">
        <ele>335.351329</ele>
        <time>2021-11-12T22:39:10.137Z</time>
      </trkpt>
      <trkpt lat="47.515414" lon="7.757832">
        <ele>333.609361</ele>
        <time>2021-11-12T22:39:25.112Z</time>
      </trkpt>
      <trkpt lat="47.515839" lon="7.757283">
        <ele>332.570996</ele>
        <time>2021-11-12T22:39:34.085Z</time>
      </trkpt>
      <trkpt lat="47.516601" lon="7.756475">
        <ele>331.528469</ele>
        <time>2021-11-12T22:39:49.555Z</time>
      </trkpt>
      <trkpt lat="47.517965" lon="7.755391">
        <ele>331.002152</ele>
        <time>2021-11-12T22:40:17.529Z</time>
      </trkpt>
      <trkpt lat="47.519292" lon="7.754521">
        <ele>332.018285</ele>
        <time>2021-11-12T22:40:55.576Z</time>
      </trkpt>
      <trkpt lat="47.519450" lon="7.754470">
        <ele>332.165611</ele>
        <time>2021-11-12T22:40:59.283Z</time>
      </trkpt>
      <trkpt lat="47.519496" lon="7.754474">
        <ele>332.207592</ele>
        <time>2021-11-12T22:41:01.200Z</time>
      </trkpt>
      <trkpt lat="47.519558" lon="7.754516">
        <ele>332.269707</ele>
        <time>2021-11-12T22:41:02.785Z</time>
      </trkpt>
      <trkpt lat="47.519638" lon="7.754370">
        <ele>332.385385</ele>
        <time>2021-11-12T22:41:05.112Z</time>
      </trkpt>
      <trkpt lat="47.519771" lon="7.754124">
        <ele>332.579267</ele>
        <time>2021-11-12T22:41:09.658Z</time>
      </trkpt>
      <trkpt lat="47.520081" lon="7.753575">
        <ele>333.019561</ele>
        <time>2021-11-12T22:41:18.207Z</time>
      </trkpt>
      <trkpt lat="47.520500" lon="7.752840">
        <ele>332.867469</ele>
        <time>2021-11-12T22:41:28.662Z</time>
      </trkpt>
      <trkpt lat="47.520691" lon="7.752581">
        <ele>332.424932</ele>
        <time>2021-11-12T22:41:31.883Z</time>
      </trkpt>
      <trkpt lat="47.521128" lon="7.752139">
        <ele>331.520653</ele>
        <time>2021-11-12T22:41:37.632Z</time>
      </trkpt>
      <trkpt lat="47.522153" lon="7.751504">
        <ele>328.990376</ele>
        <time>2021-11-12T22:41:49.219Z</time>
      </trkpt>
      <trkpt lat="47.522660" lon="7.751079">
        <ele>327.037895</ele>
        <time>2021-11-12T22:41:55.067Z</time>
      </trkpt>
      <trkpt lat="47.523810" lon="7.749861">
        <ele>322.303199</ele>
        <time>2021-11-12T22:42:09.046Z</time>
      </trkpt>
      <trkpt lat="47.524595" lon="7.748826">
        <ele>318.787348</ele>
        <time>2021-11-12T22:42:19.656Z</time>
      </trkpt>
      <trkpt lat="47.524786" lon="7.748513">
        <ele>317.926608</ele>
        <time>2021-11-12T22:42:22.563Z</time>
      </trkpt>
      <trkpt lat="47.524939" lon="7.748210">
        <ele>317.268773</ele>
        <time>2021-11-12T22:42:25.287Z</time>
      </trkpt>
      <trkpt lat="47.525034" lon="7.748003">
        <ele>316.833604</ele>
        <time>2021-11-12T22:42:27.062Z</time>
      </trkpt>
      <trkpt lat="47.525102" lon="7.747843">
        <ele>316.504898</ele>
        <time>2021-11-12T22:42:28.465Z</time>
      </trkpt>
      <trkpt lat="47.525175" lon="7.747653">
        <ele>316.124814</ele>
        <time>2021-11-12T22:42:29.966Z</time>
      </trkpt>
      <trkpt lat="47.525493" lon="7.746648">
        <ele>314.195095</ele>
        <time>2021-11-12T22:42:37.848Z</time>
      </trkpt>
      <trkpt lat="47.525698" lon="7.745676">
        <ele>312.773109</ele>
        <time>2021-11-12T22:42:45.301Z</time>
      </trkpt>
      <trkpt lat="47.525754" lon="7.745361">
        <ele>312.374182</ele>
        <time>2021-11-12T22:42:47.705Z</time>
      </trkpt>
      <trkpt lat="47.525761" lon="7.745310">
        <ele>312.310446</ele>
        <time>2021-11-12T22:42:48.092Z</time>
      </trkpt>
      <trkpt lat="47.525817" lon="7.744920">
        <ele>311.822134</ele>
        <time>2021-11-12T22:42:51.146Z</time>
      </trkpt>
      <trkpt lat="47.525836" lon="7.744800">
        <ele>311.671184</ele>
        <time>2021-11-12T22:42:52.060Z</time>
      </trkpt>
      <trkpt lat="47.525969" lon="7.743974">
        <ele>310.631223</ele>
        <time>2021-11-12T22:42:58.609Z</time>
      </trkpt>
      <trkpt lat="47.526222" lon="7.742784">
        <ele>309.627169</ele>
        <time>2021-11-12T22:43:08.497Z</time>
      </trkpt>
      <trkpt lat="47.526782" lon="7.740808">
        <ele>308.424999</ele>
        <time>2021-11-12T22:43:26.365Z</time>
      </trkpt>
      <trkpt lat="47.527038" lon="7.739424">
        <ele>308.323954</ele>
        <time>2021-11-12T22:43:40.074Z</time>
      </trkpt>
      <trkpt lat="47.527057" lon="7.739263">
        <ele>308.312446</ele>
        <time>2021-11-12T22:43:41.824Z</time>
      </trkpt>
      <trkpt lat="47.527103" lon="7.738847">
        <ele>308.282763</ele>
        <time>2021-11-12T22:43:46.864Z</time>
      </trkpt>
      <trkpt lat="47.527103" lon="7.738848">
        <ele>308.282693</ele>
        <time>2021-11-12T22:43:46.896Z</time>
      </trkpt>
      <trkpt lat="47.527103" lon="7.738847">
        <ele>308.282622</ele>
        <time>2021-11-12T22:43:46.902Z</time>
      </trkpt>
      <trkpt lat="47.527349" lon="7.738840">
        <ele>308.387743</ele>
        <time>2021-11-12T22:43:51.487Z</time>
      </trkpt>
      <trkpt lat="47.527567" lon="7.738827">
        <ele>308.563440</ele>
        <time>2021-11-12T22:43:55.443Z</time>
      </trkpt>
      <trkpt lat="47.527841" lon="7.738820">
        <ele>308.784125</ele>
        <time>2021-11-12T22:44:00.251Z</time>
      </trkpt>
      <trkpt lat="47.528292" lon="7.738774">
        <ele>309.148174</ele>
        <time>2021-11-12T22:44:11.162Z</time>
      </trkpt>
      <trkpt lat="47.528341" lon="7.738762">
        <ele>309.188170</ele>
        <time>2021-11-12T22:44:12.180Z</time>
      </trkpt>
      <trkpt lat="47.528601" lon="7.738620">
        <ele>309.411331</ele>
        <time>2021-11-12T22:44:17.621Z</time>
      </trkpt>
      <trkpt lat="47.528842" lon="7.738378">
        <ele>309.645812</ele>
        <time>2021-11-12T22:44:22.971Z</time>
      </trkpt>
      <trkpt lat="47.528896" lon="7.738303">
        <ele>309.705429</ele>
        <time>2021-11-12T22:44:24.613Z</time>
      </trkpt>
      <trkpt lat="47.528997" lon="7.738134">
        <ele>309.716281</ele>
        <time>2021-11-12T22:44:26.960Z</time>
      </trkpt>
      <trkpt lat="47.529534" lon="7.737005">
        <ele>309.687560</ele>
        <time>2021-11-12T22:44:40.628Z</time>
      </trkpt>
      <trkpt lat="47.529603" lon="7.736896">
        <ele>309.684453</ele>
        <time>2021-11-12T22:44:41.779Z</time>
      </trkpt>
      <trkpt lat="47.529741" lon="7.736731">
        <ele>309.678990</ele>
        <time>2021-11-12T22:44:43.981Z</time>
      </trkpt>
      <trkpt lat="47.530193" lon="7.736351">
        <ele>309.754778</ele>
        <time>2021-11-12T22:44:51.047Z</time>
      </trkpt>
      <trkpt lat="47.530882" lon="7.735983">
        <ele>310.756999</ele>
        <time>2021-11-12T22:45:03.867Z</time>
      </trkpt>
      <trkpt lat="47.531325" lon="7.735684">
        <ele>311.423151</ele>
        <time>2021-11-12T22:45:13.980Z</time>
      </trkpt>
      <trkpt lat="47.531389" lon="7.735745">
        <ele>311.527292</ele>
        <time>2021-11-12T22:45:16.726Z</time>
      </trkpt>
      <trkpt lat="47.531710" lon="7.735855">
        <ele>311.978133</ele>
        <time>2021-11-12T22:45:24.512Z</time>
      </trkpt>
      <trkpt lat="47.531874" lon="7.736048">
        <ele>312.409921</ele>
        <time>2021-11-12T22:45:29.849Z</time>
      </trkpt>
      <trkpt lat="47.533153" lon="7.739664">
        <ele>318.984278</ele>
        <time>2021-11-12T22:46:42.309Z</time>
      </trkpt>
      <trkpt lat="47.533191" lon="7.739816">
        <ele>319.172298</ele>
        <time>2021-11-12T22:46:44.491Z</time>
      </trkpt>
      <trkpt lat="47.533352" lon="7.740430">
        <ele>319.936371</ele>
        <time>2021-11-12T22:46:51.686Z</time>
      </trkpt>
      <trkpt lat="47.533707" lon="7.742025">
        <ele>319.670719</ele>
        <time>2021-11-12T22:47:06.686Z</time>
      </trkpt>
      <trkpt lat="47.533870" lon="7.743466">
        <ele>319.098914</ele>
        <time>2021-11-12T22:47:18.764Z</time>
      </trkpt>
      <trkpt lat="47.534043" lon="7.744207">
        <ele>318.914541</ele>
        <time>2021-11-12T22:47:25.847Z</time>
      </trkpt>
      <trkpt lat="47.534097" lon="7.744343">
        <ele>318.877439</ele>
        <time>2021-11-12T22:47:27.295Z</time>
      </trkpt>
      <trkpt lat="47.534179" lon="7.744495">
        <ele>318.831687</ele>
        <time>2021-11-12T22:47:29.174Z</time>
      </trkpt>
      <trkpt lat="47.534370" lon="7.744709">
        <ele>318.748273</ele>
        <time>2021-11-12T22:47:32.468Z</time>
      </trkpt>
      <trkpt lat="47.534429" lon="7.744856">
        <ele>318.708059</ele>
        <time>2021-11-12T22:47:34.230Z</time>
      </trkpt>
      <trkpt lat="47.534874" lon="7.746551">
        <ele>318.636873</ele>
        <time>2021-11-12T22:47:51.780Z</time>
      </trkpt>
      <trkpt lat="47.535912" lon="7.749669">
        <ele>319.237888</ele>
        <time>2021-11-12T22:48:30.121Z</time>
      </trkpt>
      <trkpt lat="47.537134" lon="7.752309">
        <ele>319.871588</ele>
        <time>2021-11-12T22:49:04.273Z</time>
      </trkpt>
      <trkpt lat="47.537371" lon="7.752851">
        <ele>320.469581</ele>
        <time>2021-11-12T22:49:10.922Z</time>
      </trkpt>
      <trkpt lat="47.537564" lon="7.753073">
        <ele>321.031998</ele>
        <time>2021-11-12T22:49:14.737Z</time>
      </trkpt>
      <trkpt lat="47.537715" lon="7.753194">
        <ele>321.427137</ele>
        <time>2021-11-12T22:49:18.582Z</time>
      </trkpt>
      <trkpt lat="47.538052" lon="7.753460">
        <ele>322.306029</ele>
        <time>2021-11-12T22:49:27.667Z</time>
      </trkpt>
      <trkpt lat="47.538359" lon="7.753900">
        <ele>323.289232</ele>
        <time>2021-11-12T22:49:38.898Z</time>
      </trkpt>
      <trkpt lat="47.538494" lon="7.754103">
        <ele>323.731992</ele>
        <time>2021-11-12T22:49:44.703Z</time>
      </trkpt>
      <trkpt lat="47.538723" lon="7.754445">
        <ele>325.042716</ele>
        <time>2021-11-12T22:49:54.896Z</time>
      </trkpt>
      <trkpt lat="47.538792" lon="7.754549">
        <ele>325.577648</ele>
        <time>2021-11-12T22:49:58.758Z</time>
      </trkpt>
      <trkpt lat="47.539079" lon="7.754976">
        <ele>327.788095</ele>
        <time>2021-11-12T22:50:14.456Z</time>
      </trkpt>
      <trkpt lat="47.539230" lon="7.755294">
        <ele>329.214352</ele>
        <time>2021-11-12T22:50:25.116Z</time>
      </trkpt>
      <trkpt lat="47.539346" lon="7.755736">
        <ele>330.954037</ele>
        <time>2021-11-12T22:50:38.407Z</time>
      </trkpt>
      <trkpt lat="47.539595" lon="7.757548">
        <ele>335.349437</ele>
        <time>2021-11-12T22:51:22.329Z</time>
      </trkpt>
      <trkpt lat="47.539722" lon="7.758107">
        <ele>336.186917</ele>
        <time>2021-11-12T22:51:31.337Z</time>
      </trkpt>
      <trkpt lat="47.539949" lon="7.758688">
        <ele>337.140094</ele>
        <time>2021-11-12T22:51:38.549Z</time>
      </trkpt>
      <trkpt lat="47.540447" lon="7.759585">
        <ele>335.209058</ele>
        <time>2021-11-12T22:51:47.073Z</time>
      </trkpt>
      <trkpt lat="47.540567" lon="7.759901">
        <ele>334.141380</ele>
        <time>2021-11-12T22:51:49.459Z</time>
      </trkpt>
      <trkpt lat="47.540921" lon="7.761599">
        <ele>327.968286</ele>
        <time>2021-11-12T22:52:00.582Z</time>
      </trkpt>
      <trkpt lat="47.541004" lon="7.762306">
        <ele>323.573049</ele>
        <time>2021-11-12T22:52:04.802Z</time>
      </trkpt>
      <trkpt lat="47.541023" lon="7.762922">
        <ele>319.796230</ele>
        <time>2021-11-12T22:52:08.385Z</time>
      </trkpt>
      <trkpt lat="47.541219" lon="7.763853">
        <ele>313.823184</ele>
        <time>2021-11-12T22:52:14.009Z</time>
      </trkpt>
      <trkpt lat="47.541334" lon="7.764020">
        <ele>312.613247</ele>
        <time>2021-11-12T22:52:15.475Z</time>
      </trkpt>
      <trkpt lat="47.541377" lon="7.764045">
        <ele>312.290066</ele>
        <time>2021-11-12T22:52:15.848Z</time>
      </trkpt>
      <trkpt lat="47.541364" lon="7.764150">
        <ele>311.785892</ele>
        <time>2021-11-12T22:52:16.460Z</time>
      </trkpt>
      <trkpt lat="47.541443" lon="7.764512">
        <ele>309.989091</ele>
        <time>2021-11-12T22:52:18.770Z</time>
      </trkpt>
      <trkpt lat="47.541552" lon="7.764869">
        <ele>308.138587</ele>
        <time>2021-11-12T22:52:21.064Z</time>
      </trkpt>
      <trkpt lat="47.541697" lon="7.765479">
        <ele>305.084252</ele>
        <time>2021-11-12T22:52:24.946Z</time>
      </trkpt>
      <trkpt lat="47.542317" lon="7.768533">
        <ele>296.418936</ele>
        <time>2021-11-12T22:52:46.419Z</time>
      </trkpt>
      <trkpt lat="47.542450" lon="7.769311">
        <ele>295.725440</ele>
        <time>2021-11-12T22:52:54.134Z</time>
      </trkpt>
      <trkpt lat="47.542720" lon="7.770771">
        <ele>295.785191</ele>
        <time>2021-11-12T22:53:10.678Z</time>
      </trkpt>
      <trkpt lat="47.543108" lon="7.773069">
        <ele>296.111917</ele>
        <time>2021-11-12T22:53:37.530Z</time>
      </trkpt>
      <trkpt lat="47.543145" lon="7.773277">
        <ele>296.150734</ele>
        <time>2021-11-12T22:53:39.656Z</time>
      </trkpt>
      <trkpt lat="47.543350" lon="7.774507">
        <ele>296.409093</ele>
        <time>2021-11-12T22:53:52.119Z</time>
      </trkpt>
      <trkpt lat="47.543402" lon="7.775016">
        <ele>296.534435</ele>
        <time>2021-11-12T22:53:57.182Z</time>
      </trkpt>
      <trkpt lat="47.543449" lon="7.775478">
        <ele>296.648192</ele>
        <time>2021-11-12T22:54:01.875Z</time>
      </trkpt>
      <trkpt lat="47.543482" lon="7.776095">
        <ele>296.798888</ele>
        <time>2021-11-12T22:54:08.583Z</time>
      </trkpt>
      <trkpt lat="47.543527" lon="7.776532">
        <ele>296.906519</ele>
        <time>2021-11-12T22:54:13.742Z</time>
      </trkpt>
      <trkpt lat="47.543707" lon="7.777394">
        <ele>298.496621</ele>
        <time>2021-11-12T22:54:26.028Z</time>
      </trkpt>
      <trkpt lat="47.543933" lon="7.778374">
        <ele>300.634788</ele>
        <time>2021-11-12T22:54:44.355Z</time>
      </trkpt>
      <trkpt lat="47.544100" lon="7.779438">
        <ele>303.326353</ele>
        <time>2021-11-12T22:55:08.556Z</time>
      </trkpt>
      <trkpt lat="47.544461" lon="7.782254">
        <ele>313.265924</ele>
        <time>2021-11-12T22:56:29.157Z</time>
      </trkpt>
      <trkpt lat="47.544469" lon="7.782455">
        <ele>313.235873</ele>
        <time>2021-11-12T22:56:34.191Z</time>
      </trkpt>
      <trkpt lat="47.544474" lon="7.782623">
        <ele>313.210774</ele>
        <time>2021-11-12T22:56:36.579Z</time>
      </trkpt>
      <trkpt lat="47.544490" lon="7.783060">
        <ele>313.145456</ele>
        <time>2021-11-12T22:56:40.470Z</time>
      </trkpt>
      <trkpt lat="47.544555" lon="7.783372">
        <ele>313.096722</ele>
        <time>2021-11-12T22:56:42.955Z</time>
      </trkpt>
      <trkpt lat="47.544627" lon="7.783499">
        <ele>313.071969</ele>
        <time>2021-11-12T22:56:44.352Z</time>
      </trkpt>
      <trkpt lat="47.544950" lon="7.784008">
        <ele>312.967703</ele>
        <time>2021-11-12T22:56:51.164Z</time>
      </trkpt>
      <trkpt lat="47.545054" lon="7.784227">
        <ele>312.853458</ele>
        <time>2021-11-12T22:56:53.736Z</time>
      </trkpt>
      <trkpt lat="47.545240" lon="7.784746">
        <ele>310.468010</ele>
        <time>2021-11-12T22:56:58.891Z</time>
      </trkpt>
      <trkpt lat="47.545250" lon="7.784778">
        <ele>310.324859</ele>
        <time>2021-11-12T22:56:59.164Z</time>
      </trkpt>
      <trkpt lat="47.545624" lon="7.785548">
        <ele>306.473879</ele>
        <time>2021-11-12T22:57:07.328Z</time>
      </trkpt>
      <trkpt lat="47.545672" lon="7.785654">
        <ele>305.955711</ele>
        <time>2021-11-12T22:57:08.337Z</time>
      </trkpt>
      <trkpt lat="47.545856" lon="7.785973">
        <ele>304.252327</ele>
        <time>2021-11-12T22:57:12.178Z</time>
      </trkpt>
      <trkpt lat="47.546102" lon="7.786217">
        <ele>302.471898</ele>
        <time>2021-11-12T22:57:16.162Z</time>
      </trkpt>
      <trkpt lat="47.546417" lon="7.786331">
        <ele>301.719836</ele>
        <time>2021-11-12T22:57:20.735Z</time>
      </trkpt>
      <trkpt lat="47.546464" lon="7.786335">
        <ele>301.649826</ele>
        <time>2021-11-12T22:57:21.496Z</time>
      </trkpt>
      <trkpt lat="47.546526" lon="7.786353">
        <ele>301.555871</ele>
        <time>2021-11-12T22:57:22.493Z</time>
      </trkpt>
      <trkpt lat="47.546913" lon="7.786470">
        <ele>300.968495</ele>
        <time>2021-11-12T22:57:28.651Z</time>
      </trkpt>
      <trkpt lat="47.546952" lon="7.786540">
        <ele>300.877386</ele>
        <time>2021-11-12T22:57:29.589Z</time>
      </trkpt>
      <trkpt lat="47.546959" lon="7.786598">
        <ele>300.818243</ele>
        <time>2021-11-12T22:57:30.291Z</time>
      </trkpt>
      <trkpt lat="47.546897" lon="7.787133">
        <ele>300.273360</ele>
        <time>2021-11-12T22:57:37.467Z</time>
      </trkpt>
      <trkpt lat="47.546800" lon="7.787916">
        <ele>299.474268</ele>
        <time>2021-11-12T22:57:48.693Z</time>
      </trkpt>
      <trkpt lat="47.546695" lon="7.788763">
        <ele>299.917013</ele>
        <time>2021-11-12T22:58:01.286Z</time>
      </trkpt>
      <trkpt lat="47.546673" lon="7.788921">
        <ele>300.010490</ele>
        <time>2021-11-12T22:58:03.894Z</time>
      </trkpt>
      <trkpt lat="47.546253" lon="7.791998">
        <ele>301.716167</ele>
        <time>2021-11-12T22:58:56.379Z</time>
      </trkpt>
      <trkpt lat="47.546185" lon="7.792380">
        <ele>301.914448</ele>
        <time>2021-11-12T22:59:02.940Z</time>
      </trkpt>
      <trkpt lat="47.546027" lon="7.793254">
        <ele>302.290918</ele>
        <time>2021-11-12T22:59:16.042Z</time>
      </trkpt>
      <trkpt lat="47.545969" lon="7.793663">
        <ele>302.165235</ele>
        <time>2021-11-12T22:59:21.196Z</time>
      </trkpt>
      <trkpt lat="47.545935" lon="7.794220">
        <ele>301.997044</ele>
        <time>2021-11-12T22:59:27.968Z</time>
      </trkpt>
      <trkpt lat="47.545921" lon="7.794468">
        <ele>301.922202</ele>
        <time>2021-11-12T22:59:31.075Z</time>
      </trkpt>
      <trkpt lat="47.545947" lon="7.794710">
        <ele>301.848509</ele>
        <time>2021-11-12T22:59:33.870Z</time>
      </trkpt>
      <trkpt lat="47.546019" lon="7.795020">
        <ele>301.749919</ele>
        <time>2021-11-12T22:59:37.843Z</time>
      </trkpt>
      <trkpt lat="47.546165" lon="7.795511">
        <ele>301.588568</ele>
        <time>2021-11-12T22:59:44.710Z</time>
      </trkpt>
      <trkpt lat="47.546170" lon="7.795612">
        <ele>301.558112</ele>
        <time>2021-11-12T22:59:45.759Z</time>
      </trkpt>
      <trkpt lat="47.546154" lon="7.795747">
        <ele>301.518613</ele>
        <time>2021-11-12T22:59:47.594Z</time>
      </trkpt>
      <trkpt lat="47.546105" lon="7.795928">
        <ele>301.516834</ele>
        <time>2021-11-12T22:59:50.736Z</time>
      </trkpt>
      <trkpt lat="47.546038" lon="7.796107">
        <ele>301.514968</ele>
        <time>2021-11-12T22:59:53.052Z</time>
      </trkpt>
      <trkpt lat="47.545889" lon="7.796500">
        <ele>301.510858</ele>
        <time>2021-11-12T22:59:59.920Z</time>
      </trkpt>
      <trkpt lat="47.545788" lon="7.796748">
        <ele>301.508217</ele>
        <time>2021-11-12T23:00:03.575Z</time>
      </trkpt>
      <trkpt lat="47.545728" lon="7.796950">
        <ele>301.506205</ele>
        <time>2021-11-12T23:00:06.896Z</time>
      </trkpt>
      <trkpt lat="47.545689" lon="7.797076">
        <ele>301.504941</ele>
        <time>2021-11-12T23:00:08.353Z</time>
      </trkpt>
      <trkpt lat="47.545670" lon="7.797142">
        <ele>301.504287</ele>
        <time>2021-11-12T23:00:09.449Z</time>
      </trkpt>
      <trkpt lat="47.545645" lon="7.797258">
        <ele>301.503177</ele>
        <time>2021-11-12T23:00:11.179Z</time>
      </trkpt>
      <trkpt lat="47.545637" lon="7.797310">
        <ele>301.502691</ele>
        <time>2021-11-12T23:00:12.526Z</time>
      </trkpt>
      <trkpt lat="47.545558" lon="7.798144">
        <ele>301.495012</ele>
        <time>2021-11-12T23:00:23.804Z</time>
      </trkpt>
      <trkpt lat="47.545511" lon="7.798680">
        <ele>301.403275</ele>
        <time>2021-11-12T23:00:31.873Z</time>
      </trkpt>
      <trkpt lat="47.545561" lon="7.798703">
        <ele>301.388247</ele>
        <time>2021-11-12T23:00:33.008Z</time>
      </trkpt>
      <trkpt lat="47.545581" lon="7.798713">
        <ele>301.382188</ele>
        <time>2021-11-12T23:00:33.397Z</time>
      </trkpt>
      <trkpt lat="47.545731" lon="7.798810">
        <ele>301.335209</ele>
        <time>2021-11-12T23:00:37.402Z</time>
      </trkpt>
      <trkpt lat="47.545807" lon="7.798846">
        <ele>301.312307</ele>
        <time>2021-11-12T23:00:38.740Z</time>
      </trkpt>
      <trkpt lat="47.546418" lon="7.798980">
        <ele>301.135016</ele>
        <time>2021-11-12T23:00:50.795Z</time>
      </trkpt>
      <trkpt lat="47.547540" lon="7.799538">
        <ele>300.719324</ele>
        <time>2021-11-12T23:01:11.436Z</time>
      </trkpt>
      <trkpt lat="47.547912" lon="7.799646">
        <ele>300.565291</ele>
        <time>2021-11-12T23:01:18.817Z</time>
      </trkpt>
      <trkpt lat="47.548459" lon="7.799691">
        <ele>300.342682</ele>
        <time>2021-11-12T23:01:29.754Z</time>
      </trkpt>
      <trkpt lat="47.548535" lon="7.799720">
        <ele>300.310792</ele>
        <time>2021-11-12T23:01:31.275Z</time>
      </trkpt>
      <trkpt lat="47.548514" lon="7.799795">
        <ele>300.288523</ele>
        <time>2021-11-12T23:01:32.339Z</time>
      </trkpt>
      <trkpt lat="47.548519" lon="7.799896">
        <ele>300.260748</ele>
        <time>2021-11-12T23:01:33.692Z</time>
      </trkpt>
      <trkpt lat="47.548545" lon="7.800404">
        <ele>300.222475</ele>
        <time>2021-11-12T23:01:40.484Z</time>
      </trkpt>
      <trkpt lat="47.548560" lon="7.800672">
        <ele>300.208005</ele>
        <time>2021-11-12T23:01:44.175Z</time>
      </trkpt>
      <trkpt lat="47.548569" lon="7.800838">
        <ele>300.199045</ele>
        <time>2021-11-12T23:01:46.420Z</time>
      </trkpt>
      <trkpt lat="47.548576" lon="7.800968">
        <ele>300.192028</ele>
        <time>2021-11-12T23:01:48.196Z</time>
      </trkpt>
      <trkpt lat="47.548596" lon="7.801213">
        <ele>300.178749</ele>
        <time>2021-11-12T23:01:51.575Z</time>
      </trkpt>
      <trkpt lat="47.548607" lon="7.801690">
        <ele>300.153069</ele>
        <time>2021-11-12T23:01:58.075Z</time>
      </trkpt>
      <trkpt lat="47.548626" lon="7.802129">
        <ele>300.129400</ele>
        <time>2021-11-12T23:02:03.994Z</time>
      </trkpt>
      <trkpt lat="47.548877" lon="7.802168">
        <ele>300.109281</ele>
        <time>2021-11-12T23:02:08.986Z</time>
      </trkpt>
      <trkpt lat="47.549410" lon="7.802226">
        <ele>299.955136</ele>
        <time>2021-11-12T23:02:19.400Z</time>
      </trkpt>
      <trkpt lat="47.549481" lon="7.802234">
        <ele>299.932429</ele>
        <time>2021-11-12T23:02:20.737Z</time>
      </trkpt>
      <trkpt lat="47.549879" lon="7.802247">
        <ele>299.805479</ele>
        <time>2021-11-12T23:02:28.204Z</time>
      </trkpt>
      <trkpt lat="47.550146" lon="7.802262">
        <ele>299.720273</ele>
        <time>2021-11-12T23:02:33.273Z</time>
      </trkpt>
      <trkpt lat="47.550134" lon="7.803051">
        <ele>299.550409</ele>
        <time>2021-11-12T23:02:43.502Z</time>
      </trkpt>
      <trkpt lat="47.550196" lon="7.803120">
        <ele>299.529583</ele>
        <time>2021-11-12T23:02:44.961Z</time>
      </trkpt>
      <trkpt lat="47.550981" lon="7.803132">
        <ele>299.491652</ele>
        <time>2021-11-12T23:02:59.608Z</time>
      </trkpt>
      <trkpt lat="47.551163" lon="7.803129">
        <ele>299.482858</ele>
        <time>2021-11-12T23:03:02.990Z</time>
      </trkpt>
      <trkpt lat="47.551163" lon="7.803129">
        <ele>299.482858</ele>
        <time>2021-11-12T23:03:03.016Z</time>
      </trkpt>
      <trkpt lat="47.551598" lon="7.803160">
        <ele>299.461815</ele>
        <time>2021-11-12T23:03:11.608Z</time>
      </trkpt>
      <trkpt lat="47.551666" lon="7.803144">
        <ele>299.458489</ele>
        <time>2021-11-12T23:03:16.353Z</time>
      </trkpt>
      <trkpt lat="47.551732" lon="7.803125">
        <ele>299.455240</ele>
        <time>2021-11-12T23:03:21.020Z</time>
      </trkpt>
      <trkpt lat="47.551744" lon="7.803277">
        <ele>299.450250</ele>
        <time>2021-11-12T23:03:22.700Z</time>
      </trkpt>
      <trkpt lat="47.551751" lon="7.803369">
        <ele>299.447231</ele>
        <time>2021-11-12T23:03:23.792Z</time>
      </trkpt>
      <trkpt lat="47.551692" lon="7.803510">
        <ele>299.468354</ele>
        <time>2021-11-12T23:03:26.386Z</time>
      </trkpt>
      <trkpt lat="47.551741" lon="7.804294">
        <ele>299.881084</ele>
        <time>2021-11-12T23:03:39.387Z</time>
      </trkpt>
      <trkpt lat="47.551744" lon="7.804473">
        <ele>299.974945</ele>
        <time>2021-11-12T23:03:41.924Z</time>
      </trkpt>
      <trkpt lat="47.551731" lon="7.804667">
        <ele>300.077139</ele>
        <time>2021-11-12T23:03:45.904Z</time>
      </trkpt>
      <trkpt lat="47.551709" lon="7.805000">
        <ele>300.252532</ele>
        <time>2021-11-12T23:03:50.395Z</time>
      </trkpt>
      <trkpt lat="47.551681" lon="7.805477">
        <ele>300.503519</ele>
        <time>2021-11-12T23:03:58.132Z</time>
      </trkpt>
      <trkpt lat="47.551671" lon="7.806117">
        <ele>300.839097</ele>
        <time>2021-11-12T23:04:08.221Z</time>
      </trkpt>
      <trkpt lat="47.551651" lon="7.806246">
        <ele>300.833101</ele>
        <time>2021-11-12T23:04:11.124Z</time>
      </trkpt>
      <trkpt lat="47.551895" lon="7.806278">
        <ele>300.812883</ele>
        <time>2021-11-12T23:04:14.649Z</time>
      </trkpt>
      <trkpt lat="47.552015" lon="7.806307">
        <ele>300.802848</ele>
        <time>2021-11-12T23:04:17.519Z</time>
      </trkpt>
      <trkpt lat="47.552068" lon="7.806445">
        <ele>300.794003</ele>
        <time>2021-11-12T23:04:18.976Z</time>
      </trkpt>
      <trkpt lat="47.552398" lon="7.808880">
        <ele>300.408016</ele>
        <time>2021-11-12T23:04:41.119Z</time>
      </trkpt>
      <trkpt lat="47.552566" lon="7.810386">
        <ele>299.741879</ele>
        <time>2021-11-12T23:04:54.130Z</time>
      </trkpt>
      <trkpt lat="47.552711" lon="7.812955">
        <ele>298.704491</ele>
        <time>2021-11-12T23:05:17.078Z</time>
      </trkpt>
      <trkpt lat="47.552820" lon="7.815794">
        <ele>297.707605</ele>
        <time>2021-11-12T23:05:41.968Z</time>
      </trkpt>
      <trkpt lat="47.552844" lon="7.816432">
        <ele>297.577568</ele>
        <time>2021-11-12T23:05:47.748Z</time>
      </trkpt>
      <trkpt lat="47.552948" lon="7.819358">
        <ele>297.832823</ele>
        <time>2021-11-12T23:06:18.108Z</time>
      </trkpt>
      <trkpt lat="47.552896" lon="7.820699">
        <ele>298.387696</ele>
        <time>2021-11-12T23:06:34.192Z</time>
      </trkpt>
      <trkpt lat="47.552567" lon="7.824508">
        <ele>300.256744</ele>
        <time>2021-11-12T23:07:20.677Z</time>
      </trkpt>
      <trkpt lat="47.552491" lon="7.827227">
        <ele>301.707939</ele>
        <time>2021-11-12T23:07:52.417Z</time>
      </trkpt>
      <trkpt lat="47.552515" lon="7.828094">
        <ele>302.530414</ele>
        <time>2021-11-12T23:08:04.127Z</time>
      </trkpt>
      <trkpt lat="47.552477" lon="7.828294">
        <ele>302.727352</ele>
        <time>2021-11-12T23:08:06.744Z</time>
      </trkpt>
      <trkpt lat="47.552421" lon="7.828481">
        <ele>302.921265</ele>
        <time>2021-11-12T23:08:09.675Z</time>
      </trkpt>
      <trkpt lat="47.552404" lon="7.828582">
        <ele>303.019930</ele>
        <time>2021-11-12T23:08:11.359Z</time>
      </trkpt>
      <trkpt lat="47.552416" lon="7.828822">
        <ele>303.248037</ele>
        <time>2021-11-12T23:08:14.593Z</time>
      </trkpt>
      <trkpt lat="47.552554" lon="7.829266">
        <ele>303.711363</ele>
        <time>2021-11-12T23:08:21.945Z</time>
      </trkpt>
      <trkpt lat="47.552645" lon="7.830686">
        <ele>305.892377</ele>
        <time>2021-11-12T23:08:45.250Z</time>
      </trkpt>
      <trkpt lat="47.552690" lon="7.832598">
        <ele>308.871574</ele>
        <time>2021-11-12T23:09:17.103Z</time>
      </trkpt>
      <trkpt lat="47.552653" lon="7.832745">
        <ele>309.103039</ele>
        <time>2021-11-12T23:09:19.450Z</time>
      </trkpt>
      <trkpt lat="47.552616" lon="7.832891">
        <ele>309.333123</ele>
        <time>2021-11-12T23:09:21.854Z</time>
      </trkpt>
      <trkpt lat="47.552556" lon="7.832977">
        <ele>309.515608</ele>
        <time>2021-11-12T23:09:24.573Z</time>
      </trkpt>
      <trkpt lat="47.552508" lon="7.832936">
        <ele>309.636721</ele>
        <time>2021-11-12T23:09:25.948Z</time>
      </trkpt>
      <trkpt lat="47.552458" lon="7.832824">
        <ele>309.834837</ele>
        <time>2021-11-12T23:09:28.421Z</time>
      </trkpt>
      <trkpt lat="47.552368" lon="7.832305">
        <ele>310.625410</ele>
        <time>2021-11-12T23:09:38.995Z</time>
      </trkpt>
      <trkpt lat="47.552251" lon="7.831814">
        <ele>311.393629</ele>
        <time>2021-11-12T23:09:49.117Z</time>
      </trkpt>
      <trkpt lat="47.552135" lon="7.831524">
        <ele>311.890978</ele>
        <time>2021-11-12T23:09:55.973Z</time>
      </trkpt>
      <trkpt lat="47.552065" lon="7.831350">
        <ele>312.087578</ele>
        <time>2021-11-12T23:09:59.379Z</time>
      </trkpt>
      <trkpt lat="47.551640" lon="7.830558">
        <ele>312.748970</ele>
        <time>2021-11-12T23:10:17.829Z</time>
      </trkpt>
      <trkpt lat="47.550675" lon="7.828955">
        <ele>313.305286</ele>
        <time>2021-11-12T23:10:49.532Z</time>
      </trkpt>
      <trkpt lat="47.550522" lon="7.828744">
        <ele>313.083795</ele>
        <time>2021-11-12T23:10:53.435Z</time>
      </trkpt>
      <trkpt lat="47.550183" lon="7.828277">
        <ele>312.593287</ele>
        <time>2021-11-12T23:11:01.081Z</time>
      </trkpt>
      <trkpt lat="47.549105" lon="7.827067">
        <ele>311.089289</ele>
        <time>2021-11-12T23:11:22.426Z</time>
      </trkpt>
      <trkpt lat="47.548679" lon="7.826710">
        <ele>310.516767</ele>
        <time>2021-11-12T23:11:30.614Z</time>
      </trkpt>
      <trkpt lat="47.548237" lon="7.826410">
        <ele>309.948048</ele>
        <time>2021-11-12T23:11:39.354Z</time>
      </trkpt>
      <trkpt lat="47.547666" lon="7.826091">
        <ele>310.242748</ele>
        <time>2021-11-12T23:11:51.574Z</time>
      </trkpt>
      <trkpt lat="47.547233" lon="7.825872">
        <ele>310.778415</ele>
        <time>2021-11-12T23:12:03.293Z</time>
      </trkpt>
      <trkpt lat="47.546693" lon="7.825618">
        <ele>311.441727</ele>
        <time>2021-11-12T23:12:18.573Z</time>
      </trkpt>
      <trkpt lat="47.546589" lon="7.825597">
        <ele>311.564612</ele>
        <time>2021-11-12T23:12:21.446Z</time>
      </trkpt>
      <trkpt lat="47.546577" lon="7.826116">
        <ele>312.091182</ele>
        <time>2021-11-12T23:12:31.251Z</time>
      </trkpt>
      <trkpt lat="47.546574" lon="7.826239">
        <ele>312.274746</ele>
        <time>2021-11-12T23:12:33.971Z</time>
      </trkpt>
      <trkpt lat="47.546592" lon="7.826850">
        <ele>313.186869</ele>
        <time>2021-11-12T23:12:45.718Z</time>
      </trkpt>
      <trkpt lat="47.546721" lon="7.828140">
        <ele>315.131791</ele>
        <time>2021-11-12T23:13:11.850Z</time>
      </trkpt>
      <trkpt lat="47.546823" lon="7.829336">
        <ele>316.838580</ele>
        <time>2021-11-12T23:13:35.435Z</time>
      </trkpt>
      <trkpt lat="47.546946" lon="7.830852">
        <ele>318.929141</ele>
        <time>2021-11-12T23:14:04.678Z</time>
      </trkpt>
      <trkpt lat="47.547020" lon="7.831965">
        <ele>320.348942</ele>
        <time>2021-11-12T23:14:25.515Z</time>
      </trkpt>
      <trkpt lat="47.547190" lon="7.835066">
        <ele>324.138160</ele>
        <time>2021-11-12T23:15:22.607Z</time>
      </trkpt>
      <trkpt lat="47.547240" lon="7.836221">
        <ele>325.552148</ele>
        <time>2021-11-12T23:15:44.081Z</time>
      </trkpt>
      <trkpt lat="47.547276" lon="7.837287">
        <ele>326.858129</ele>
        <time>2021-11-12T23:16:04.192Z</time>
      </trkpt>
      <trkpt lat="47.547300" lon="7.838688">
        <ele>328.574135</ele>
        <time>2021-11-12T23:16:30.938Z</time>
      </trkpt>
      <trkpt lat="47.547332" lon="7.840572">
        <ele>330.052205</ele>
        <time>2021-11-12T23:17:03.559Z</time>
      </trkpt>
      <trkpt lat="47.547339" lon="7.841072">
        <ele>330.358092</ele>
        <time>2021-11-12T23:17:11.334Z</time>
      </trkpt>
      <trkpt lat="47.547362" lon="7.841665">
        <ele>330.721395</ele>
        <time>2021-11-12T23:17:20.107Z</time>
      </trkpt>
      <trkpt lat="47.547448" lon="7.842262">
        <ele>330.915232</ele>
        <time>2021-11-12T23:17:28.507Z</time>
      </trkpt>
      <trkpt lat="47.547414" lon="7.842470">
        <ele>330.948473</ele>
        <time>2021-11-12T23:17:31.313Z</time>
      </trkpt>
      <trkpt lat="47.547354" lon="7.842839">
        <ele>331.007426</ele>
        <time>2021-11-12T23:17:36.388Z</time>
      </trkpt>
      <trkpt lat="47.547313" lon="7.843735">
        <ele>331.146913</ele>
        <time>2021-11-12T23:17:48.709Z</time>
      </trkpt>
      <trkpt lat="47.547295" lon="7.844722">
        <ele>331.481908</ele>
        <time>2021-11-12T23:18:03.452Z</time>
      </trkpt>
      <trkpt lat="47.547274" lon="7.845536">
        <ele>332.320829</ele>
        <time>2021-11-12T23:18:16.915Z</time>
      </trkpt>
      <trkpt lat="47.547124" lon="7.848795">
        <ele>336.213742</ele>
        <time>2021-11-12T23:19:19.069Z</time>
      </trkpt>
      <trkpt lat="47.547143" lon="7.849985">
        <ele>337.751606</ele>
        <time>2021-11-12T23:19:41.921Z</time>
      </trkpt>
      <trkpt lat="47.547141" lon="7.850355">
        <ele>338.066395</ele>
        <time>2021-11-12T23:19:49.021Z</time>
      </trkpt>
      <trkpt lat="47.546945" lon="7.851719">
        <ele>339.252830</ele>
        <time>2021-11-12T23:20:13.554Z</time>
      </trkpt>
      <trkpt lat="47.546582" lon="7.856413">
        <ele>340.670927</ele>
        <time>2021-11-12T23:21:21.865Z</time>
      </trkpt>
      <trkpt lat="47.546537" lon="7.857497">
        <ele>340.853715</ele>
        <time>2021-11-12T23:21:37.173Z</time>
      </trkpt>
      <trkpt lat="47.546487" lon="7.859119">
        <ele>341.208323</ele>
        <time>2021-11-12T23:22:00.621Z</time>
      </trkpt>
      <trkpt lat="47.546526" lon="7.861665">
        <ele>341.214006</ele>
        <time>2021-11-12T23:22:37.795Z</time>
      </trkpt>
      <trkpt lat="47.546592" lon="7.863006">
        <ele>340.894930</ele>
        <time>2021-11-12T23:22:54.262Z</time>
      </trkpt>
      <trkpt lat="47.546877" lon="7.864345">
        <ele>339.226219</ele>
        <time>2021-11-12T23:23:09.431Z</time>
      </trkpt>
      <trkpt lat="47.546885" lon="7.864500">
        <ele>339.032104</ele>
        <time>2021-11-12T23:23:11.111Z</time>
      </trkpt>
      <trkpt lat="47.546894" lon="7.864837">
        <ele>338.610960</ele>
        <time>2021-11-12T23:23:14.590Z</time>
      </trkpt>
      <trkpt lat="47.546889" lon="7.865225">
        <ele>338.126374</ele>
        <time>2021-11-12T23:23:18.711Z</time>
      </trkpt>
      <trkpt lat="47.546819" lon="7.865489">
        <ele>337.772192</ele>
        <time>2021-11-12T23:23:21.789Z</time>
      </trkpt>
      <trkpt lat="47.546510" lon="7.865766">
        <ele>337.209079</ele>
        <time>2021-11-12T23:23:27.483Z</time>
      </trkpt>
      <trkpt lat="47.546327" lon="7.865959">
        <ele>336.891903</ele>
        <time>2021-11-12T23:23:30.814Z</time>
      </trkpt>
      <trkpt lat="47.546096" lon="7.866147">
        <ele>336.519763</ele>
        <time>2021-11-12T23:23:34.881Z</time>
      </trkpt>
      <trkpt lat="47.545240" lon="7.866887">
        <ele>335.120388</ele>
        <time>2021-11-12T23:23:51.554Z</time>
      </trkpt>
      <trkpt lat="47.545160" lon="7.866985">
        <ele>335.008034</ele>
        <time>2021-11-12T23:23:53.510Z</time>
      </trkpt>
      <trkpt lat="47.545003" lon="7.867278">
        <ele>335.008034</ele>
        <time>2021-11-12T23:23:59.178Z</time>
      </trkpt>
      <trkpt lat="47.544568" lon="7.867693">
        <ele>335.008034</ele>
        <time>2021-11-12T23:24:11.767Z</time>
      </trkpt>
      <trkpt lat="47.544469" lon="7.867776">
        <ele>335.008034</ele>
        <time>2021-11-12T23:24:14.386Z</time>
      </trkpt>
      <trkpt lat="47.544410" lon="7.867825">
        <ele>335.008034</ele>
        <time>2021-11-12T23:24:16.179Z</time>
      </trkpt>
      <trkpt lat="47.544246" lon="7.867967">
        <ele>335.008034</ele>
        <time>2021-11-12T23:24:20.790Z</time>
      </trkpt>
      <trkpt lat="47.544214" lon="7.867988">
        <ele>335.008034</ele>
        <time>2021-11-12T23:24:21.603Z</time>
      </trkpt>
      <trkpt lat="47.543801" lon="7.868269">
        <ele>335.008034</ele>
        <time>2021-11-12T23:24:32.669Z</time>
      </trkpt>
      <trkpt lat="47.543657" lon="7.868359">
        <ele>335.008034</ele>
        <time>2021-11-12T23:24:36.872Z</time>
      </trkpt>
      <trkpt lat="47.543448" lon="7.868496">
        <ele>335.008034</ele>
        <time>2021-11-12T23:24:41.550Z</time>
      </trkpt>
    </trkseg>
  </trk>
</gpx>